AA1454 / N359PX 7700 Squawk Report (22nd of March, 2019)

Aircraft B738 Reg No. N359PX Age 1 years old
Model 737 Jet engines 2 First flight 03-12-17
Registered 08-12-17 Rollout N/A Delivered 08-12-17
Construction No. 31280 Line No. 6709 Series 800
ADSHEX A40797 Airline name American Airlines Owner N/A
Airfield based Dallas-Fort Worth~TX~N First tracked 2017-12-24 03:51:00

Flight history for N359PX

Route Flight No Date Playback
Miami Intl (MIA) - Reina Beatrix Intl (AUA) - Miami Intl (MIA) AA1028 2019-04-22 17:04:00
Pierre Elliott Trudeau (YUL) - Miami Intl (MIA) AA1516 2019-04-22 15:19:00
Miami Intl (MIA) - Pierre Elliott Trudeau (YUL) AA2702 2019-04-22 10:04:00
Punta Cana (PUJ) - Miami Intl (MIA) AA2468 2019-04-22 00:02:00
Hartsfield Jackson Atlanta Intl (ATL) - Miami Intl (MIA) AA2344 2019-04-21 16:19:00
Miami Intl (MIA) - Hartsfield Jackson Atlanta Intl (ATL) AA1545 2019-04-21 04:25:00
Ronald Reagan Washington Natl (DCA) - Miami Intl (MIA) AA1803 2019-04-21 00:17:00
Miami Intl (MIA) - Cancun Intl (CUN) - Miami Intl (MIA) AA1157 2019-04-20 17:02:00
Ronald Reagan Washington Natl (DCA) - Miami Intl (MIA) AA1803 2019-04-20 05:19:00
José Martí Intl (HAV) - Miami Intl (MIA) AA1334 2019-04-19 16:55:00
Miami Intl (MIA) - José Martí Intl (HAV) AA1447 2019-04-19 14:21:00
Las Américas Intl (SDQ) - Miami Intl (MIA) AA1154 2019-04-19 11:43:00
Miami Intl (MIA) - Las Américas Intl (SDQ) AA1511 2019-04-19 09:49:00
Juan Santamaria Intl (SJO) - Miami Intl (MIA) AA1600 2019-04-18 21:06:00
Miami Intl (MIA) - Juan Santamaria Intl (SJO) AA1592 2019-04-18 18:34:00
Hartsfield Jackson Atlanta Intl (ATL) - Miami Intl (MIA) AA2344 2019-04-18 15:13:00
Miami Intl (MIA) - Hartsfield Jackson Atlanta Intl (ATL) AA1545 2019-04-18 11:31:00
Logan International Airport (BOS) - Miami Intl (MIA) AA2336 2019-04-18 00:40:00
Chicago Ohare Intl (ORD) - Logan International Airport (BOS) AA1360 2019-04-17 21:19:00
Dallas Fort Worth (DFW) - Chicago Ohare Intl (ORD) AA1258 2019-04-17 18:23:00
Time Lat Lon Altitude Heading Speed Vertical Rate
2019-03-22 04:56:36 GMT 44.886108 -93.213448 0 165 0 0
2019-03-22 04:56:24 GMT 44.886147 -93.213448 0 165 0 0
2019-03-22 04:56:15 GMT 44.886215 -93.213486 0 165 4 0
2019-03-22 04:56:05 GMT 44.886250 -93.213333 0 165 5 0
We lost coverage of the aircraft here for a total of 9 minutes
2019-03-22 04:47:29 GMT 44.886772 -93.226463 0 0 0 0
2019-03-22 04:47:18 GMT 44.886749 -93.226463 0 0 0 0
2019-03-22 04:45:53 GMT 44.886436 -93.226700 0 16 9 0
2019-03-22 04:44:22 GMT 44.880901 -93.218208 0 300 86 0
2019-03-22 04:43:58 GMT 44.873611 -93.201447 725 302 147 -832
2019-03-22 04:43:53 GMT 44.871735 -93.197151 800 302 146 -704
2019-03-22 04:43:42 GMT 44.867889 -93.188194 925 302 147 -896
2019-03-22 04:43:39 GMT 44.866535 -93.185028 1,050 302 148 -896
2019-03-22 04:43:30 GMT 44.862438 -93.175453 1,150 301 145 -768
2019-03-22 04:43:20 GMT 44.860435 -93.170761 1,225 301 139 -768
2019-03-22 04:43:16 GMT 44.858994 -93.167274 1,275 301 138 -768
2019-03-22 04:43:10 GMT 44.856857 -93.162361 1,375 302 136 -768
2019-03-22 04:43:07 GMT 44.855850 -93.160011 1,450 303 133 -640
2019-03-22 04:42:57 GMT 44.852417 -93.152420 1,550 303 132 -768
2019-03-22 04:42:48 GMT 44.849899 -93.146797 1,650 302 134 -704
2019-03-22 04:42:44 GMT 44.848240 -93.143097 1,700 302 134 -640
2019-03-22 04:42:38 GMT 44.845917 -93.137642 1,775 301 136 -768
2019-03-22 04:42:35 GMT 44.844864 -93.135155 1,825 302 136 -832
2019-03-22 04:42:30 GMT 44.844051 -93.133247 1,875 302 137 -768
2019-03-22 04:42:24 GMT 44.841843 -93.128227 1,950 302 137 -704
2019-03-22 04:42:21 GMT 44.840511 -93.125137 2,000 302 137 -768
2019-03-22 04:42:18 GMT 44.839859 -93.123604 2,025 301 138 -768
2019-03-22 04:42:14 GMT 44.838184 -93.119652 2,075 301 137 -832
2019-03-22 04:42:07 GMT 44.836441 -93.115540 2,150 302 136 -704
2019-03-22 04:42:04 GMT 44.835159 -93.112480 2,200 302 137 -704
2019-03-22 04:41:58 GMT 44.833065 -93.107788 2,275 303 139 -768
2019-03-22 04:41:54 GMT 44.831635 -93.104553 2,325 302 139 -768
2019-03-22 04:41:46 GMT 44.829437 -93.099586 2,400 301 140 -768
2019-03-22 04:41:43 GMT 44.827988 -93.096138 2,450 302 141 -704
2019-03-22 04:41:36 GMT 44.826096 -93.091866 2,600 301 143 -768
2019-03-22 04:41:33 GMT 44.824684 -93.088501 2,575 301 143 -768
2019-03-22 04:41:26 GMT 44.821518 -93.080948 2,700 301 145 -704
2019-03-22 04:41:18 GMT 44.819237 -93.075432 2,775 302 146 -768
2019-03-22 04:41:14 GMT 44.818176 -93.073036 2,825 301 145 -768
2019-03-22 04:41:06 GMT 44.815292 -93.066170 2,875 300 144 0
2019-03-22 04:41:03 GMT 44.814629 -93.064445 2,875 299 143 0
2019-03-22 04:41:00 GMT 44.813782 -93.062309 2,875 300 144 0
2019-03-22 04:40:57 GMT 44.812408 -93.058777 2,875 300 144 0
2019-03-22 04:40:54 GMT 44.811310 -93.056099 2,875 301 143 0
2019-03-22 04:40:50 GMT 44.810345 -93.053864 2,875 302 143 0
2019-03-22 04:40:46 GMT 44.808949 -93.050583 2,875 304 143 0
2019-03-22 04:40:43 GMT 44.807972 -93.048508 2,875 304 142 0
2019-03-22 04:40:35 GMT 44.804993 -93.042496 2,875 311 141 0
2019-03-22 04:40:32 GMT 44.803596 -93.040131 2,875 311 141 0
2019-03-22 04:40:24 GMT 44.799965 -93.034904 2,875 314 142 -512
2019-03-22 04:40:21 GMT 44.798847 -93.033234 2,900 313 144 -768
2019-03-22 04:40:12 GMT 44.794647 -93.025887 3,050 304 152 -768
2019-03-22 04:40:05 GMT 44.791992 -93.019997 3,125 300 154 -448
2019-03-22 04:40:02 GMT 44.790794 -93.017021 3,175 299 155 -704
2019-03-22 04:39:58 GMT 44.789841 -93.014503 3,200 297 160 -896
2019-03-22 04:39:50 GMT 44.787186 -93.007179 3,325 296 161 -1088
2019-03-22 04:39:47 GMT 44.785904 -93.003387 3,375 305 156 -1600
2019-03-22 04:39:44 GMT 44.784790 -93.000069 3,450 297 162 -1536
2019-03-22 04:39:40 GMT 44.783997 -92.997864 3,525 298 161 -1664
2019-03-22 04:39:35 GMT 44.781670 -92.991898 3,700 305 156 -1600
2019-03-22 04:39:32 GMT 44.780552 -92.989487 3,775 307 156 -1344
2019-03-22 04:39:29 GMT 44.779716 -92.987946 3,825 309 155 -1088
2019-03-22 04:39:25 GMT 44.777802 -92.984688 3,850 313 157 -192
2019-03-22 04:39:21 GMT 44.775803 -92.981712 3,850 318 157 64
2019-03-22 04:39:10 GMT 44.768913 -92.973274 3,850 313 169 -128
2019-03-22 04:38:59 GMT 44.764023 -92.964737 3,875 309 172 -128
2019-03-22 04:38:50 GMT 44.758713 -92.957542 3,875 327 167 0
2019-03-22 04:38:41 GMT 44.753036 -92.952446 3,875 328 166 0
2019-03-22 04:38:36 GMT 44.749920 -92.949631 3,875 328 167 0
2019-03-22 04:38:31 GMT 44.746010 -92.946144 3,875 328 168 0
2019-03-22 04:38:28 GMT 44.744019 -92.944405 3,875 328 168 0
2019-03-22 04:38:18 GMT 44.737633 -92.938705 3,875 329 166 0
2019-03-22 04:38:09 GMT 44.732140 -92.933952 3,875 329 166 0
2019-03-22 04:38:06 GMT 44.730560 -92.932564 3,875 329 166 0
2019-03-22 04:38:02 GMT 44.727448 -92.929947 3,875 329 166 0
2019-03-22 04:37:59 GMT 44.725433 -92.928185 3,875 329 166 -64
2019-03-22 04:37:56 GMT 44.723434 -92.926514 3,875 329 166 -64
2019-03-22 04:37:51 GMT 44.719940 -92.923477 3,875 329 167 64
2019-03-22 04:37:46 GMT 44.717010 -92.920921 3,875 329 167 0
2019-03-22 04:37:38 GMT 44.711288 -92.915955 3,875 328 167 -64
2019-03-22 04:37:35 GMT 44.710026 -92.914864 3,875 328 168 0
2019-03-22 04:37:32 GMT 44.706894 -92.912033 3,875 328 167 0
2019-03-22 04:37:26 GMT 44.703506 -92.908958 3,875 328 168 0
2019-03-22 04:37:15 GMT 44.696548 -92.902679 3,875 327 168 0
2019-03-22 04:37:05 GMT 44.690140 -92.896797 3,875 327 166 0
2019-03-22 04:36:56 GMT 44.682980 -92.890205 3,875 327 166 0
2019-03-22 04:36:44 GMT 44.676460 -92.884178 3,875 327 167 0
2019-03-22 04:36:32 GMT 44.669525 -92.877747 3,875 327 167 0
2019-03-22 04:36:23 GMT 44.662674 -92.871483 3,875 327 166 0
2019-03-22 04:36:12 GMT 44.655991 -92.865471 3,875 328 167 0
2019-03-22 04:36:02 GMT 44.649170 -92.859322 3,875 328 167 0
2019-03-22 04:35:51 GMT 44.642387 -92.853233 3,875 327 166 0
2019-03-22 04:35:41 GMT 44.635448 -92.847000 3,875 332 163 -64
2019-03-22 04:35:32 GMT 44.629715 -92.843628 3,875 355 160 0
2019-03-22 04:35:22 GMT 44.622574 -92.844215 3,875 3 160 0
2019-03-22 04:35:19 GMT 44.619297 -92.846199 3,875 35 166 64
2019-03-22 04:35:12 GMT 44.615204 -92.850754 3,875 47 171 0
2019-03-22 04:35:09 GMT 44.614037 -92.852562 3,875 47 171 0
2019-03-22 04:34:59 GMT 44.608261 -92.861198 3,875 47 172 0
2019-03-22 04:34:51 GMT 44.603886 -92.867905 3,875 47 172 0
2019-03-22 04:34:48 GMT 44.602615 -92.869850 3,875 47 172 0
2019-03-22 04:34:40 GMT 44.598488 -92.876205 3,875 47 172 0
2019-03-22 04:34:37 GMT 44.596893 -92.878677 3,875 47 172 0
2019-03-22 04:34:30 GMT 44.592270 -92.885742 3,875 47 172 0
2019-03-22 04:34:27 GMT 44.591492 -92.886986 3,875 47 172 0
2019-03-22 04:34:17 GMT 44.585918 -92.895500 3,875 47 171 0
2019-03-22 04:34:09 GMT 44.581493 -92.902199 3,875 47 171 0
2019-03-22 04:34:06 GMT 44.580379 -92.903938 3,875 47 171 0
2019-03-22 04:33:58 GMT 44.575607 -92.911179 3,875 47 170 0
2019-03-22 04:33:55 GMT 44.574654 -92.912651 3,875 47 170 0
2019-03-22 04:33:45 GMT 44.568970 -92.921249 3,875 47 171 0
2019-03-22 04:33:37 GMT 44.564713 -92.927788 3,875 47 170 0
2019-03-22 04:33:32 GMT 44.561462 -92.932632 3,875 47 171 0
2019-03-22 04:33:27 GMT 44.557755 -92.938713 3,875 56 173 0
2019-03-22 04:33:16 GMT 44.553238 -92.950500 3,875 68 179 0
2019-03-22 04:33:13 GMT 44.553238 -92.950500 3,875 78 183 0
2019-03-22 04:33:06 GMT 44.551987 -92.957939 3,875 83 185 0
2019-03-22 04:33:03 GMT 44.551666 -92.960884 3,875 95 192 -64
2019-03-22 04:32:53 GMT 44.552029 -92.973412 3,900 99 192 -64
2019-03-22 04:32:42 GMT 44.553562 -92.986473 3,875 99 193 64
2019-03-22 04:32:35 GMT 44.554733 -92.996780 3,875 99 194 64
2019-03-22 04:32:32 GMT 44.555099 -92.999870 3,875 99 194 0
2019-03-22 04:32:21 GMT 44.556564 -93.012611 3,875 100 198 0
2019-03-22 04:32:14 GMT 44.558079 -93.022247 3,875 107 202 0
2019-03-22 04:32:11 GMT 44.558872 -93.025597 3,875 111 204 0
2019-03-22 04:32:00 GMT 44.563339 -93.038124 3,875 124 209 0
2019-03-22 04:31:50 GMT 44.569382 -93.049751 3,875 127 209 0
2019-03-22 04:31:42 GMT 44.574326 -93.058907 3,875 127 208 0
2019-03-22 04:31:39 GMT 44.575378 -93.060867 3,875 127 208 0
2019-03-22 04:31:29 GMT 44.581680 -93.072487 3,875 127 208 0
2019-03-22 04:31:22 GMT 44.586197 -93.080864 3,875 126 208 0
2019-03-22 04:31:18 GMT 44.587780 -93.083809 3,875 126 208 0
2019-03-22 04:31:10 GMT 44.592064 -93.091782 3,875 127 209 -64
2019-03-22 04:31:07 GMT 44.593880 -93.095131 3,875 126 210 0
2019-03-22 04:31:00 GMT 44.598160 -93.103172 3,875 126 209 0
2019-03-22 04:30:57 GMT 44.599915 -93.106453 3,875 126 209 0
2019-03-22 04:30:51 GMT 44.603420 -93.113083 3,875 126 209 -64
2019-03-22 04:30:47 GMT 44.606167 -93.118240 3,875 126 209 0
2019-03-22 04:30:40 GMT 44.610306 -93.125999 3,875 126 209 0
2019-03-22 04:30:36 GMT 44.612034 -93.129295 3,875 126 209 0
2019-03-22 04:30:26 GMT 44.618225 -93.140884 3,875 126 209 0
2019-03-22 04:30:19 GMT 44.622509 -93.148987 3,875 126 209 0
2019-03-22 04:30:15 GMT 44.624184 -93.152138 3,875 126 208 0
2019-03-22 04:30:10 GMT 44.626976 -93.157433 3,875 126 208 0
2019-03-22 04:30:05 GMT 44.630238 -93.163528 3,875 126 209 0
2019-03-22 04:29:58 GMT 44.634846 -93.172165 3,875 126 209 0
2019-03-22 04:29:54 GMT 44.636333 -93.174911 3,875 126 210 0
2019-03-22 04:29:47 GMT 44.640476 -93.182755 3,875 126 209 0
2019-03-22 04:29:44 GMT 44.642807 -93.187080 3,875 126 209 0
2019-03-22 04:29:37 GMT 44.646881 -93.194733 3,875 126 210 0
2019-03-22 04:29:32 GMT 44.648716 -93.198227 3,875 126 210 0
2019-03-22 04:29:26 GMT 44.652649 -93.205521 3,875 126 210 0
2019-03-22 04:29:23 GMT 44.654629 -93.209282 3,875 126 210 0
2019-03-22 04:29:15 GMT 44.659657 -93.218658 3,875 127 210 -64
2019-03-22 04:29:12 GMT 44.660774 -93.220734 3,875 126 211 0
2019-03-22 04:29:08 GMT 44.663754 -93.226295 3,875 126 211 0
2019-03-22 04:29:05 GMT 44.665104 -93.228775 3,875 126 211 0
2019-03-22 04:29:02 GMT 44.667011 -93.232391 3,875 126 211 0
2019-03-22 04:28:55 GMT 44.671108 -93.240097 3,875 126 210 0
2019-03-22 04:28:51 GMT 44.673248 -93.244041 3,875 126 210 0
2019-03-22 04:28:44 GMT 44.677231 -93.251495 3,875 126 211 0
2019-03-22 04:28:41 GMT 44.679382 -93.255547 3,875 126 211 0
2019-03-22 04:28:34 GMT 44.683910 -93.263947 3,875 127 212 0
2019-03-22 04:28:29 GMT 44.685699 -93.267258 3,875 127 212 0
2019-03-22 04:28:26 GMT 44.688126 -93.271706 3,875 127 212 0
2019-03-22 04:28:23 GMT 44.689636 -93.274597 3,875 127 212 0
2019-03-22 04:28:20 GMT 44.691788 -93.278503 3,875 126 211 0
2019-03-22 04:28:13 GMT 44.695862 -93.286217 3,875 126 210 0
2019-03-22 04:28:08 GMT 44.698200 -93.290604 3,875 126 211 0
2019-03-22 04:28:02 GMT 44.702087 -93.297989 3,875 126 211 0
2019-03-22 04:27:59 GMT 44.703873 -93.301392 3,875 126 211 0
2019-03-22 04:27:52 GMT 44.707901 -93.309105 3,875 126 210 64
2019-03-22 04:27:47 GMT 44.710354 -93.313721 3,875 126 210 0
2019-03-22 04:27:41 GMT 44.714035 -93.320618 3,875 126 210 0
2019-03-22 04:27:38 GMT 44.716187 -93.324669 3,875 126 210 0
2019-03-22 04:27:33 GMT 44.718933 -93.329773 3,875 126 210 0
2019-03-22 04:27:30 GMT 44.720222 -93.332207 3,875 126 210 0
2019-03-22 04:27:27 GMT 44.722363 -93.336227 3,875 126 210 0
2019-03-22 04:27:23 GMT 44.725067 -93.341347 3,875 126 209 0
2019-03-22 04:27:17 GMT 44.728321 -93.347549 3,875 126 210 0
2019-03-22 04:27:13 GMT 44.730835 -93.352371 3,875 125 209 0
2019-03-22 04:27:10 GMT 44.732529 -93.355667 3,875 125 209 0
2019-03-22 04:27:05 GMT 44.734421 -93.359337 3,875 125 209 0
2019-03-22 04:27:02 GMT 44.737198 -93.364761 3,875 125 209 0
2019-03-22 04:26:56 GMT 44.740219 -93.370583 3,875 125 209 64
2019-03-22 04:26:52 GMT 44.742691 -93.375481 3,875 125 209 0
2019-03-22 04:26:49 GMT 44.744102 -93.378227 3,875 126 209 64
2019-03-22 04:26:45 GMT 44.746151 -93.382179 3,875 128 210 0
2019-03-22 04:26:40 GMT 44.749828 -93.388481 3,875 138 211 0
2019-03-22 04:26:37 GMT 44.750851 -93.389816 3,875 140 210 0
2019-03-22 04:26:34 GMT 44.753040 -93.392365 3,875 147 211 0
2019-03-22 04:26:27 GMT 44.759464 -93.397057 3,875 163 210 0
2019-03-22 04:26:24 GMT 44.762238 -93.398109 3,875 172 210 0
2019-03-22 04:26:20 GMT 44.767090 -93.399025 3,875 178 212 0
2019-03-22 04:26:16 GMT 44.769928 -93.399155 3,875 179 213 0
2019-03-22 04:26:13 GMT 44.772812 -93.399223 3,875 179 213 0
2019-03-22 04:26:10 GMT 44.777435 -93.399223 3,875 179 213 -64
2019-03-22 04:26:04 GMT 44.783066 -93.399261 3,875 179 214 0
2019-03-22 04:25:58 GMT 44.787598 -93.399284 3,875 180 214 0
2019-03-22 04:25:53 GMT 44.793262 -93.399261 3,875 180 214 0
2019-03-22 04:25:49 GMT 44.798103 -93.399261 3,875 180 214 0
2019-03-22 04:25:46 GMT 44.800507 -93.399284 3,875 180 214 0
2019-03-22 04:25:43 GMT 44.803940 -93.399284 3,875 180 214 0
2019-03-22 04:25:39 GMT 44.808197 -93.399284 3,875 181 214 0
2019-03-22 04:25:35 GMT 44.811264 -93.399223 3,875 181 214 0
2019-03-22 04:25:31 GMT 44.814259 -93.399261 3,875 181 215 0
2019-03-22 04:25:26 GMT 44.821426 -93.399200 3,875 180 215 0
2019-03-22 04:25:22 GMT 44.824406 -93.399200 3,875 179 216 0
2019-03-22 04:25:17 GMT 44.829571 -93.399261 3,875 181 216 64
2019-03-22 04:25:14 GMT 44.832413 -93.399223 3,875 182 216 64
2019-03-22 04:25:11 GMT 44.834885 -93.399155 3,875 185 215 0
2019-03-22 04:25:06 GMT 44.840279 -93.398392 3,850 195 214 320
2019-03-22 04:25:01 GMT 44.845119 -93.396515 3,800 205 213 896
2019-03-22 04:24:57 GMT 44.848892 -93.393990 3,725 213 212 1536
2019-03-22 04:24:53 GMT 44.851871 -93.391357 3,625 216 210 1920
2019-03-22 04:24:50 GMT 44.854248 -93.388954 3,525 217 208 2304
2019-03-22 04:24:46 GMT 44.858368 -93.384705 3,325 217 208 2112
2019-03-22 04:24:42 GMT 44.860016 -93.383003 3,250 217 208 1920
2019-03-22 04:24:39 GMT 44.862396 -93.380516 3,150 217 209 1664
2019-03-22 04:24:35 GMT 44.866024 -93.376823 3,050 217 209 1152
2019-03-22 04:24:29 GMT 44.870453 -93.372276 2,950 217 208 704
2019-03-22 04:24:25 GMT 44.873890 -93.368713 2,925 217 208 448
2019-03-22 04:24:19 GMT 44.878784 -93.363716 2,875 217 206 128
2019-03-22 04:24:15 GMT 44.881710 -93.360748 2,875 217 206 0
2019-03-22 04:24:11 GMT 44.884781 -93.357567 2,875 217 206 64
2019-03-22 04:24:08 GMT 44.886749 -93.355537 2,875 217 206 64
2019-03-22 04:24:04 GMT 44.890278 -93.351898 2,875 216 207 0
2019-03-22 04:23:58 GMT 44.894897 -93.347237 2,875 216 208 0
2019-03-22 04:23:53 GMT 44.898655 -93.343391 2,875 216 209 0
2019-03-22 04:23:50 GMT 44.901684 -93.340317 2,875 217 210 64
2019-03-22 04:23:46 GMT 44.903595 -93.338341 2,875 218 209 64
2019-03-22 04:23:43 GMT 44.906708 -93.334938 2,875 224 208 -64
2019-03-22 04:23:39 GMT 44.909222 -93.331871 2,875 229 205 0
2019-03-22 04:23:34 GMT 44.912716 -93.325974 2,875 243 200 0
2019-03-22 04:23:30 GMT 44.914532 -93.321022 2,875 253 195 0
2019-03-22 04:23:26 GMT 44.915405 -93.317673 2,875 260 192 0
2019-03-22 04:23:22 GMT 44.916138 -93.311264 2,875 272 185 64
2019-03-22 04:23:15 GMT 44.915588 -93.303093 2,875 286 176 0
2019-03-22 04:23:12 GMT 44.915268 -93.301392 2,875 289 174 0
2019-03-22 04:23:09 GMT 44.914169 -93.296745 2,875 297 170 64
2019-03-22 04:23:02 GMT 44.912109 -93.290939 2,850 309 166 128
2019-03-22 04:22:51 GMT 44.906982 -93.281776 2,850 310 168 -256
2019-03-22 04:22:47 GMT 44.904243 -93.277206 2,850 306 169 -128
2019-03-22 04:22:42 GMT 44.902145 -93.273254 2,875 304 170 0
2019-03-22 04:22:36 GMT 44.899494 -93.267227 2,875 301 172 64
2019-03-22 04:22:32 GMT 44.898056 -93.263786 2,875 301 172 0
2019-03-22 04:22:28 GMT 44.896515 -93.260056 2,875 301 172 64
2019-03-22 04:22:25 GMT 44.895721 -93.258118 2,875 301 172 64
2019-03-22 04:22:21 GMT 44.893536 -93.252892 2,825 301 173 640
2019-03-22 04:22:16 GMT 44.891785 -93.248619 2,775 301 173 1152
2019-03-22 04:22:10 GMT 44.889542 -93.243126 2,625 300 174 2048
2019-03-22 04:22:06 GMT 44.887756 -93.238876 2,450 300 170 1472
2019-03-22 04:22:02 GMT 44.886368 -93.235405 2,400 301 169 1856
2019-03-22 04:21:58 GMT 44.884277 -93.230370 2,250 300 162 1408
2019-03-22 04:21:52 GMT 44.882217 -93.225334 2,150 300 158 1088
2019-03-22 04:21:49 GMT 44.881439 -93.223442 2,100 300 156 1152
2019-03-22 04:21:45 GMT 44.879944 -93.219734 2,000 300 154 768
2019-03-22 04:21:40 GMT 44.878311 -93.215645 1,975 300 153 640
2019-03-22 04:21:36 GMT 44.875809 -93.209312 1,875 300 154 832
2019-03-22 04:21:29 GMT 44.873978 -93.204674 1,850 299 152 64
2019-03-22 04:21:24 GMT 44.870819 -93.196495 1,800 300 151 576
2019-03-22 04:21:18 GMT 44.869236 -93.192535 1,775 300 152 640
2019-03-22 04:21:14 GMT 44.869236 -93.192535 1,750 300 151 448
2019-03-22 04:21:08 GMT 44.866562 -93.185966 1,675 301 151 832
2019-03-22 04:21:03 GMT 44.865463 -93.183289 1,625 301 153 896
2019-03-22 04:20:57 GMT 44.863136 -93.177864 1,525 302 155 704
2019-03-22 04:20:54 GMT 44.862030 -93.175247 1,500 302 155 512
2019-03-22 04:20:49 GMT 44.860016 -93.170601 1,450 301 152 128
2019-03-22 04:20:44 GMT 44.858341 -93.166672 1,450 301 150 -128
2019-03-22 04:20:36 GMT 44.855453 -93.159843 1,525 303 143 -256
2019-03-22 04:20:32 GMT 44.854156 -93.156998 1,525 303 141 -384
2019-03-22 04:20:27 GMT 44.852142 -93.152687 1,575 303 141 -448
2019-03-22 04:20:24 GMT 44.851273 -93.150787 1,575 303 141 -320
2019-03-22 04:20:21 GMT 44.850147 -93.148323 1,600 303 142 -384
2019-03-22 04:20:17 GMT 44.848709 -93.145164 1,650 302 141 -704
2019-03-22 04:20:13 GMT 44.847153 -93.141632 1,700 302 142 -448
2019-03-22 04:20:10 GMT 44.846100 -93.139145 1,700 301 141 -576
2019-03-22 04:20:05 GMT 44.844589 -93.135612 1,750 300 140 -704
2019-03-22 04:20:02 GMT 44.843719 -93.133461 1,775 300 139 -896
2019-03-22 04:19:59 GMT 44.842793 -93.131104 1,825 301 139 -1088
2019-03-22 04:19:55 GMT 44.841156 -93.127182 1,925 302 139 -896
2019-03-22 04:19:50 GMT 44.839439 -93.123268 1,975 304 138 -640
2019-03-22 04:19:45 GMT 44.838043 -93.120247 2,025 304 140 -448
2019-03-22 04:19:42 GMT 44.837067 -93.118240 2,025 304 143 -384
2019-03-22 04:19:38 GMT 44.835625 -93.115227 2,075 305 146 -896
2019-03-22 04:19:35 GMT 44.834366 -93.112679 2,125 304 146 -1024
2019-03-22 04:19:32 GMT 44.832691 -93.109062 2,200 304 149 -1088
2019-03-22 04:19:29 GMT 44.831589 -93.106842 2,250 304 150 -1088
2019-03-22 04:19:25 GMT 44.830353 -93.104164 2,325 304 151 -1024
2019-03-22 04:19:22 GMT 44.829163 -93.101608 2,375 304 153 -1024
2019-03-22 04:19:17 GMT 44.827618 -93.098343 2,450 303 155 -1024
2019-03-22 04:19:14 GMT 44.826279 -93.095200 2,500 300 159 -832
2019-03-22 04:19:11 GMT 44.824997 -93.092125 2,500 300 159 -832
2019-03-22 04:19:08 GMT 44.823898 -93.089317 2,575 299 165 -768
2019-03-22 04:19:03 GMT 44.821930 -93.084282 2,650 299 167 -960
2019-03-22 04:18:59 GMT 44.819824 -93.078850 2,775 298 169 -1472
2019-03-22 04:18:50 GMT 44.817608 -93.072624 2,900 294 170 -1792
2019-03-22 04:18:46 GMT 44.816444 -93.067863 3,100 281 173 -1920
2019-03-22 04:18:43 GMT 44.815979 -93.064178 3,225 268 181 -1472
2019-03-22 04:18:35 GMT 44.816120 -93.055878 3,350 266 183 -1216
2019-03-22 04:18:30 GMT 44.816574 -93.048637 3,475 266 183 -1088
2019-03-22 04:18:26 GMT 44.816818 -93.044151 3,550 266 184 -1088
2019-03-22 04:18:20 GMT 44.817142 -93.037651 3,650 266 185 -1152
2019-03-22 04:18:14 GMT 44.817516 -93.030487 3,750 266 186 -1088
2019-03-22 04:18:10 GMT 44.817856 -93.024445 3,850 266 187 -1088
2019-03-22 04:18:05 GMT 44.818222 -93.018951 3,925 265 189 -1024
2019-03-22 04:18:01 GMT 44.818588 -93.013329 4,000 265 190 -1024
2019-03-22 04:17:56 GMT 44.819145 -93.004761 4,125 265 192 -1088
2019-03-22 04:17:50 GMT 44.819515 -92.999603 4,200 265 194 -960
2019-03-22 04:17:46 GMT 44.819824 -92.994820 4,250 265 196 -960
2019-03-22 04:17:43 GMT 44.820076 -92.991028 4,300 265 197 -960
2019-03-22 04:17:40 GMT 44.820309 -92.987274 4,375 265 199 -960
2019-03-22 04:17:32 GMT 44.820915 -92.978233 4,450 265 202 -896
2019-03-22 04:17:28 GMT 44.821381 -92.971214 4,525 265 207 -640
2019-03-22 04:17:23 GMT 44.821793 -92.964867 4,575 266 209 -896
2019-03-22 04:17:18 GMT 44.822159 -92.959053 4,650 266 211 -896
2019-03-22 04:17:11 GMT 44.822662 -92.950546 4,750 266 213 -1216
2019-03-22 04:17:07 GMT 44.822964 -92.944740 4,825 266 214 -1088
2019-03-22 04:17:02 GMT 44.823486 -92.934792 4,975 266 216 -1280
2019-03-22 04:16:57 GMT 44.823715 -92.930145 5,050 266 216 -1472
2019-03-22 04:16:53 GMT 44.824081 -92.923866 5,175 266 216 -1408
2019-03-22 04:16:50 GMT 44.824219 -92.921188 5,225 266 216 -1344
2019-03-22 04:16:46 GMT 44.824547 -92.915527 5,300 266 218 -1216
2019-03-22 04:16:41 GMT 44.825043 -92.906929 5,400 266 220 -896
2019-03-22 04:16:36 GMT 44.825455 -92.900459 5,475 265 223 -768
2019-03-22 04:16:29 GMT 44.826080 -92.890678 5,550 265 227 -384
2019-03-22 04:16:26 GMT 44.826462 -92.884758 5,575 265 230 -448
2019-03-22 04:16:20 GMT 44.827106 -92.874733 5,625 265 233 -448
2019-03-22 04:16:15 GMT 44.827477 -92.868904 5,650 265 236 -384
2019-03-22 04:16:08 GMT 44.828110 -92.859192 5,675 265 242 -448
2019-03-22 04:16:05 GMT 44.828503 -92.852631 5,725 265 243 -448
2019-03-22 04:15:59 GMT 44.829117 -92.843170 5,750 266 247 -384
2019-03-22 04:15:54 GMT 44.829575 -92.836105 5,775 266 250 -512
2019-03-22 04:15:46 GMT 44.830273 -92.823685 5,850 266 254 -704
2019-03-22 04:15:43 GMT 44.830582 -92.818581 5,875 266 254 -768
2019-03-22 04:15:37 GMT 44.831223 -92.807007 6,025 266 255 -1344
2019-03-22 04:15:33 GMT 44.831528 -92.801315 6,100 266 255 -1344
2019-03-22 04:15:26 GMT 44.832226 -92.789124 6,275 266 254 -1280
2019-03-22 04:15:23 GMT 44.832504 -92.783791 6,325 266 254 -1280
2019-03-22 04:15:18 GMT 44.832970 -92.775520 6,475 266 253 -1152
2019-03-22 04:15:14 GMT 44.833435 -92.767952 6,525 266 253 -1088
2019-03-22 04:15:11 GMT 44.833511 -92.766464 6,550 266 253 -1024
2019-03-22 04:15:06 GMT 44.834106 -92.756653 6,650 265 251 -1024
2019-03-22 04:15:02 GMT 44.834644 -92.748657 6,725 265 251 -1024
2019-03-22 04:14:55 GMT 44.835297 -92.737885 6,850 265 251 -1024
2019-03-22 04:14:51 GMT 44.835663 -92.732193 6,900 265 250 -832
2019-03-22 04:14:45 GMT 44.836258 -92.722122 6,950 266 251 -256
2019-03-22 04:14:41 GMT 44.836697 -92.715233 6,975 266 251 0
2019-03-22 04:14:35 GMT 44.837208 -92.705788 7,000 266 252 -832
2019-03-22 04:14:29 GMT 44.837627 -92.697548 7,100 267 251 -1792
2019-03-22 04:14:20 GMT 44.838409 -92.681053 7,500 266 243 -2496
2019-03-22 04:14:13 GMT 44.838913 -92.670853 7,750 266 239 -1856
2019-03-22 04:14:09 GMT 44.839256 -92.664520 7,850 266 240 -1024
2019-03-22 04:14:05 GMT 44.839722 -92.655273 7,875 266 242 -64
2019-03-22 04:14:01 GMT 44.840012 -92.650253 7,875 266 244 -128
2019-03-22 04:13:50 GMT 44.840881 -92.634171 7,900 266 250 -64
2019-03-22 04:13:47 GMT 44.841022 -92.630623 7,925 266 250 0
2019-03-22 04:13:40 GMT 44.841675 -92.617630 7,925 267 249 0
2019-03-22 04:13:37 GMT 44.841888 -92.613762 7,925 267 248 0
2019-03-22 04:13:32 GMT 44.842300 -92.604874 7,925 267 248 0
2019-03-22 04:13:29 GMT 44.842484 -92.600815 7,925 267 248 0
2019-03-22 04:13:26 GMT 44.842667 -92.596825 7,925 267 248 -64
2019-03-22 04:13:19 GMT 44.843628 -92.579758 7,925 263 255 -192
2019-03-22 04:13:06 GMT 44.846146 -92.561844 7,975 255 269 -576
2019-03-22 04:12:58 GMT 44.848705 -92.549095 8,125 253 273 -1344
2019-03-22 04:12:55 GMT 44.849854 -92.543991 8,175 251 274 -1408
2019-03-22 04:12:45 GMT 44.855083 -92.525917 8,425 244 282 -1408
2019-03-22 04:12:38 GMT 44.858295 -92.517075 8,575 243 283 -1472
2019-03-22 04:12:33 GMT 44.861179 -92.509033 8,675 247 281 -1536
2019-03-22 04:12:24 GMT 44.865742 -92.491554 9,025 261 272 -1344
2019-03-22 04:12:16 GMT 44.867466 -92.478691 9,100 267 269 -1280
2019-03-22 04:12:12 GMT 44.867840 -92.472931 9,175 269 268 -1280
2019-03-22 04:12:06 GMT 44.867752 -92.460281 9,325 274 264 -1280
2019-03-22 04:12:03 GMT 44.867523 -92.455315 9,400 274 264 -1280
2019-03-22 04:11:56 GMT 44.866955 -92.441711 9,550 274 266 -1280
2019-03-22 04:11:52 GMT 44.866768 -92.437019 9,625 274 266 -1280
2019-03-22 04:11:47 GMT 44.866348 -92.427711 9,750 274 267 -1280
2019-03-22 04:11:42 GMT 44.865929 -92.417793 9,875 274 268 -1280
2019-03-22 04:11:37 GMT 44.865555 -92.409599 9,975 274 269 -1280
2019-03-22 04:11:28 GMT 44.864906 -92.395424 10,125 274 271 -1280
2019-03-22 04:11:24 GMT 44.864594 -92.388351 10,225 274 271 -1344
2019-03-22 04:11:18 GMT 44.864113 -92.377533 10,325 274 274 -1344
2019-03-22 04:11:15 GMT 44.863770 -92.370102 10,450 274 274 -1344
2019-03-22 04:11:09 GMT 44.863369 -92.361389 10,650 274 275 -1344
2019-03-22 04:11:04 GMT 44.862949 -92.353355 10,650 275 276 -1344
2019-03-22 04:11:00 GMT 44.862534 -92.345123 10,775 275 277 -1280
2019-03-22 04:10:52 GMT 44.861618 -92.329628 10,950 275 279 -1344
2019-03-22 04:10:43 GMT 44.860748 -92.315697 11,175 275 281 -1408
2019-03-22 04:10:38 GMT 44.860199 -92.306740 11,250 276 282 -1408
2019-03-22 04:10:34 GMT 44.859596 -92.296677 11,500 276 293 0
2019-03-22 04:10:28 GMT 44.858994 -92.286964 11,500 276 285 -1408
2019-03-22 04:10:17 GMT 44.857727 -92.267105 11,825 276 289 -1408
2019-03-22 04:10:13 GMT 44.857086 -92.256516 11,975 276 293 -1408
2019-03-22 04:10:05 GMT 44.856384 -92.245430 12,000 276 291 -1408
2019-03-22 04:09:54 GMT 44.855129 -92.225136 12,275 275 295 -1472
2019-03-22 04:09:44 GMT 44.853874 -92.205437 12,475 277 297 -1472
2019-03-22 04:09:38 GMT 44.852692 -92.193993 12,775 283 295 -1472
2019-03-22 04:09:33 GMT 44.851265 -92.184402 12,775 285 295 -1472
2019-03-22 04:09:25 GMT 44.845680 -92.159279 13,125 291 294 -1472
2019-03-22 04:09:20 GMT 44.845680 -92.159279 13,125 291 294 -1472
2019-03-22 04:09:15 GMT 44.843258 -92.150108 13,250 291 294 -1408
2019-03-22 04:09:04 GMT 44.838226 -92.131477 13,500 291 295 -1472
2019-03-22 04:09:01 GMT 44.836929 -92.126793 13,550 291 294 -1472
2019-03-22 04:08:52 GMT 44.832363 -92.109779 13,800 291 293 -1408
2019-03-22 04:08:41 GMT 44.827385 -92.091354 14,125 291 289 -1344
2019-03-22 04:08:33 GMT 44.823101 -92.075279 14,225 291 291 -1472
2019-03-22 04:08:29 GMT 44.821701 -92.070007 14,450 292 300 -1472
2019-03-22 04:08:25 GMT 44.819641 -92.062355 14,450 292 300 -1472
2019-03-22 04:08:20 GMT 44.817398 -92.053917 14,525 291 295 -1472
2019-03-22 04:08:17 GMT 44.815567 -92.047318 14,600 292 297 -1472
2019-03-22 04:08:12 GMT 44.812958 -92.037766 14,750 292 299 -1472
2019-03-22 04:08:07 GMT 44.810532 -92.028854 14,850 292 300 -1472
2019-03-22 04:08:01 GMT 44.807785 -92.018867 15,000 292 301 -1472
2019-03-22 04:07:58 GMT 44.805691 -92.011238 15,100 292 301 -1472
2019-03-22 04:07:51 GMT 44.802475 -91.999313 15,300 291 300 -1472
2019-03-22 04:07:48 GMT 44.798943 -91.986382 15,400 291 300 -1408
2019-03-22 04:07:43 GMT 44.798943 -91.986382 15,450 291 299 -1472
2019-03-22 04:07:40 GMT 44.797218 -91.980019 15,525 291 299 -1472
2019-03-22 04:07:36 GMT 44.795197 -91.972374 15,625 291 299 -1472
2019-03-22 04:07:27 GMT 44.790344 -91.954391 15,875 291 297 -1408
2019-03-22 04:07:18 GMT 44.786510 -91.940094 16,050 291 297 -1408
2019-03-22 04:07:15 GMT 44.785172 -91.935097 16,075 291 297 -1472
2019-03-22 04:07:09 GMT 44.782013 -91.923454 16,325 291 300 -1472
2019-03-22 04:07:06 GMT 44.780132 -91.916580 16,375 291 301 -1472
2019-03-22 04:06:55 GMT 44.774734 -91.896713 16,625 292 305 -1472
2019-03-22 04:06:46 GMT 44.770824 -91.882416 16,825 292 308 -1664
2019-03-22 04:06:35 GMT 44.765030 -91.861923 17,150 292 311 -1600
2019-03-22 04:06:25 GMT 44.759674 -91.842957 17,425 292 311 -1728
2019-03-22 04:06:22 GMT 44.753998 -91.822815 17,975 292 311 -1664
2019-03-22 04:06:14 GMT 44.753998 -91.822815 17,675 292 311 -1728
2019-03-22 04:06:04 GMT 44.748341 -91.802963 18,075 292 310 -1472
2019-03-22 04:05:53 GMT 44.742142 -91.781227 18,300 292 310 -1472
2019-03-22 04:05:42 GMT 44.736794 -91.762505 18,775 292 309 -1408
2019-03-22 04:05:32 GMT 44.731487 -91.744080 18,875 292 309 -1408
2019-03-22 04:05:22 GMT 44.725807 -91.724113 19,000 292 309 -1408
2019-03-22 04:05:13 GMT 44.721523 -91.709175 19,275 292 313 -1536
2019-03-22 04:05:10 GMT 44.719894 -91.703537 19,325 292 314 -1536
2019-03-22 04:05:03 GMT 44.715225 -91.686989 19,475 292 317 -1536
2019-03-22 04:05:00 GMT 44.714127 -91.683197 19,575 292 318 -1536
2019-03-22 04:04:52 GMT 44.709934 -91.668381 19,775 292 321 -1600
2019-03-22 04:04:49 GMT 44.708023 -91.661545 19,875 292 323 -1536
2019-03-22 04:04:42 GMT 44.703873 -91.646965 20,075 292 323 -1536
2019-03-22 04:04:39 GMT 44.702671 -91.642723 20,125 292 323 -1536
2019-03-22 04:04:33 GMT 44.698994 -91.629860 20,300 292 323 -1536
2019-03-22 04:04:29 GMT 44.696640 -91.621658 20,400 292 323 -1536
2019-03-22 04:04:21 GMT 44.692059 -91.605545 20,625 292 322 -1536
2019-03-22 04:04:18 GMT 44.690964 -91.601715 20,675 292 321 -1536
2019-03-22 04:04:12 GMT 44.687309 -91.588928 20,850 292 319 -1536
2019-03-22 04:04:09 GMT 44.685974 -91.584320 20,925 292 319 -1536
2019-03-22 04:03:59 GMT 44.680557 -91.565552 21,125 292 318 -1472
2019-03-22 04:03:56 GMT 44.679211 -91.560730 21,225 292 318 -1472
2019-03-22 04:03:51 GMT 44.675674 -91.548546 21,375 292 318 -1472
2019-03-22 04:03:48 GMT 44.674694 -91.545120 21,425 292 318 -1472
2019-03-22 04:03:45 GMT 44.673203 -91.539894 21,475 293 319 -1472
2019-03-22 04:03:41 GMT 44.670685 -91.531090 21,625 292 321 -1536
2019-03-22 04:03:38 GMT 44.666824 -91.517792 21,700 293 322 -1600
2019-03-22 04:03:35 GMT 44.666824 -91.517792 21,900 292 323 -1600
2019-03-22 04:03:28 GMT 44.663177 -91.505127 21,950 292 325 -1536
2019-03-22 04:03:25 GMT 44.661667 -91.499832 22,100 293 327 -1600
2019-03-22 04:03:19 GMT 44.658234 -91.487862 22,175 292 328 -1600
2019-03-22 04:03:15 GMT 44.655670 -91.478966 22,550 293 332 -1600
2019-03-22 04:03:09 GMT 44.652161 -91.466873 22,450 293 332 -1600
2019-03-22 04:03:06 GMT 44.650951 -91.462654 22,500 293 334 -1600
2019-03-22 04:03:02 GMT 44.648579 -91.454414 22,625 293 335 -1600
2019-03-22 04:02:58 GMT 44.646103 -91.446007 22,900 293 340 -1664
2019-03-22 04:02:55 GMT 44.644714 -91.441154 22,800 293 339 -1600
2019-03-22 04:02:52 GMT 44.642899 -91.434853 24,075 310 346 -2048
2019-03-22 04:02:48 GMT 44.639641 -91.423599 23,025 293 341 -1664
2019-03-22 04:02:45 GMT 44.638474 -91.419716 23,100 293 341 -1664
2019-03-22 04:02:42 GMT 44.636993 -91.414619 23,175 293 342 -1664
2019-03-22 04:02:35 GMT 44.630676 -91.392845 23,400 293 343 -1664
2019-03-22 04:02:32 GMT 44.630676 -91.392845 23,450 294 344 -1728
2019-03-22 04:02:27 GMT 44.627197 -91.381599 23,600 296 344 -1728
2019-03-22 04:02:24 GMT 44.625813 -91.377579 23,675 297 344 -1728
2019-03-22 04:02:21 GMT 44.623123 -91.370018 23,775 298 345 -1664
2019-03-22 04:02:15 GMT 44.618546 -91.358253 23,900 301 345 -1792
2019-03-22 04:02:11 GMT 44.615707 -91.351517 24,625 310 346 -2048
2019-03-22 04:02:05 GMT 44.610172 -91.339729 24,250 306 346 -2112
2019-03-22 04:02:01 GMT 44.606094 -91.331703 24,400 308 346 -2112
2019-03-22 04:01:53 GMT 44.598812 -91.318962 24,600 311 346 -1984
2019-03-22 04:01:50 GMT 44.594528 -91.311996 24,800 311 346 -1984
2019-03-22 04:01:43 GMT 44.588333 -91.302010 25,025 311 347 -2048
2019-03-22 04:01:40 GMT 44.584259 -91.295341 25,900 311 348 -2112
2019-03-22 04:01:32 GMT 44.576477 -91.282784 25,325 311 348 -2112
2019-03-22 04:01:29 GMT 44.573410 -91.277878 25,500 311 348 -2112
2019-03-22 04:01:21 GMT 44.565628 -91.265259 25,750 311 349 -2112
2019-03-22 04:01:17 GMT 44.561508 -91.258652 26,000 311 348 -2112
2019-03-22 04:01:13 GMT 44.554214 -91.246880 26,150 311 348 -2176
2019-03-22 04:01:05 GMT 44.548416 -91.237465 26,350 311 348 -2176
2019-03-22 04:01:00 GMT 44.539124 -91.222488 26,825 312 355 -2176
2019-03-22 04:00:56 GMT 44.539124 -91.222488 26,625 311 349 -2112
2019-03-22 04:00:49 GMT 44.531845 -91.210716 26,900 311 350 -2112
2019-03-22 04:00:46 GMT 44.528008 -91.204544 27,025 311 350 -2112
2019-03-22 04:00:39 GMT 44.520790 -91.192886 27,250 311 353 -2176
2019-03-22 04:00:36 GMT 44.517380 -91.187370 27,375 311 353 -2176
2019-03-22 04:00:29 GMT 44.508774 -91.173508 27,650 312 357 -2112
2019-03-22 04:00:24 GMT 44.504356 -91.166428 27,750 311 357 -2112
2019-03-22 04:00:18 GMT 44.497932 -91.156113 28,000 312 359 -2112
2019-03-22 04:00:14 GMT 44.488083 -91.140289 28,325 312 363 -2112
2019-03-22 04:00:07 GMT 44.486530 -91.137825 28,450 312 363 -2048
2019-03-22 04:00:04 GMT 44.481594 -91.129852 28,525 312 365 -2048
2019-03-22 03:59:57 GMT 44.474705 -91.118866 28,750 312 367 -2048
2019-03-22 03:59:54 GMT 44.471584 -91.113838 28,825 312 368 -1984
2019-03-22 03:59:49 GMT 44.465534 -91.104195 29,000 312 369 -1536
2019-03-22 03:59:46 GMT 44.463299 -91.100578 29,100 311 370 -1216
2019-03-22 03:59:43 GMT 44.458237 -91.092422 29,150 311 370 -1024
2019-03-22 03:59:39 GMT 44.453156 -91.084312 29,200 311 372 -1024
2019-03-22 03:59:32 GMT 44.447525 -91.075218 29,300 311 372 -1024
2019-03-22 03:59:28 GMT 44.441467 -91.065475 29,425 311 372 -1024
2019-03-22 03:59:25 GMT 44.439556 -91.062393 29,425 311 372 -1024
2019-03-22 03:59:22 GMT 44.435715 -91.056190 29,525 311 377 -1024
2019-03-22 03:59:15 GMT 44.427826 -91.043564 29,625 311 372 -1024
2019-03-22 03:59:10 GMT 44.422844 -91.035530 29,675 311 374 -1024
2019-03-22 03:59:07 GMT 44.418003 -91.027756 29,775 311 374 -1024
2019-03-22 03:59:04 GMT 44.416187 -91.024811 29,775 311 374 -1024
2019-03-22 03:58:59 GMT 44.408157 -91.011856 29,875 311 374 -1024
2019-03-22 03:58:54 GMT 44.404083 -91.005249 29,975 312 376 -1024
2019-03-22 03:58:49 GMT 44.398041 -90.995567 30,050 311 377 -1024
2019-03-22 03:58:46 GMT 44.391724 -90.985435 30,125 311 378 -1024
2019-03-22 03:58:39 GMT 44.386688 -90.977325 30,225 311 378 -1024
2019-03-22 03:58:33 GMT 44.379684 -90.966080 30,325 311 379 -1024
2019-03-22 03:58:28 GMT 44.375198 -90.958817 30,375 311 381 -1024
2019-03-22 03:58:25 GMT 44.369202 -90.949203 30,500 312 382 -1024
2019-03-22 03:58:22 GMT 44.366982 -90.945694 30,500 312 382 -1024
2019-03-22 03:58:18 GMT 44.358994 -90.932854 30,625 312 383 -960
2019-03-22 03:58:12 GMT 44.354225 -90.925194 30,700 312 383 -960
2019-03-22 03:58:08 GMT 44.350845 -90.919846 30,750 311 384 -960
2019-03-22 03:58:04 GMT 44.345615 -90.911392 30,825 312 384 -960
2019-03-22 03:58:01 GMT 44.341415 -90.904739 30,850 312 384 -960
2019-03-22 03:57:58 GMT 44.338852 -90.900620 30,975 312 384 -960
2019-03-22 03:57:50 GMT 44.328529 -90.884201 31,175 312 384 -960
2019-03-22 03:57:46 GMT 44.325027 -90.878578 31,100 312 384 -960
2019-03-22 03:57:43 GMT 44.321136 -90.872498 31,175 312 384 -960
2019-03-22 03:57:40 GMT 44.319031 -90.869095 31,175 312 384 -960
2019-03-22 03:57:37 GMT 44.315029 -90.862762 31,250 312 385 -960
2019-03-22 03:57:33 GMT 44.309116 -90.853516 31,250 312 385 -960
2019-03-22 03:57:30 GMT 44.306789 -90.849770 31,325 312 384 -960
2019-03-22 03:57:27 GMT 44.303345 -90.844406 31,425 312 384 -1024
2019-03-22 03:57:23 GMT 44.297379 -90.834892 31,475 312 384 -1024
2019-03-22 03:57:20 GMT 44.293716 -90.829140 31,500 312 384 -1024
2019-03-22 03:57:17 GMT 44.290283 -90.823776 31,575 312 385 -1024
2019-03-22 03:57:13 GMT 44.285477 -90.816193 31,600 312 385 -1024
2019-03-22 03:57:09 GMT 44.281357 -90.809654 31,675 312 386 -1088
2019-03-22 03:57:04 GMT 44.274170 -90.798210 31,825 312 387 -1088
2019-03-22 03:56:59 GMT 44.269222 -90.790344 31,900 312 386 -1024
2019-03-22 03:56:55 GMT 44.264057 -90.782104 31,950 312 387 -768
2019-03-22 03:56:52 GMT 44.259796 -90.775383 32,000 312 387 -192
2019-03-22 03:56:48 GMT 44.256638 -90.770287 32,000 312 387 -64
2019-03-22 03:56:44 GMT 44.251053 -90.761459 32,000 312 387 0
2019-03-22 03:56:40 GMT 44.246830 -90.754707 32,000 312 387 0
2019-03-22 03:56:37 GMT 44.244232 -90.750603 32,000 312 387 0
2019-03-22 03:56:31 GMT 44.236313 -90.738045 32,000 312 386 0
2019-03-22 03:56:27 GMT 44.231934 -90.731125 32,000 312 387 0
2019-03-22 03:56:20 GMT 44.222351 -90.715942 32,000 312 387 0
2019-03-22 03:56:17 GMT 44.219650 -90.711624 32,000 312 387 0
2019-03-22 03:56:11 GMT 44.212337 -90.700043 32,000 312 387 0
2019-03-22 03:56:08 GMT 44.209488 -90.695541 32,000 312 387 0
2019-03-22 03:56:00 GMT 44.198730 -90.678535 32,000 312 387 0
2019-03-22 03:55:56 GMT 44.195206 -90.672981 32,000 312 387 0
2019-03-22 03:55:48 GMT 44.184685 -90.656303 32,000 312 387 0
2019-03-22 03:55:45 GMT 44.182434 -90.652794 32,000 312 387 0
2019-03-22 03:55:37 GMT 44.172256 -90.636681 32,000 312 387 0
2019-03-22 03:55:31 GMT 44.166092 -90.626984 32,000 312 386 0
2019-03-22 03:55:27 GMT 44.159126 -90.616020 32,000 312 386 0
2019-03-22 03:55:24 GMT 44.158081 -90.614342 32,000 312 387 0
2019-03-22 03:55:19 GMT 44.150986 -90.603096 32,000 312 386 0
2019-03-22 03:55:13 GMT 44.145535 -90.594566 32,000 312 386 0
2019-03-22 03:55:09 GMT 44.140087 -90.586006 32,000 312 386 0
2019-03-22 03:55:03 GMT 44.133224 -90.575188 32,000 312 386 0
2019-03-22 03:55:00 GMT 44.128124 -90.567169 32,000 312 386 0
2019-03-22 03:54:55 GMT 44.122238 -90.557877 32,000 312 386 0
2019-03-22 03:54:52 GMT 44.119370 -90.553436 32,000 312 386 0
2019-03-22 03:54:43 GMT 44.109921 -90.538528 32,000 312 386 0
2019-03-22 03:54:40 GMT 44.106010 -90.532448 32,000 312 386 0
2019-03-22 03:54:33 GMT 44.097771 -90.519432 32,000 312 386 0
2019-03-22 03:54:30 GMT 44.092930 -90.511780 32,000 312 386 0
2019-03-22 03:54:21 GMT 44.083237 -90.496559 32,000 312 386 0
2019-03-22 03:54:18 GMT 44.079941 -90.491386 32,000 312 386 0
2019-03-22 03:54:11 GMT 44.065601 -90.468948 32,000 312 386 0
2019-03-22 03:54:07 GMT 44.065601 -90.468948 32,000 312 386 0
2019-03-22 03:54:02 GMT 44.060532 -90.460976 32,000 312 386 0
2019-03-22 03:53:59 GMT 44.056992 -90.455406 32,000 312 386 0
2019-03-22 03:53:56 GMT 44.052986 -90.449066 32,000 312 386 0
2019-03-22 03:53:50 GMT 44.045631 -90.437553 32,000 312 386 0
2019-03-22 03:53:45 GMT 44.039749 -90.428337 32,000 312 386 0
2019-03-22 03:53:39 GMT 44.033569 -90.418694 32,000 312 385 0
2019-03-22 03:53:36 GMT 44.028992 -90.411476 32,000 312 385 0
2019-03-22 03:53:33 GMT 44.026966 -90.408257 32,000 312 385 0
2019-03-22 03:53:30 GMT 44.021564 -90.399757 32,000 312 385 0
2019-03-22 03:53:27 GMT 44.019424 -90.396423 32,000 312 385 0
2019-03-22 03:53:23 GMT 44.013657 -90.387329 32,000 312 385 0
2019-03-22 03:53:18 GMT 44.008904 -90.379944 32,000 312 385 0
2019-03-22 03:53:12 GMT 44.001251 -90.367912 32,000 312 385 0
2019-03-22 03:53:09 GMT 43.997131 -90.361465 32,000 312 385 0
2019-03-22 03:53:06 GMT 43.988049 -90.347244 32,000 312 385 0
2019-03-22 03:53:01 GMT 43.988049 -90.347244 32,000 312 384 0
2019-03-22 03:52:58 GMT 43.983719 -90.340378 32,000 312 384 0
2019-03-22 03:52:55 GMT 43.981567 -90.337067 32,000 312 384 0
2019-03-22 03:52:50 GMT 43.975571 -90.327629 32,000 312 384 0
2019-03-22 03:52:47 GMT 43.970856 -90.320267 32,000 312 384 0
2019-03-22 03:52:44 GMT 43.969101 -90.317490 32,000 312 384 0
2019-03-22 03:52:40 GMT 43.962616 -90.307365 32,000 312 384 0
2019-03-22 03:52:37 GMT 43.959698 -90.302780 32,000 312 384 64
2019-03-22 03:52:34 GMT 43.949799 -90.287308 32,000 312 384 0
2019-03-22 03:52:29 GMT 43.949799 -90.287308 32,000 312 384 0
2019-03-22 03:52:26 GMT 43.946850 -90.282700 32,000 312 384 0
2019-03-22 03:52:23 GMT 43.944382 -90.278778 32,000 312 383 0
2019-03-22 03:52:16 GMT 43.934647 -90.263542 32,000 312 384 0
2019-03-22 03:52:13 GMT 43.932404 -90.260033 32,000 312 384 0
2019-03-22 03:52:07 GMT 43.924622 -90.247894 32,000 312 383 0
2019-03-22 03:52:03 GMT 43.920273 -90.241127 32,000 312 383 0
2019-03-22 03:51:56 GMT 43.911346 -90.227135 32,000 312 383 0
2019-03-22 03:51:53 GMT 43.907959 -90.221832 32,000 312 383 0
2019-03-22 03:51:49 GMT 43.903461 -90.214890 32,000 312 382 0
2019-03-22 03:51:46 GMT 43.900406 -90.210144 32,000 312 383 0
2019-03-22 03:51:43 GMT 43.894989 -90.201675 32,000 312 383 0
2019-03-22 03:51:40 GMT 43.886536 -90.188553 32,000 312 383 0
2019-03-22 03:51:35 GMT 43.886536 -90.188553 32,000 312 383 0
2019-03-22 03:51:32 GMT 43.883240 -90.183449 32,000 312 383 0
2019-03-22 03:51:26 GMT 43.875671 -90.171730 32,000 312 383 0
2019-03-22 03:51:23 GMT 43.872482 -90.166840 32,000 312 383 0
2019-03-22 03:51:20 GMT 43.866623 -90.157707 32,000 312 383 0
2019-03-22 03:51:14 GMT 43.861771 -90.150169 32,000 312 383 0
2019-03-22 03:51:11 GMT 43.857880 -90.144165 32,000 312 383 0
2019-03-22 03:51:02 GMT 43.847992 -90.128838 32,000 312 383 0
2019-03-22 03:50:53 GMT 43.836891 -90.111626 32,000 312 383 0
2019-03-22 03:50:50 GMT 43.833260 -90.106003 32,000 312 383 0
2019-03-22 03:50:44 GMT 43.827255 -90.096642 32,000 312 383 0
2019-03-22 03:50:41 GMT 43.824875 -90.093002 32,000 312 383 0
2019-03-22 03:50:38 GMT 43.820160 -90.085716 32,000 312 383 0
2019-03-22 03:50:35 GMT 43.817093 -90.080925 32,000 312 383 0
2019-03-22 03:50:32 GMT 43.812637 -90.074028 32,000 312 383 0
2019-03-22 03:50:29 GMT 43.808167 -90.067070 32,000 312 383 0
2019-03-22 03:50:25 GMT 43.805328 -90.062645 32,000 312 383 0
2019-03-22 03:50:21 GMT 43.799931 -90.054276 32,000 312 383 0
2019-03-22 03:50:18 GMT 43.795441 -90.047333 32,000 312 383 0
2019-03-22 03:50:12 GMT 43.788246 -90.036232 32,000 312 383 0
2019-03-22 03:50:09 GMT 43.785870 -90.032570 32,000 312 383 0
2019-03-22 03:50:06 GMT 43.783405 -90.028709 32,000 312 383 0
2019-03-22 03:49:58 GMT 43.773487 -90.013405 32,000 312 383 0
2019-03-22 03:49:55 GMT 43.770447 -90.008621 32,000 312 383 0
2019-03-22 03:49:51 GMT 43.765137 -90.000450 32,000 312 383 0
2019-03-22 03:49:48 GMT 43.760872 -89.993851 32,000 312 383 0
2019-03-22 03:49:44 GMT 43.757309 -89.988373 32,000 312 383 0
2019-03-22 03:49:41 GMT 43.751678 -89.979691 32,000 312 383 0
2019-03-22 03:49:37 GMT 43.748722 -89.975082 32,000 312 383 0
2019-03-22 03:49:34 GMT 43.744446 -89.968575 32,000 312 383 0
2019-03-22 03:49:30 GMT 43.740189 -89.961998 32,000 312 382 0
2019-03-22 03:49:27 GMT 43.736340 -89.955986 32,000 312 382 0
2019-03-22 03:49:24 GMT 43.732895 -89.950691 32,000 312 382 0
2019-03-22 03:49:21 GMT 43.728882 -89.944557 32,000 312 382 0
2019-03-22 03:49:17 GMT 43.720047 -89.930885 32,000 312 382 0
2019-03-22 03:49:14 GMT 43.720047 -89.930885 32,000 312 382 0
2019-03-22 03:49:11 GMT 43.717712 -89.927246 32,000 312 382 0
2019-03-22 03:49:08 GMT 43.714180 -89.921791 32,000 312 381 0
2019-03-22 03:49:05 GMT 43.709930 -89.915306 32,000 312 382 0
2019-03-22 03:49:00 GMT 43.704407 -89.906746 32,000 312 381 0
2019-03-22 03:48:57 GMT 43.700260 -89.900406 32,000 312 381 0
2019-03-22 03:48:54 GMT 43.697701 -89.896416 32,000 312 381 0
2019-03-22 03:48:50 GMT 43.690750 -89.885727 32,000 312 381 0
2019-03-22 03:48:47 GMT 43.689461 -89.883728 32,000 312 381 0
2019-03-22 03:48:44 GMT 43.685318 -89.877449 32,000 312 381 0
2019-03-22 03:48:41 GMT 43.681778 -89.871994 32,000 312 381 0
2019-03-22 03:48:37 GMT 43.677658 -89.865669 32,000 312 381 0
2019-03-22 03:48:34 GMT 43.674145 -89.860252 32,000 312 381 0
2019-03-22 03:48:30 GMT 43.669071 -89.852470 32,000 312 381 0
2019-03-22 03:48:26 GMT 43.663879 -89.844528 32,000 312 381 0
2019-03-22 03:48:23 GMT 43.660366 -89.839127 32,000 312 381 0
2019-03-22 03:48:18 GMT 43.654266 -89.829712 32,000 312 381 0
2019-03-22 03:48:15 GMT 43.650963 -89.824677 32,000 312 381 0
2019-03-22 03:48:12 GMT 43.648361 -89.820709 32,000 312 381 0
2019-03-22 03:48:08 GMT 43.638382 -89.805313 32,000 313 380 0
2019-03-22 03:48:04 GMT 43.638382 -89.805313 32,000 313 380 0
2019-03-22 03:48:01 GMT 43.635406 -89.800842 32,000 313 380 0
2019-03-22 03:47:58 GMT 43.631180 -89.794334 32,000 313 380 0
2019-03-22 03:47:52 GMT 43.623322 -89.782257 32,000 313 380 0
2019-03-22 03:47:48 GMT 43.616608 -89.771965 32,000 313 380 0
2019-03-22 03:47:45 GMT 43.616608 -89.771965 32,000 312 380 0
2019-03-22 03:47:42 GMT 43.612106 -89.765137 32,000 312 380 0
2019-03-22 03:47:39 GMT 43.609066 -89.760460 32,000 312 380 0
2019-03-22 03:47:36 GMT 43.605560 -89.755043 32,000 312 380 0
2019-03-22 03:47:32 GMT 43.601166 -89.748398 32,000 312 380 0
2019-03-22 03:47:29 GMT 43.598373 -89.744057 32,000 312 380 0
2019-03-22 03:47:26 GMT 43.593052 -89.735939 32,000 312 381 0
2019-03-22 03:47:22 GMT 43.589310 -89.730194 32,000 312 381 0
2019-03-22 03:47:19 GMT 43.585419 -89.724258 32,000 312 381 0
2019-03-22 03:47:15 GMT 43.580715 -89.717033 32,000 312 381 0
2019-03-22 03:47:12 GMT 43.577682 -89.712311 32,000 312 381 0
2019-03-22 03:47:09 GMT 43.574711 -89.707817 32,000 312 381 0
2019-03-22 03:47:06 GMT 43.569077 -89.699120 32,000 312 381 0
2019-03-22 03:47:03 GMT 43.567448 -89.696632 32,000 312 381 0
2019-03-22 03:46:59 GMT 43.561798 -89.687973 32,000 312 381 0
2019-03-22 03:46:55 GMT 43.556461 -89.679825 32,000 312 381 0
2019-03-22 03:46:51 GMT 43.551620 -89.672440 32,000 312 381 0
2019-03-22 03:46:48 GMT 43.549164 -89.668625 32,000 312 381 0
2019-03-22 03:46:45 GMT 43.544449 -89.661407 32,000 313 382 0
2019-03-22 03:46:42 GMT 43.542297 -89.658211 32,000 313 382 0
2019-03-22 03:46:38 GMT 43.536537 -89.649353 32,000 313 382 0
2019-03-22 03:46:31 GMT 43.530254 -89.639809 32,000 313 382 0
2019-03-22 03:46:28 GMT 43.526112 -89.633461 32,000 313 382 0
2019-03-22 03:46:25 GMT 43.521057 -89.625694 32,000 313 382 0
2019-03-22 03:46:22 GMT 43.518803 -89.622276 32,000 313 382 0
2019-03-22 03:46:19 GMT 43.514557 -89.615799 32,000 313 382 0
2019-03-22 03:46:16 GMT 43.511211 -89.610771 32,000 313 382 0
2019-03-22 03:46:11 GMT 43.502460 -89.597427 32,000 313 382 0
2019-03-22 03:46:08 GMT 43.502460 -89.597427 32,000 313 382 0
2019-03-22 03:46:05 GMT 43.497986 -89.590569 32,000 313 382 0
2019-03-22 03:46:00 GMT 43.493134 -89.583160 32,000 313 382 0
2019-03-22 03:45:56 GMT 43.486866 -89.573624 32,000 313 381 0
2019-03-22 03:45:52 GMT 43.482376 -89.566811 32,000 313 381 0
2019-03-22 03:45:49 GMT 43.480209 -89.563553 32,000 313 381 0
2019-03-22 03:45:45 GMT 43.475368 -89.556168 32,000 313 381 0
2019-03-22 03:45:42 GMT 43.471848 -89.550774 32,000 313 381 0
2019-03-22 03:45:39 GMT 43.468185 -89.545219 32,000 313 381 0
2019-03-22 03:45:35 GMT 43.463791 -89.538574 32,000 313 381 0
2019-03-22 03:45:32 GMT 43.458939 -89.531227 32,000 313 381 0
2019-03-22 03:45:28 GMT 43.454773 -89.524971 32,000 313 381 0
2019-03-22 03:45:25 GMT 43.449951 -89.517586 32,000 313 381 0
2019-03-22 03:45:21 GMT 43.446274 -89.512024 32,000 313 381 0
2019-03-22 03:45:17 GMT 43.440353 -89.503059 32,000 313 381 0
2019-03-22 03:45:14 GMT 43.437195 -89.498207 32,000 313 380 0
2019-03-22 03:45:11 GMT 43.433609 -89.492867 32,000 313 380 0
2019-03-22 03:45:08 GMT 43.430099 -89.487473 32,000 313 380 0
2019-03-22 03:45:04 GMT 43.425705 -89.480835 32,000 313 380 0
2019-03-22 03:45:00 GMT 43.420670 -89.473106 32,000 313 380 0
2019-03-22 03:44:57 GMT 43.418297 -89.469521 32,000 313 380 0
2019-03-22 03:44:54 GMT 43.413452 -89.462128 32,000 313 380 0
2019-03-22 03:44:51 GMT 43.410519 -89.457680 32,000 313 380 0
2019-03-22 03:44:48 GMT 43.406937 -89.452278 32,000 313 380 0
2019-03-22 03:44:45 GMT 43.403538 -89.447090 32,000 313 380 0
2019-03-22 03:44:42 GMT 43.397278 -89.437592 32,000 313 380 0
2019-03-22 03:44:35 GMT 43.388763 -89.424751 32,000 313 380 0
2019-03-22 03:44:29 GMT 43.384033 -89.417595 32,000 313 380 0
2019-03-22 03:44:26 GMT 43.380295 -89.411850 32,000 313 379 0
2019-03-22 03:44:23 GMT 43.377468 -89.407585 32,000 313 379 0
2019-03-22 03:44:20 GMT 43.373703 -89.401886 32,000 313 379 0
2019-03-22 03:44:15 GMT 43.368019 -89.393333 32,000 313 379 0
2019-03-22 03:44:12 GMT 43.364620 -89.388168 32,000 313 379 0
2019-03-22 03:44:09 GMT 43.360477 -89.381950 32,000 313 379 0
2019-03-22 03:44:06 GMT 43.358597 -89.379082 32,000 313 378 0
2019-03-22 03:44:03 GMT 43.353912 -89.372017 32,000 313 378 0
2019-03-22 03:44:00 GMT 43.351089 -89.367775 32,000 313 378 0
2019-03-22 03:43:57 GMT 43.348045 -89.363121 32,000 313 378 0
2019-03-22 03:43:54 GMT 43.342739 -89.355141 32,000 313 378 0
2019-03-22 03:43:51 GMT 43.339809 -89.350693 32,000 313 378 0
2019-03-22 03:43:48 GMT 43.335945 -89.344872 32,000 313 378 0
2019-03-22 03:43:45 GMT 43.334152 -89.342224 32,000 313 378 0
2019-03-22 03:43:41 GMT 43.328751 -89.334053 32,000 313 377 0
2019-03-22 03:43:38 GMT 43.324306 -89.327347 32,000 313 377 0
2019-03-22 03:43:35 GMT 43.322067 -89.323959 32,000 313 377 0
2019-03-22 03:43:30 GMT 43.315369 -89.313881 32,000 313 377 0
2019-03-22 03:43:26 GMT 43.310760 -89.307014 32,000 313 377 0
2019-03-22 03:43:23 GMT 43.307827 -89.302628 32,000 313 377 0
2019-03-22 03:43:20 GMT 43.303730 -89.296417 32,000 313 377 0
2019-03-22 03:43:17 GMT 43.300186 -89.291122 32,000 313 377 0
2019-03-22 03:43:14 GMT 43.295837 -89.284546 32,000 313 377 0
2019-03-22 03:43:10 GMT 43.291626 -89.278236 32,000 313 377 0
2019-03-22 03:43:07 GMT 43.287872 -89.272537 32,000 313 377 0
2019-03-22 03:43:03 GMT 43.283752 -89.266403 32,000 313 376 0
2019-03-22 03:42:59 GMT 43.275833 -89.254402 32,000 313 376 0
2019-03-22 03:42:56 GMT 43.272774 -89.249794 32,000 313 376 0
2019-03-22 03:42:53 GMT 43.272774 -89.249794 32,000 313 376 0
2019-03-22 03:42:49 GMT 43.267281 -89.241486 32,000 313 376 0
2019-03-22 03:42:46 GMT 43.262718 -89.234619 32,000 313 376 0
2019-03-22 03:42:43 GMT 43.261047 -89.232170 32,000 313 376 0
2019-03-22 03:42:38 GMT 43.255096 -89.223167 32,000 313 376 0
2019-03-22 03:42:35 GMT 43.250519 -89.216331 32,000 313 376 0
2019-03-22 03:42:28 GMT 43.242599 -89.204323 32,000 313 375 0
2019-03-22 03:42:25 GMT 43.238834 -89.198715 32,000 313 375 0
2019-03-22 03:42:22 GMT 43.235207 -89.193222 32,000 313 375 0
2019-03-22 03:42:17 GMT 43.230286 -89.185860 32,000 313 376 0
2019-03-22 03:42:14 GMT 43.226547 -89.180214 32,000 313 376 0
2019-03-22 03:42:11 GMT 43.223969 -89.176346 32,000 313 376 0
2019-03-22 03:42:07 GMT 43.218075 -89.167587 32,000 313 375 0
2019-03-22 03:42:04 GMT 43.213760 -89.161079 32,000 313 375 0
2019-03-22 03:42:01 GMT 43.211044 -89.157059 32,000 313 375 0
2019-03-22 03:41:56 GMT 43.205692 -89.148949 32,000 313 375 0
2019-03-22 03:41:53 GMT 43.199844 -89.140190 32,000 313 375 0
2019-03-22 03:41:50 GMT 43.198883 -89.138786 32,000 313 375 0
2019-03-22 03:41:46 GMT 43.192936 -89.129860 32,000 313 375 0
2019-03-22 03:41:43 GMT 43.189537 -89.124756 32,000 313 375 0
2019-03-22 03:41:40 GMT 43.186138 -89.119652 32,000 313 374 0
2019-03-22 03:41:37 GMT 43.182552 -89.114227 32,000 313 373 0
2019-03-22 03:41:34 GMT 43.179993 -89.110435 32,000 313 373 0
2019-03-22 03:41:31 GMT 43.173569 -89.100845 32,000 313 373 0
2019-03-22 03:41:24 GMT 43.167618 -89.091965 32,000 313 372 0
2019-03-22 03:41:20 GMT 43.162628 -89.084473 32,000 313 372 0
2019-03-22 03:41:14 GMT 43.156624 -89.075447 32,000 313 372 0
2019-03-22 03:41:11 GMT 43.153015 -89.070061 32,000 313 370 0
2019-03-22 03:41:08 GMT 43.149216 -89.064377 32,000 313 370 0
2019-03-22 03:41:05 GMT 43.146431 -89.060211 32,000 313 370 0
2019-03-22 03:41:02 GMT 43.142487 -89.054344 32,000 313 370 0
2019-03-22 03:40:58 GMT 43.137863 -89.047386 32,000 313 370 0
2019-03-22 03:40:53 GMT 43.132690 -89.039589 32,000 313 370 0
2019-03-22 03:40:50 GMT 43.128273 -89.033073 32,000 313 370 0
2019-03-22 03:40:47 GMT 43.119598 -89.020111 32,000 313 370 0
2019-03-22 03:40:43 GMT 43.116714 -89.015762 32,000 313 370 0
2019-03-22 03:40:37 GMT 43.113239 -89.010574 32,000 313 370 0
2019-03-22 03:40:31 GMT 43.106644 -89.000755 32,000 313 370 0
2019-03-22 03:40:26 GMT 43.100620 -88.991745 32,000 313 370 64
2019-03-22 03:40:23 GMT 43.096710 -88.985870 32,000 313 370 64
2019-03-22 03:40:20 GMT 43.093826 -88.981590 32,000 313 370 0
2019-03-22 03:40:17 GMT 43.091637 -88.978271 32,000 313 370 -64
2019-03-22 03:40:14 GMT 43.088150 -88.973099 32,000 313 370 0
2019-03-22 03:40:11 GMT 43.084076 -88.967094 32,000 313 370 -64
2019-03-22 03:40:08 GMT 43.080185 -88.961205 32,000 313 370 -64
2019-03-22 03:40:04 GMT 43.075424 -88.954124 32,000 313 370 64
2019-03-22 03:40:01 GMT 43.071121 -88.947739 32,000 313 370 0
2019-03-22 03:39:58 GMT 43.067780 -88.942696 32,000 313 370 -64
2019-03-22 03:39:54 GMT 43.063477 -88.936310 32,000 313 370 -64
2019-03-22 03:39:51 GMT 43.060959 -88.932564 32,000 313 370 0
2019-03-22 03:39:48 GMT 43.058071 -88.928246 32,000 313 370 0
2019-03-22 03:39:45 GMT 43.052395 -88.919807 32,000 313 370 0
2019-03-22 03:39:40 GMT 43.046108 -88.910454 32,000 313 370 64
2019-03-22 03:39:37 GMT 43.043594 -88.906662 32,000 313 370 64
2019-03-22 03:39:34 GMT 43.040943 -88.902740 32,000 313 370 0
2019-03-22 03:39:31 GMT 43.036743 -88.896515 32,000 313 370 -64
2019-03-22 03:39:28 GMT 43.033859 -88.892235 32,000 313 370 0
2019-03-22 03:39:25 GMT 43.029327 -88.885529 32,000 313 370 0
2019-03-22 03:39:22 GMT 43.025860 -88.880379 32,000 313 370 -64
2019-03-22 03:39:19 GMT 43.019257 -88.870514 32,000 313 370 0
2019-03-22 03:39:16 GMT 43.019257 -88.870514 32,000 313 370 0
2019-03-22 03:39:12 GMT 43.013245 -88.861610 32,000 313 370 -64
2019-03-22 03:39:09 GMT 43.010696 -88.857803 32,000 313 370 0
2019-03-22 03:39:06 GMT 43.004791 -88.849052 32,000 313 370 0
2019-03-22 03:39:03 GMT 43.004791 -88.849052 32,000 313 370 0
2019-03-22 03:38:58 GMT 42.998440 -88.839638 32,000 313 370 64
2019-03-22 03:38:55 GMT 42.994621 -88.833946 32,000 313 370 64
2019-03-22 03:38:52 GMT 42.992798 -88.831169 32,000 313 370 64
2019-03-22 03:38:49 GMT 42.988403 -88.824654 32,000 313 369 0
2019-03-22 03:38:46 GMT 42.985126 -88.819885 32,000 313 370 0
2019-03-22 03:38:43 GMT 42.981308 -88.814194 32,000 313 370 64
2019-03-22 03:38:39 GMT 42.975861 -88.806129 32,000 313 370 0
2019-03-22 03:38:35 GMT 42.971375 -88.799423 32,000 313 370 0
2019-03-22 03:38:32 GMT 42.964966 -88.790031 32,000 313 370 0
2019-03-22 03:38:29 GMT 42.964966 -88.790031 32,000 313 370 -64
2019-03-22 03:38:25 GMT 42.957104 -88.778358 32,000 313 370 0
2019-03-22 03:38:22 GMT 42.957104 -88.778358 32,000 313 370 -64
2019-03-22 03:38:18 GMT 42.951889 -88.770645 32,000 313 370 0
2019-03-22 03:38:15 GMT 42.949585 -88.767235 32,000 313 370 0
2019-03-22 03:38:12 GMT 42.946335 -88.762444 32,000 313 370 0
2019-03-22 03:38:09 GMT 42.941551 -88.755409 32,000 313 370 0
2019-03-22 03:38:05 GMT 42.936806 -88.748344 32,000 313 370 0
2019-03-22 03:38:02 GMT 42.933792 -88.743919 32,000 313 370 64
2019-03-22 03:37:59 GMT 42.929821 -88.738075 32,000 313 370 0
2019-03-22 03:37:56 GMT 42.926834 -88.733635 32,000 313 370 0
2019-03-22 03:37:53 GMT 42.922760 -88.727631 32,000 313 370 0
2019-03-22 03:37:50 GMT 42.920559 -88.724342 32,000 313 370 0
2019-03-22 03:37:46 GMT 42.915756 -88.717346 32,000 313 370 0
2019-03-22 03:37:43 GMT 42.911106 -88.710480 32,000 313 370 0
2019-03-22 03:37:40 GMT 42.908829 -88.707077 32,000 313 370 0
2019-03-22 03:37:35 GMT 42.902893 -88.698311 32,000 313 370 0
2019-03-22 03:37:32 GMT 42.899609 -88.693474 32,000 313 370 0
2019-03-22 03:37:29 GMT 42.891277 -88.681183 32,000 313 370 0
2019-03-22 03:37:26 GMT 42.891277 -88.681183 32,000 313 370 0
2019-03-22 03:37:22 GMT 42.887329 -88.675316 32,000 313 370 0
2019-03-22 03:37:19 GMT 42.883713 -88.670013 32,000 313 370 0
2019-03-22 03:37:14 GMT 42.878616 -88.662483 32,000 313 370 64
2019-03-22 03:37:11 GMT 42.874565 -88.656464 32,000 313 370 64
2019-03-22 03:37:08 GMT 42.871307 -88.651688 32,000 313 370 0
2019-03-22 03:37:05 GMT 42.867348 -88.645866 32,000 313 370 0
2019-03-22 03:37:02 GMT 42.863998 -88.640900 32,000 313 371 -64
2019-03-22 03:36:59 GMT 42.861420 -88.637123 32,000 313 371 -64
2019-03-22 03:36:56 GMT 42.858410 -88.632660 32,000 313 371 -64
2019-03-22 03:36:52 GMT 42.852684 -88.624222 32,000 313 371 -64
2019-03-22 03:36:49 GMT 42.849197 -88.619110 32,000 313 370 -64
2019-03-22 03:36:46 GMT 42.844894 -88.612724 32,000 313 370 -64
2019-03-22 03:36:43 GMT 42.841324 -88.607422 32,000 313 370 -64
2019-03-22 03:36:39 GMT 42.837936 -88.602440 32,000 313 370 128
2019-03-22 03:36:36 GMT 42.833633 -88.596046 32,000 313 370 128
2019-03-22 03:36:32 GMT 42.829594 -88.590088 32,000 313 371 -64
2019-03-22 03:36:29 GMT 42.820518 -88.576683 32,000 313 371 -64
2019-03-22 03:36:25 GMT 42.820518 -88.576683 32,000 313 371 -64
2019-03-22 03:36:19 GMT 42.813862 -88.566872 32,000 313 371 64
2019-03-22 03:36:16 GMT 42.810509 -88.561905 32,000 313 371 0
2019-03-22 03:36:13 GMT 42.808182 -88.558479 32,000 313 371 -64
2019-03-22 03:36:10 GMT 42.803528 -88.551590 32,000 313 371 -64
2019-03-22 03:36:07 GMT 42.800594 -88.547318 32,000 313 371 0
2019-03-22 03:36:04 GMT 42.793842 -88.537346 32,000 313 371 0
2019-03-22 03:36:01 GMT 42.793842 -88.537346 32,000 313 371 0
2019-03-22 03:35:58 GMT 42.788815 -88.530006 32,000 313 372 0
2019-03-22 03:35:55 GMT 42.786484 -88.526581 32,000 313 371 0
2019-03-22 03:35:51 GMT 42.780304 -88.517471 32,000 313 371 0
2019-03-22 03:35:47 GMT 42.777039 -88.512695 32,000 313 371 -64
2019-03-22 03:35:44 GMT 42.774616 -88.509117 32,000 314 373 -128
2019-03-22 03:35:40 GMT 42.768539 -88.500175 32,000 313 372 128
2019-03-22 03:35:37 GMT 42.764793 -88.494682 32,000 313 372 0
2019-03-22 03:35:34 GMT 42.762451 -88.491318 32,000 313 372 -64
2019-03-22 03:35:30 GMT 42.756729 -88.482887 32,000 313 372 0
2019-03-22 03:35:27 GMT 42.753799 -88.478645 32,000 313 372 0
2019-03-22 03:35:24 GMT 42.751373 -88.475021 32,000 313 372 0
2019-03-22 03:35:21 GMT 42.746292 -88.467659 32,000 313 372 64
2019-03-22 03:35:18 GMT 42.743008 -88.462875 32,000 314 373 -64
2019-03-22 03:35:15 GMT 42.739746 -88.458046 32,000 314 373 -64
2019-03-22 03:35:12 GMT 42.737366 -88.454613 32,000 313 372 -128
2019-03-22 03:35:08 GMT 42.730904 -88.445183 32,025 313 372 -64
2019-03-22 03:35:05 GMT 42.727039 -88.439560 32,000 313 372 64
2019-03-22 03:35:02 GMT 42.724571 -88.435921 32,000 314 374 0
2019-03-22 03:34:59 GMT 42.720062 -88.429451 32,000 314 374 64
2019-03-22 03:34:56 GMT 42.717216 -88.425377 32,000 314 374 0
2019-03-22 03:34:53 GMT 42.713196 -88.419533 32,000 314 374 0
2019-03-22 03:34:46 GMT 42.705414 -88.408165 32,000 314 374 0
2019-03-22 03:34:42 GMT 42.697712 -88.397018 32,000 314 374 64
2019-03-22 03:34:36 GMT 42.694267 -88.392036 32,000 314 374 0
2019-03-22 03:34:33 GMT 42.689892 -88.385651 32,000 314 376 64
2019-03-22 03:34:30 GMT 42.685867 -88.379829 32,000 314 376 -64
2019-03-22 03:34:25 GMT 42.680511 -88.372086 32,000 314 376 -64
2019-03-22 03:34:22 GMT 42.676025 -88.365532 32,000 314 376 0
2019-03-22 03:34:19 GMT 42.673038 -88.361183 32,000 314 376 0
2019-03-22 03:34:16 GMT 42.669937 -88.356735 32,000 314 376 0
2019-03-22 03:34:13 GMT 42.666847 -88.352242 32,000 314 376 0
2019-03-22 03:34:10 GMT 42.663918 -88.347961 32,000 314 376 0
2019-03-22 03:34:07 GMT 42.658794 -88.340553 32,000 314 376 -64
2019-03-22 03:34:04 GMT 42.655350 -88.335510 32,000 313 375 -64
2019-03-22 03:34:01 GMT 42.651905 -88.330528 32,000 313 376 64
2019-03-22 03:33:58 GMT 42.648506 -88.325546 32,000 313 376 128
2019-03-22 03:33:53 GMT 42.642223 -88.316345 32,000 313 376 64
2019-03-22 03:33:50 GMT 42.638313 -88.310661 32,000 313 376 0
2019-03-22 03:33:46 GMT 42.632996 -88.302864 32,000 313 376 64
2019-03-22 03:33:42 GMT 42.630165 -88.298714 32,000 313 377 64
2019-03-22 03:33:39 GMT 42.625557 -88.292007 32,000 313 377 0
2019-03-22 03:33:32 GMT 42.617737 -88.280510 32,000 313 377 0
2019-03-22 03:33:29 GMT 42.614410 -88.275711 32,000 313 377 0
2019-03-22 03:33:26 GMT 42.611126 -88.270805 32,000 313 377 0
2019-03-22 03:33:23 GMT 42.606007 -88.263329 32,000 313 377 0
2019-03-22 03:33:20 GMT 42.604839 -88.261604 32,000 313 377 -64
2019-03-22 03:33:17 GMT 42.600140 -88.254646 32,000 313 377 -64
2019-03-22 03:33:14 GMT 42.596321 -88.249084 32,000 313 377 0
2019-03-22 03:33:11 GMT 42.592804 -88.243874 32,000 313 376 0
2019-03-22 03:33:07 GMT 42.587357 -88.235886 32,000 313 376 0
2019-03-22 03:33:04 GMT 42.583847 -88.230690 32,000 313 376 0
2019-03-22 03:33:00 GMT 42.580170 -88.225327 32,000 313 377 -64
2019-03-22 03:32:56 GMT 42.574860 -88.217529 32,000 313 376 64
2019-03-22 03:32:53 GMT 42.570950 -88.211784 32,000 313 376 0
2019-03-22 03:32:50 GMT 42.567970 -88.207504 32,000 313 376 0
2019-03-22 03:32:46 GMT 42.563828 -88.201439 32,000 313 376 -64
2019-03-22 03:32:42 GMT 42.558147 -88.193199 32,000 313 376 0
2019-03-22 03:32:39 GMT 42.555542 -88.189377 32,000 313 376 0
2019-03-22 03:32:35 GMT 42.550690 -88.182327 32,000 313 377 64
2019-03-22 03:32:32 GMT 42.546524 -88.176270 32,000 313 377 64
2019-03-22 03:32:29 GMT 42.543671 -88.172119 32,000 313 377 0
2019-03-22 03:32:26 GMT 42.540253 -88.167152 32,000 313 377 0
2019-03-22 03:32:22 GMT 42.535946 -88.160942 32,000 313 377 0
2019-03-22 03:32:19 GMT 42.530823 -88.153549 32,000 314 377 0
2019-03-22 03:32:13 GMT 42.523453 -88.142815 32,000 313 377 0
2019-03-22 03:32:10 GMT 42.520752 -88.138878 32,000 313 377 0
2019-03-22 03:32:07 GMT 42.518253 -88.135262 32,000 313 377 0
2019-03-22 03:32:04 GMT 42.512295 -88.126640 32,000 314 377 0
2019-03-22 03:32:01 GMT 42.506332 -88.118027 32,000 314 377 0
2019-03-22 03:31:58 GMT 42.506332 -88.118027 32,000 314 377 0
2019-03-22 03:31:55 GMT 42.503216 -88.113548 32,000 314 377 0
2019-03-22 03:31:52 GMT 42.500469 -88.109589 32,000 314 377 0
2019-03-22 03:31:49 GMT 42.494652 -88.101151 32,000 314 377 0
2019-03-22 03:31:45 GMT 42.487839 -88.091377 32,000 313 378 0
2019-03-22 03:31:42 GMT 42.482689 -88.083969 32,000 313 378 0
2019-03-22 03:31:39 GMT 42.482689 -88.083969 32,000 314 377 0
2019-03-22 03:31:36 GMT 42.480423 -88.080643 32,000 313 378 0
2019-03-22 03:31:33 GMT 42.476028 -88.074272 32,000 314 377 0
2019-03-22 03:31:30 GMT 42.472633 -88.069473 32,000 315 377 0
2019-03-22 03:31:26 GMT 42.468349 -88.063530 32,000 316 377 0
2019-03-22 03:31:23 GMT 42.464584 -88.058601 32,000 318 377 0
2019-03-22 03:31:19 GMT 42.458015 -88.050568 32,000 320 377 0
2019-03-22 03:31:16 GMT 42.450706 -88.042198 32,000 320 377 0
2019-03-22 03:31:13 GMT 42.450706 -88.042198 32,000 320 377 0
2019-03-22 03:31:10 GMT 42.447353 -88.038368 32,000 320 377 0
2019-03-22 03:31:06 GMT 42.440975 -88.031082 32,000 320 377 0
2019-03-22 03:31:03 GMT 42.436981 -88.026520 32,000 320 377 0
2019-03-22 03:31:00 GMT 42.434135 -88.023354 32,000 321 378 0
2019-03-22 03:30:57 GMT 42.430115 -88.018776 32,000 321 378 0
2019-03-22 03:30:54 GMT 42.426407 -88.014542 32,000 321 377 0
2019-03-22 03:30:51 GMT 42.422104 -88.009727 32,000 321 377 0
2019-03-22 03:30:47 GMT 42.417114 -88.004112 32,000 321 378 0
2019-03-22 03:30:44 GMT 42.411324 -87.997612 32,000 321 377 0
2019-03-22 03:30:40 GMT 42.406109 -87.991737 32,000 321 378 0
2019-03-22 03:30:36 GMT 42.402054 -87.987251 32,000 321 378 0
2019-03-22 03:30:33 GMT 42.396938 -87.981522 32,000 321 378 0
2019-03-22 03:30:29 GMT 42.393585 -87.977753 32,000 321 379 64
2019-03-22 03:30:25 GMT 42.387489 -87.970917 32,000 320 380 0
2019-03-22 03:30:21 GMT 42.377838 -87.959976 32,000 320 380 0
2019-03-22 03:30:14 GMT 42.371429 -87.952858 32,000 322 381 64
2019-03-22 03:30:11 GMT 42.368122 -87.949265 32,000 323 381 -64
2019-03-22 03:30:08 GMT 42.364929 -87.945992 32,000 327 382 0
2019-03-22 03:30:04 GMT 42.357601 -87.938911 32,000 326 382 0
2019-03-22 03:30:01 GMT 42.353039 -87.934761 32,000 328 383 64
2019-03-22 03:29:57 GMT 42.347500 -87.930038 32,000 329 383 64
2019-03-22 03:29:54 GMT 42.343964 -87.927223 32,000 331 384 0
2019-03-22 03:29:51 GMT 42.338562 -87.923073 32,000 333 385 0
2019-03-22 03:29:48 GMT 42.333023 -87.919174 32,000 334 385 0
2019-03-22 03:29:44 GMT 42.326782 -87.915092 32,000 336 386 0
2019-03-22 03:29:41 GMT 42.322540 -87.912476 32,000 339 387 0
2019-03-22 03:29:38 GMT 42.317940 -87.909851 32,000 339 387 0
2019-03-22 03:29:35 GMT 42.312881 -87.907295 32,000 340 387 0
2019-03-22 03:29:32 GMT 42.308304 -87.905106 32,000 342 388 0
2019-03-22 03:29:29 GMT 42.301666 -87.902046 32,000 342 388 0
2019-03-22 03:29:26 GMT 42.295212 -87.899055 32,000 342 388 -64
2019-03-22 03:29:23 GMT 42.291309 -87.897202 32,000 341 389 -64
2019-03-22 03:29:18 GMT 42.283489 -87.893623 32,000 341 389 0
2019-03-22 03:29:15 GMT 42.278000 -87.891060 32,000 341 389 64
2019-03-22 03:29:12 GMT 42.273251 -87.888840 32,000 342 389 0
2019-03-22 03:29:09 GMT 42.266785 -87.885880 32,000 342 389 0
2019-03-22 03:29:05 GMT 42.259933 -87.882706 32,000 342 389 -64
2019-03-22 03:29:02 GMT 42.254791 -87.880386 32,000 342 389 0
2019-03-22 03:28:58 GMT 42.248344 -87.877403 32,000 342 390 64
2019-03-22 03:28:55 GMT 42.243210 -87.875015 32,000 342 390 0
2019-03-22 03:28:51 GMT 42.236023 -87.871712 32,000 342 391 0
2019-03-22 03:28:47 GMT 42.229523 -87.868713 32,000 342 391 0
2019-03-22 03:28:44 GMT 42.225441 -87.866798 32,000 342 391 0
2019-03-22 03:28:41 GMT 42.221329 -87.864906 32,000 342 391 0
2019-03-22 03:28:38 GMT 42.214172 -87.861565 32,000 342 391 0
2019-03-22 03:28:34 GMT 42.208168 -87.858818 32,000 342 391 0
2019-03-22 03:28:31 GMT 42.198761 -87.854424 32,000 341 391 0
2019-03-22 03:28:25 GMT 42.192123 -87.851364 32,000 341 391 0
2019-03-22 03:28:22 GMT 42.187134 -87.849052 32,000 341 391 0
2019-03-22 03:28:19 GMT 42.182007 -87.846680 32,000 341 391 0
2019-03-22 03:28:16 GMT 42.177723 -87.844704 32,000 341 391 0
2019-03-22 03:28:12 GMT 42.170929 -87.841499 32,000 341 391 0
2019-03-22 03:28:08 GMT 42.162872 -87.837753 32,000 341 391 0
2019-03-22 03:28:04 GMT 42.156235 -87.834633 32,000 341 391 0
2019-03-22 03:27:58 GMT 42.141357 -87.827705 32,000 341 391 0
2019-03-22 03:27:55 GMT 42.141357 -87.827705 32,000 341 391 0
2019-03-22 03:27:52 GMT 42.135174 -87.824837 32,000 341 391 0
2019-03-22 03:27:49 GMT 42.130939 -87.822853 32,000 341 391 0
2019-03-22 03:27:45 GMT 42.124420 -87.819839 32,000 341 391 0
2019-03-22 03:27:42 GMT 42.119629 -87.817619 32,000 342 391 64
2019-03-22 03:27:39 GMT 42.114349 -87.815155 32,000 342 391 64
2019-03-22 03:27:36 GMT 42.108547 -87.812508 32,000 342 391 64
2019-03-22 03:27:33 GMT 42.097412 -87.807419 32,000 342 391 64
2019-03-22 03:27:30 GMT 42.097412 -87.807419 32,000 342 391 0
2019-03-22 03:27:27 GMT 42.092766 -87.805290 32,000 342 388 0
2019-03-22 03:27:24 GMT 42.088158 -87.803185 32,000 342 390 -64
2019-03-22 03:27:21 GMT 42.082478 -87.800560 32,000 342 390 -64
2019-03-22 03:27:18 GMT 42.079594 -87.799217 32,000 342 389 0
2019-03-22 03:27:15 GMT 42.071594 -87.795555 32,025 342 384 0
2019-03-22 03:27:12 GMT 42.066833 -87.793373 32,000 342 386 -64
2019-03-22 03:27:09 GMT 42.062088 -87.791237 32,025 342 384 0
2019-03-22 03:27:05 GMT 42.056351 -87.788567 32,000 342 383 64
2019-03-22 03:27:01 GMT 42.048820 -87.785103 31,975 342 384 0
2019-03-22 03:26:58 GMT 42.044819 -87.783257 31,975 342 384 0
2019-03-22 03:26:55 GMT 42.039093 -87.780640 31,975 342 386 0
2019-03-22 03:26:51 GMT 42.032318 -87.777580 31,975 342 387 0
2019-03-22 03:26:47 GMT 42.027420 -87.775330 31,975 342 389 -64
2019-03-22 03:26:44 GMT 42.019913 -87.771881 32,000 342 390 -64
2019-03-22 03:26:40 GMT 42.014278 -87.769325 32,000 342 390 0
2019-03-22 03:26:36 GMT 42.000591 -87.763069 32,000 342 390 0
2019-03-22 03:26:33 GMT 42.000591 -87.763069 32,000 342 390 0
2019-03-22 03:26:30 GMT 41.995789 -87.760910 32,000 342 390 0
2019-03-22 03:26:26 GMT 41.990307 -87.758408 32,000 342 390 0
2019-03-22 03:26:23 GMT 41.985489 -87.756233 32,000 342 390 0
2019-03-22 03:26:20 GMT 41.979492 -87.753487 32,000 342 390 0
2019-03-22 03:26:17 GMT 41.967499 -87.747993 32,000 342 391 0
2019-03-22 03:26:13 GMT 41.967499 -87.747993 32,000 342 391 0
2019-03-22 03:26:10 GMT 41.962372 -87.745697 32,000 342 391 0
2019-03-22 03:26:07 GMT 41.956741 -87.743073 32,000 342 391 0
2019-03-22 03:26:04 GMT 41.952621 -87.741188 32,000 342 391 64
2019-03-22 03:26:01 GMT 41.945938 -87.738129 32,000 341 392 -256
2019-03-22 03:25:58 GMT 41.942497 -87.736565 32,000 341 392 -64
2019-03-22 03:25:54 GMT 41.936863 -87.733940 32,000 341 392 -384
2019-03-22 03:25:51 GMT 41.931183 -87.731323 32,025 342 392 -896
2019-03-22 03:25:48 GMT 41.920349 -87.726395 32,150 342 392 -960
2019-03-22 03:25:45 GMT 41.913818 -87.723404 32,175 342 392 -960
2019-03-22 03:25:42 GMT 41.913818 -87.723404 32,200 342 391 -960
2019-03-22 03:25:37 GMT 41.903206 -87.718552 32,300 342 390 -960
2019-03-22 03:25:33 GMT 41.899620 -87.716888 32,375 342 390 -960
2019-03-22 03:25:30 GMT 41.895309 -87.714966 32,350 342 390 -960
2019-03-22 03:25:27 GMT 41.889519 -87.712288 32,425 342 389 -1024
2019-03-22 03:25:24 GMT 41.884415 -87.709976 32,525 342 390 -960
2019-03-22 03:25:21 GMT 41.878578 -87.707306 32,525 342 390 -960
2019-03-22 03:25:16 GMT 41.869217 -87.702988 32,600 342 391 -896
2019-03-22 03:25:13 GMT 41.865967 -87.701546 32,650 342 390 -960
2019-03-22 03:25:10 GMT 41.860291 -87.698929 32,700 342 390 -960
2019-03-22 03:25:06 GMT 41.853115 -87.695679 32,775 342 390 -960
2019-03-22 03:25:02 GMT 41.847809 -87.693253 32,850 342 389 -960
2019-03-22 03:24:59 GMT 41.839050 -87.689316 33,025 342 389 -960
2019-03-22 03:24:56 GMT 41.835796 -87.687828 32,925 342 390 -960
2019-03-22 03:24:53 GMT 41.830025 -87.685143 32,975 342 390 -960
2019-03-22 03:24:49 GMT 41.823166 -87.682007 33,025 342 389 -960
2019-03-22 03:24:46 GMT 41.817902 -87.679642 33,100 342 389 -960
2019-03-22 03:24:43 GMT 41.807819 -87.675049 33,175 342 389 -960
2019-03-22 03:24:40 GMT 41.807819 -87.675049 33,200 342 388 -960
2019-03-22 03:24:37 GMT 41.802704 -87.672707 33,225 342 388 -960
2019-03-22 03:24:34 GMT 41.799316 -87.671150 33,275 342 388 -960
2019-03-22 03:24:31 GMT 41.787571 -87.665787 33,325 342 388 -960
2019-03-22 03:24:28 GMT 41.787571 -87.665787 33,375 342 388 -960
2019-03-22 03:24:25 GMT 41.783333 -87.663811 33,425 341 389 -960
2019-03-22 03:24:22 GMT 41.777748 -87.661255 33,625 341 389 -896
2019-03-22 03:24:19 GMT 41.772263 -87.658730 33,500 341 389 -896
2019-03-22 03:24:16 GMT 41.769058 -87.657227 33,550 341 389 -896
2019-03-22 03:24:13 GMT 41.763268 -87.654549 33,625 341 389 -896
2019-03-22 03:24:10 GMT 41.758163 -87.652168 33,625 341 389 -896
2019-03-22 03:24:07 GMT 41.753906 -87.650177 33,700 341 389 -896
2019-03-22 03:24:04 GMT 41.747253 -87.647072 33,775 341 389 -896
2019-03-22 03:24:01 GMT 41.742367 -87.644775 33,800 341 387 -960
2019-03-22 03:23:58 GMT 41.733055 -87.640495 33,850 341 386 -1024
2019-03-22 03:23:52 GMT 41.726494 -87.637489 33,950 342 384 -1024
2019-03-22 03:23:49 GMT 41.721451 -87.635132 34,000 341 383 -1024
2019-03-22 03:23:46 GMT 41.718113 -87.633598 34,025 341 383 -1024
2019-03-22 03:23:43 GMT 41.712708 -87.631134 34,050 341 383 -960
2019-03-22 03:23:40 GMT 41.701309 -87.625893 34,150 342 384 -896
2019-03-22 03:23:37 GMT 41.701309 -87.625893 34,200 342 385 -896
2019-03-22 03:23:33 GMT 41.693893 -87.622520 34,275 342 385 -896
2019-03-22 03:23:30 GMT 41.689812 -87.620758 34,300 342 385 -896
2019-03-22 03:23:26 GMT 41.683247 -87.617821 34,400 342 385 -960
2019-03-22 03:23:21 GMT 41.674961 -87.614182 34,450 342 385 -1024
2019-03-22 03:23:18 GMT 41.670181 -87.612038 34,450 342 385 -1024
2019-03-22 03:23:15 GMT 41.666290 -87.610352 34,525 342 385 -1024
2019-03-22 03:23:12 GMT 41.659378 -87.607292 34,700 342 386 -1024
2019-03-22 03:23:09 GMT 41.647842 -87.602295 34,725 342 386 -1024
2019-03-22 03:23:05 GMT 41.647842 -87.602295 34,700 342 386 -1024
2019-03-22 03:23:00 GMT 41.638836 -87.598274 34,775 342 388 -1024
2019-03-22 03:22:57 GMT 41.633202 -87.595779 34,825 342 391 -896
2019-03-22 03:22:51 GMT 41.623764 -87.591499 34,950 342 394 -896
2019-03-22 03:22:48 GMT 41.619934 -87.589775 34,950 342 394 -896
2019-03-22 03:22:45 GMT 41.613232 -87.586716 35,125 342 394 -1024
2019-03-22 03:22:40 GMT 41.604355 -87.582634 35,125 342 396 -960
2019-03-22 03:22:37 GMT 41.598129 -87.579826 35,175 342 395 -960
2019-03-22 03:22:34 GMT 41.595016 -87.578392 35,200 342 394 -1024
2019-03-22 03:22:28 GMT 41.585487 -87.574066 35,300 342 394 -1024
2019-03-22 03:22:25 GMT 41.578598 -87.570938 35,375 342 394 -1024
2019-03-22 03:22:22 GMT 41.565994 -87.565216 35,525 342 394 -1024
2019-03-22 03:22:18 GMT 41.565994 -87.565216 35,525 342 394 -1024
2019-03-22 03:22:15 GMT 41.561138 -87.563019 35,525 342 394 -1024
2019-03-22 03:22:12 GMT 41.556484 -87.560905 35,575 342 394 -1024
2019-03-22 03:22:08 GMT 41.550434 -87.558159 35,650 342 395 -832
2019-03-22 03:22:05 GMT 41.542847 -87.554710 35,950 342 396 -448
2019-03-22 03:22:02 GMT 41.537979 -87.552544 35,700 342 396 -448
2019-03-22 03:21:56 GMT 41.528778 -87.548363 35,750 342 396 -448
2019-03-22 03:21:52 GMT 41.521336 -87.545006 35,775 342 396 -448
2019-03-22 03:21:48 GMT 41.514587 -87.541939 35,875 342 394 -512
2019-03-22 03:21:45 GMT 41.508728 -87.539253 35,850 342 394 -512
2019-03-22 03:21:42 GMT 41.503510 -87.536957 35,875 342 394 -512
2019-03-22 03:21:39 GMT 41.499710 -87.535194 35,900 342 394 -512
2019-03-22 03:21:35 GMT 41.492474 -87.531906 35,950 342 393 -64
2019-03-22 03:21:32 GMT 41.485931 -87.529015 35,950 342 393 -576
2019-03-22 03:21:29 GMT 41.480373 -87.526543 35,975 342 393 -512
2019-03-22 03:21:26 GMT 41.476788 -87.524879 36,000 342 393 -128
2019-03-22 03:21:23 GMT 41.472473 -87.522957 36,000 342 393 0
2019-03-22 03:21:20 GMT 41.467289 -87.520599 36,000 342 393 0
2019-03-22 03:21:16 GMT 41.458466 -87.516655 36,000 342 393 0
2019-03-22 03:21:13 GMT 41.454529 -87.514908 36,000 342 393 0
2019-03-22 03:21:10 GMT 41.448624 -87.512299 36,000 342 393 0
2019-03-22 03:21:07 GMT 41.443268 -87.509872 36,000 342 393 64
2019-03-22 03:21:04 GMT 41.437962 -87.507507 36,000 342 393 0
2019-03-22 03:21:01 GMT 41.432610 -87.505081 36,000 342 393 -64
2019-03-22 03:20:58 GMT 41.428482 -87.503235 36,000 342 393 0
2019-03-22 03:20:55 GMT 41.422600 -87.500549 36,000 342 392 0
2019-03-22 03:20:50 GMT 41.409714 -87.494743 36,000 342 392 0
2019-03-22 03:20:44 GMT 41.404678 -87.492493 36,000 342 393 0
2019-03-22 03:20:41 GMT 41.398682 -87.489746 36,000 342 393 0
2019-03-22 03:20:38 GMT 41.388199 -87.485023 36,000 342 392 0
2019-03-22 03:20:32 GMT 41.384583 -87.483398 36,000 342 392 0
2019-03-22 03:20:29 GMT 41.378906 -87.480835 36,000 342 392 0
2019-03-22 03:20:26 GMT 41.373917 -87.478638 36,000 342 392 0
2019-03-22 03:20:22 GMT 41.368088 -87.476013 36,000 342 392 0
2019-03-22 03:20:19 GMT 41.354820 -87.470024 36,000 342 392 0
2019-03-22 03:20:15 GMT 41.354820 -87.470024 36,000 342 392 0
2019-03-22 03:20:11 GMT 41.346588 -87.466370 36,000 342 392 0
2019-03-22 03:20:08 GMT 41.342972 -87.464722 36,000 342 391 0
2019-03-22 03:20:05 GMT 41.337132 -87.462097 36,000 342 391 0
2019-03-22 03:20:01 GMT 41.330101 -87.458916 36,000 342 391 0
2019-03-22 03:19:57 GMT 41.324097 -87.456230 36,000 342 391 0
2019-03-22 03:19:54 GMT 41.319260 -87.454041 36,000 342 391 0
2019-03-22 03:19:50 GMT 41.311890 -87.450745 36,000 342 391 0
2019-03-22 03:19:47 GMT 41.306900 -87.448486 36,000 342 391 0
2019-03-22 03:19:44 GMT 41.301590 -87.446106 36,000 342 391 0
2019-03-22 03:19:40 GMT 41.292858 -87.442184 36,000 342 391 0
2019-03-22 03:19:36 GMT 41.288017 -87.439995 36,000 342 391 0
2019-03-22 03:19:33 GMT 41.283035 -87.437813 36,000 342 391 0
2019-03-22 03:19:30 GMT 41.276550 -87.434875 36,000 342 391 0
2019-03-22 03:19:26 GMT 41.270554 -87.432190 36,000 342 391 0
2019-03-22 03:19:22 GMT 41.264557 -87.429504 36,000 342 391 0
2019-03-22 03:19:19 GMT 41.257324 -87.426270 36,000 342 391 0
2019-03-22 03:19:16 GMT 41.253754 -87.424706 36,000 342 391 0
2019-03-22 03:19:12 GMT 41.246864 -87.421646 36,000 342 391 0
2019-03-22 03:19:08 GMT 41.238968 -87.418152 36,000 342 391 64
2019-03-22 03:19:05 GMT 41.235554 -87.416649 36,000 342 391 0
2019-03-22 03:19:02 GMT 41.227825 -87.413216 36,000 342 391 64
2019-03-22 03:18:58 GMT 41.220612 -87.410034 36,000 342 391 0
2019-03-22 03:18:55 GMT 41.218048 -87.408875 36,000 342 391 0
2019-03-22 03:18:52 GMT 41.212231 -87.406288 36,000 342 391 0
2019-03-22 03:18:49 GMT 41.207062 -87.404045 36,000 342 391 0
2019-03-22 03:18:46 GMT 41.201065 -87.401367 36,000 342 391 0
2019-03-22 03:18:42 GMT 41.193703 -87.398109 36,000 342 390 0
2019-03-22 03:18:37 GMT 41.185135 -87.394287 36,000 342 390 0
2019-03-22 03:18:34 GMT 41.181564 -87.392700 36,000 342 389 0
2019-03-22 03:18:30 GMT 41.173683 -87.389191 36,000 342 388 0
2019-03-22 03:18:27 GMT 41.169449 -87.387253 36,000 340 387 0
2019-03-22 03:18:24 GMT 41.162476 -87.384094 36,000 341 388 -64
2019-03-22 03:18:21 GMT 41.157669 -87.381958 36,000 341 388 -64
2019-03-22 03:18:18 GMT 41.152771 -87.379639 36,000 340 388 0
2019-03-22 03:18:14 GMT 41.143936 -87.375076 36,000 339 386 0
2019-03-22 03:18:11 GMT 41.143936 -87.375076 36,000 339 386 0
2019-03-22 03:18:08 GMT 41.136658 -87.371216 36,000 339 386 64
2019-03-22 03:18:02 GMT 41.126900 -87.366028 36,000 339 386 0
2019-03-22 03:17:59 GMT 41.122711 -87.363846 36,000 339 386 0
2019-03-22 03:17:56 GMT 41.116104 -87.360352 36,000 339 386 0
2019-03-22 03:17:50 GMT 41.108467 -87.356354 36,000 339 386 0
2019-03-22 03:17:46 GMT 41.100677 -87.352295 36,000 339 386 0
2019-03-22 03:17:40 GMT 41.091705 -87.347595 36,000 339 386 0
2019-03-22 03:17:37 GMT 41.087379 -87.345306 36,000 339 386 0
2019-03-22 03:17:34 GMT 41.082584 -87.342804 36,000 339 386 0
2019-03-22 03:17:31 GMT 41.074585 -87.338684 36,000 339 386 0
2019-03-22 03:17:28 GMT 41.070293 -87.336441 36,000 339 386 0
2019-03-22 03:17:25 GMT 41.060806 -87.331482 36,000 339 386 0
2019-03-22 03:17:22 GMT 41.060806 -87.331482 36,000 339 386 0
2019-03-22 03:17:19 GMT 41.056824 -87.329407 36,000 339 386 0
2019-03-22 03:17:14 GMT 41.047993 -87.324829 36,000 339 386 64
2019-03-22 03:17:11 GMT 41.042828 -87.322205 36,000 339 386 0
2019-03-22 03:17:07 GMT 41.034668 -87.317932 36,000 339 386 0
2019-03-22 03:17:04 GMT 41.030537 -87.315781 36,000 339 386 0
2019-03-22 03:16:59 GMT 41.021713 -87.311218 36,000 339 386 0
2019-03-22 03:16:55 GMT 41.014572 -87.307495 36,000 339 386 0
2019-03-22 03:16:48 GMT 41.003071 -87.301544 36,000 339 386 0
2019-03-22 03:16:45 GMT 40.993607 -87.296570 36,000 339 386 0
2019-03-22 03:16:41 GMT 40.993607 -87.296570 36,000 339 386 64
2019-03-22 03:16:37 GMT 40.984638 -87.291870 36,000 339 386 64
2019-03-22 03:16:32 GMT 40.978363 -87.288513 36,000 339 386 0
2019-03-22 03:16:29 GMT 40.973370 -87.285881 36,000 339 386 0
2019-03-22 03:16:24 GMT 40.965412 -87.281693 36,000 339 386 0
2019-03-22 03:16:21 GMT 40.960098 -87.278870 36,000 339 386 0
2019-03-22 03:16:18 GMT 40.954605 -87.276001 36,000 339 385 0
2019-03-22 03:16:15 GMT 40.948978 -87.273018 36,000 339 385 0
2019-03-22 03:16:12 GMT 40.944370 -87.270584 36,000 339 385 0
2019-03-22 03:16:09 GMT 40.939362 -87.267944 36,000 339 385 0
2019-03-22 03:16:06 GMT 40.933754 -87.265030 36,000 339 385 64
2019-03-22 03:16:03 GMT 40.930435 -87.263245 36,000 339 384 0
2019-03-22 03:16:00 GMT 40.918346 -87.256912 36,000 339 385 0
2019-03-22 03:15:56 GMT 40.918346 -87.256912 36,000 339 385 0
2019-03-22 03:15:53 GMT 40.913551 -87.254417 36,000 339 384 0
2019-03-22 03:15:50 GMT 40.908432 -87.251732 36,000 339 384 0
2019-03-22 03:15:47 GMT 40.902832 -87.248840 36,000 339 383 0
2019-03-22 03:15:43 GMT 40.895370 -87.244934 36,000 339 383 0
2019-03-22 03:15:40 GMT 40.891766 -87.243057 36,000 339 383 0
2019-03-22 03:15:37 GMT 40.885342 -87.239685 36,000 339 383 0
2019-03-22 03:15:34 GMT 40.883514 -87.238770 36,000 339 383 0
2019-03-22 03:15:31 GMT 40.875229 -87.234436 36,000 339 383 0
2019-03-22 03:15:28 GMT 40.870956 -87.232193 36,000 339 383 0
2019-03-22 03:15:24 GMT 40.865524 -87.229370 36,000 339 383 0
2019-03-22 03:15:21 GMT 40.860203 -87.226639 36,000 339 383 0
2019-03-22 03:15:18 GMT 40.856758 -87.224831 36,000 339 383 0
2019-03-22 03:15:15 GMT 40.850464 -87.221558 36,000 339 383 0
2019-03-22 03:15:11 GMT 40.843735 -87.218018 36,000 339 383 0
2019-03-22 03:15:08 GMT 40.839569 -87.215881 36,000 339 385 0
2019-03-22 03:15:05 GMT 40.835297 -87.213654 36,000 339 385 0
2019-03-22 03:15:02 GMT 40.828175 -87.209908 36,000 339 384 0
2019-03-22 03:14:59 GMT 40.822540 -87.207031 36,000 339 384 0
2019-03-22 03:14:55 GMT 40.816631 -87.203918 36,000 339 384 0
2019-03-22 03:14:49 GMT 40.806519 -87.198669 36,000 339 384 0
2019-03-22 03:14:46 GMT 40.801712 -87.196228 36,000 339 384 0
2019-03-22 03:14:43 GMT 40.797405 -87.193993 36,000 339 384 0
2019-03-22 03:14:40 GMT 40.793289 -87.191833 36,000 339 384 0
2019-03-22 03:14:37 GMT 40.787952 -87.189125 36,000 339 384 0
2019-03-22 03:14:34 GMT 40.782833 -87.186440 36,000 339 385 0
2019-03-22 03:14:31 GMT 40.778870 -87.184387 36,000 339 384 0
2019-03-22 03:14:27 GMT 40.769753 -87.179695 36,000 339 385 0
2019-03-22 03:14:24 GMT 40.766586 -87.178078 36,000 339 384 0
2019-03-22 03:14:21 GMT 40.761463 -87.175392 36,000 339 384 0
2019-03-22 03:14:17 GMT 40.755478 -87.172302 36,000 339 385 0
2019-03-22 03:14:14 GMT 40.748852 -87.168839 36,000 339 385 0
2019-03-22 03:14:11 GMT 40.743210 -87.165894 36,000 339 385 0
2019-03-22 03:14:06 GMT 40.736755 -87.162537 36,000 339 386 0
2019-03-22 03:14:03 GMT 40.732136 -87.160095 36,000 339 386 0
2019-03-22 03:14:00 GMT 40.726456 -87.157166 36,000 339 386 0
2019-03-22 03:13:57 GMT 40.721848 -87.154793 36,000 339 386 0
2019-03-22 03:13:54 GMT 40.715515 -87.151489 36,000 339 386 0
2019-03-22 03:13:51 GMT 40.710537 -87.148926 36,000 339 386 0
2019-03-22 03:13:47 GMT 40.703888 -87.145508 36,000 339 386 0
2019-03-22 03:13:44 GMT 40.700390 -87.143677 36,000 339 386 64
2019-03-22 03:13:41 GMT 40.694092 -87.140381 36,000 339 386 0
2019-03-22 03:13:38 GMT 40.689449 -87.138000 36,000 339 386 64
2019-03-22 03:13:35 GMT 40.684608 -87.135506 36,000 339 386 64
2019-03-22 03:13:32 GMT 40.680466 -87.133316 36,000 339 386 64
2019-03-22 03:13:28 GMT 40.671944 -87.128944 36,000 339 387 0
2019-03-22 03:13:25 GMT 40.668781 -87.127258 36,000 339 387 0
2019-03-22 03:13:22 GMT 40.662140 -87.123840 36,000 339 387 0
2019-03-22 03:13:18 GMT 40.656769 -87.121086 36,000 339 387 -64
2019-03-22 03:13:15 GMT 40.651928 -87.118584 36,000 339 387 0
2019-03-22 03:13:12 GMT 40.646942 -87.116028 36,000 339 387 0
2019-03-22 03:13:09 GMT 40.640396 -87.112671 36,000 339 387 0
2019-03-22 03:13:05 GMT 40.634052 -87.109413 36,000 339 387 0
2019-03-22 03:13:02 GMT 40.629536 -87.107040 36,000 339 388 0
2019-03-22 03:12:58 GMT 40.622505 -87.103416 36,000 339 388 0
2019-03-22 03:12:53 GMT 40.615814 -87.099976 36,000 339 388 0
2019-03-22 03:12:49 GMT 40.607796 -87.095802 36,000 339 389 0
2019-03-22 03:12:46 GMT 40.604462 -87.094116 36,000 339 389 0
2019-03-22 03:12:42 GMT 40.597042 -87.090309 36,000 339 390 0
2019-03-22 03:12:39 GMT 40.592697 -87.088074 36,000 339 390 0
2019-03-22 03:12:36 GMT 40.579910 -87.081505 36,000 339 390 0
2019-03-22 03:12:33 GMT 40.579910 -87.081505 36,000 339 390 0
2019-03-22 03:12:29 GMT 40.574890 -87.078918 36,000 339 390 -64
2019-03-22 03:12:26 GMT 40.569168 -87.075989 36,000 338 390 0
2019-03-22 03:12:23 GMT 40.565155 -87.073830 36,000 337 389 0
2019-03-22 03:12:20 GMT 40.560150 -87.071106 36,000 337 389 0
2019-03-22 03:12:17 GMT 40.553421 -87.067139 36,000 335 389 64
2019-03-22 03:12:13 GMT 40.541969 -87.059662 36,000 333 389 0
2019-03-22 03:12:10 GMT 40.541969 -87.059662 36,000 333 389 0
2019-03-22 03:12:06 GMT 40.535267 -87.055099 36,000 333 389 0
2019-03-22 03:12:03 GMT 40.532055 -87.052917 36,000 333 389 0
2019-03-22 03:12:00 GMT 40.526962 -87.049438 36,000 333 389 0
2019-03-22 03:11:57 GMT 40.522934 -87.046692 36,000 333 389 0
2019-03-22 03:11:53 GMT 40.517349 -87.042847 36,000 333 389 0
2019-03-22 03:11:50 GMT 40.512272 -87.039375 36,000 333 390 0
2019-03-22 03:11:47 GMT 40.506683 -87.035500 36,000 333 390 0
2019-03-22 03:11:43 GMT 40.498539 -87.029945 36,000 333 390 0
2019-03-22 03:11:40 GMT 40.494534 -87.027138 36,000 333 390 0
2019-03-22 03:11:37 GMT 40.491348 -87.024963 36,000 333 390 0
2019-03-22 03:11:34 GMT 40.481266 -87.018021 36,000 333 390 0
2019-03-22 03:11:28 GMT 40.475353 -87.013969 36,000 333 390 0
2019-03-22 03:11:23 GMT 40.468468 -87.009224 36,000 333 390 0
2019-03-22 03:11:20 GMT 40.458755 -87.002502 36,000 333 390 0
2019-03-22 03:11:14 GMT 40.454735 -86.999733 36,000 333 390 0
2019-03-22 03:11:10 GMT 40.447586 -86.994751 36,000 333 390 0
2019-03-22 03:11:06 GMT 40.441837 -86.990746 36,000 333 390 0
2019-03-22 03:11:02 GMT 40.433990 -86.985291 36,000 333 390 0
2019-03-22 03:10:59 GMT 40.429184 -86.981995 36,000 333 390 0
2019-03-22 03:10:56 GMT 40.424561 -86.978821 36,000 333 390 0
2019-03-22 03:10:51 GMT 40.416550 -86.973328 36,000 333 390 0
2019-03-22 03:10:48 GMT 40.413208 -86.971016 36,000 333 390 0
2019-03-22 03:10:45 GMT 40.408226 -86.967583 36,000 333 390 0
2019-03-22 03:10:42 GMT 40.402920 -86.963966 36,000 333 390 0
2019-03-22 03:10:39 GMT 40.397659 -86.960342 36,000 333 390 0
2019-03-22 03:10:35 GMT 40.391094 -86.955849 36,000 333 390 0
2019-03-22 03:10:31 GMT 40.383545 -86.950684 36,000 333 391 0
2019-03-22 03:10:28 GMT 40.380524 -86.948608 36,000 333 391 0
2019-03-22 03:10:25 GMT 40.375687 -86.945297 36,000 333 391 0
2019-03-22 03:10:22 GMT 40.370750 -86.941872 36,000 333 391 0
2019-03-22 03:10:18 GMT 40.363213 -86.936752 36,000 333 391 0
2019-03-22 03:10:14 GMT 40.357578 -86.932877 36,000 333 391 0
2019-03-22 03:10:11 GMT 40.352142 -86.929199 36,000 333 391 0
2019-03-22 03:10:07 GMT 40.346512 -86.925354 36,000 333 391 0
2019-03-22 03:10:04 GMT 40.341568 -86.921936 36,000 333 391 0
2019-03-22 03:10:01 GMT 40.337048 -86.918900 36,000 333 391 0
2019-03-22 03:09:57 GMT 40.329025 -86.913391 36,000 333 391 0
2019-03-22 03:09:53 GMT 40.322430 -86.908913 36,000 333 391 0
2019-03-22 03:09:50 GMT 40.318451 -86.906189 36,000 333 391 0
2019-03-22 03:09:46 GMT 40.312328 -86.902046 36,000 333 391 0
2019-03-22 03:09:40 GMT 40.304489 -86.896667 36,000 333 391 0
2019-03-22 03:09:37 GMT 40.298691 -86.892738 36,000 333 391 0
2019-03-22 03:09:34 GMT 40.292313 -86.888313 36,000 333 391 0
2019-03-22 03:09:29 GMT 40.285538 -86.883728 36,000 333 391 0
2019-03-22 03:09:26 GMT 40.280113 -86.880005 36,000 333 391 0
2019-03-22 03:09:23 GMT 40.276749 -86.877686 36,000 333 391 0
2019-03-22 03:09:20 GMT 40.265488 -86.870056 36,000 333 391 0
2019-03-22 03:09:17 GMT 40.265488 -86.870056 36,000 333 391 0
2019-03-22 03:09:14 GMT 40.262146 -86.867737 36,000 333 391 0
2019-03-22 03:09:11 GMT 40.256516 -86.863892 36,000 333 391 0
2019-03-22 03:09:07 GMT 40.251671 -86.860596 36,000 333 391 0
2019-03-22 03:09:04 GMT 40.245895 -86.856628 36,000 333 391 0
2019-03-22 03:09:01 GMT 40.239624 -86.852356 36,000 333 391 0
2019-03-22 03:08:58 GMT 40.235474 -86.849548 36,000 333 392 0
2019-03-22 03:08:55 GMT 40.230011 -86.845764 36,000 333 392 0
2019-03-22 03:08:52 GMT 40.225323 -86.842613 36,000 333 392 0
2019-03-22 03:08:49 GMT 40.220341 -86.839180 36,000 333 392 0
2019-03-22 03:08:45 GMT 40.214401 -86.835144 36,000 333 392 0
2019-03-22 03:08:41 GMT 40.207680 -86.830505 36,000 333 392 0
2019-03-22 03:08:35 GMT 40.198334 -86.824158 36,000 333 392 0
2019-03-22 03:08:32 GMT 40.194134 -86.821327 36,000 333 392 0
2019-03-22 03:08:29 GMT 40.189316 -86.818054 36,000 333 392 0
2019-03-22 03:08:26 GMT 40.183517 -86.814087 36,000 333 392 0
2019-03-22 03:08:22 GMT 40.179337 -86.811218 36,000 333 392 0
2019-03-22 03:08:19 GMT 40.171463 -86.805847 36,000 333 392 0
2019-03-22 03:08:16 GMT 40.167274 -86.803040 36,000 333 392 0
2019-03-22 03:08:13 GMT 40.154888 -86.794617 36,000 333 392 0
2019-03-22 03:08:08 GMT 40.151047 -86.791931 36,000 333 392 0
2019-03-22 03:08:02 GMT 40.146057 -86.788574 36,000 333 392 0
2019-03-22 03:07:57 GMT 40.138641 -86.783501 36,000 333 392 0
2019-03-22 03:07:54 GMT 40.133663 -86.780128 36,000 333 392 0
2019-03-22 03:07:51 GMT 40.129166 -86.777039 36,000 333 392 0
2019-03-22 03:07:47 GMT 40.122536 -86.772575 36,000 333 392 0
2019-03-22 03:07:44 GMT 40.117081 -86.768860 36,000 333 392 0
2019-03-22 03:07:41 GMT 40.112732 -86.765930 36,000 333 392 0
2019-03-22 03:07:37 GMT 40.104858 -86.760559 36,000 333 392 0
2019-03-22 03:07:34 GMT 40.100006 -86.757286 36,000 333 392 0
2019-03-22 03:07:30 GMT 40.095024 -86.753914 36,000 333 392 0
2019-03-22 03:07:27 GMT 40.088562 -86.749573 36,000 333 392 0
2019-03-22 03:07:23 GMT 40.082291 -86.745300 36,000 333 392 0
2019-03-22 03:07:20 GMT 40.078732 -86.742867 36,000 333 392 0
2019-03-22 03:07:16 GMT 40.071991 -86.738281 36,000 333 392 0
2019-03-22 03:07:13 GMT 40.066486 -86.734566 36,000 333 393 0
2019-03-22 03:07:10 GMT 40.062012 -86.731506 36,000 333 393 0
2019-03-22 03:07:06 GMT 40.054893 -86.726761 36,000 333 392 0
2019-03-22 03:07:03 GMT 40.049744 -86.723267 36,000 333 392 0
2019-03-22 03:07:00 GMT 40.044605 -86.719772 36,000 333 392 0
2019-03-22 03:06:54 GMT 40.037670 -86.715088 36,000 333 392 0
2019-03-22 03:06:51 GMT 40.032211 -86.711365 36,000 333 392 0
2019-03-22 03:06:48 GMT 40.026871 -86.707787 36,000 333 392 0
2019-03-22 03:06:43 GMT 40.019165 -86.702576 36,000 333 392 0
2019-03-22 03:06:40 GMT 40.014347 -86.699295 36,000 333 392 0
2019-03-22 03:06:37 GMT 40.009647 -86.696114 36,000 333 392 0
2019-03-22 03:06:34 GMT 40.003235 -86.691772 36,000 333 392 0
2019-03-22 03:06:30 GMT 39.996613 -86.687309 36,000 333 392 0
2019-03-22 03:06:21 GMT 39.982273 -86.677635 36,000 333 392 0
2019-03-22 03:06:17 GMT 39.975861 -86.673279 36,000 333 392 0
2019-03-22 03:06:13 GMT 39.965561 -86.666321 36,000 333 392 0
2019-03-22 03:06:07 GMT 39.959278 -86.662094 36,000 333 392 0
2019-03-22 03:06:00 GMT 39.948662 -86.654846 36,000 333 393 0
2019-03-22 03:05:57 GMT 39.942986 -86.650978 36,000 333 393 0
2019-03-22 03:05:54 GMT 39.940750 -86.649483 36,000 333 393 0
2019-03-22 03:05:51 GMT 39.933811 -86.644737 36,000 333 394 0
2019-03-22 03:05:48 GMT 39.929581 -86.641907 36,000 333 394 0
2019-03-22 03:05:45 GMT 39.923904 -86.638062 36,000 333 395 0
2019-03-22 03:05:40 GMT 39.916122 -86.632812 36,000 333 395 0
2019-03-22 03:05:37 GMT 39.911591 -86.629707 36,000 333 395 0
2019-03-22 03:05:34 GMT 39.906876 -86.626541 36,000 333 396 0
2019-03-22 03:05:31 GMT 39.901199 -86.622719 36,000 333 396 0
2019-03-22 03:05:25 GMT 39.891724 -86.616333 36,000 333 399 0
2019-03-22 03:05:22 GMT 39.889122 -86.614563 36,000 333 397 0
2019-03-22 03:05:17 GMT 39.872597 -86.603516 36,000 333 398 0
2019-03-22 03:05:13 GMT 39.872597 -86.603516 36,000 333 399 0
2019-03-22 03:05:09 GMT 39.865402 -86.598656 36,000 333 399 0
2019-03-22 03:05:04 GMT 39.859142 -86.594482 36,000 333 400 0
2019-03-22 03:05:01 GMT 39.852585 -86.590057 36,000 333 400 0
2019-03-22 03:04:57 GMT 39.846130 -86.585762 36,000 333 400 0
2019-03-22 03:04:54 GMT 39.834099 -86.577698 36,000 333 401 0
2019-03-22 03:04:50 GMT 39.830109 -86.575073 36,000 333 402 0
2019-03-22 03:04:47 GMT 39.825348 -86.571846 36,000 333 402 0
2019-03-22 03:04:44 GMT 39.825348 -86.571846 36,000 333 402 0
2019-03-22 03:04:41 GMT 39.820690 -86.568726 36,000 333 403 0
2019-03-22 03:04:37 GMT 39.807907 -86.560204 36,000 333 404 0
2019-03-22 03:04:34 GMT 39.807907 -86.560204 36,000 333 405 0
2019-03-22 03:04:31 GMT 39.802582 -86.556641 36,000 333 405 0
2019-03-22 03:04:26 GMT 39.793877 -86.550842 36,000 333 406 0
2019-03-22 03:04:23 GMT 39.789036 -86.547607 36,000 333 406 0
2019-03-22 03:04:20 GMT 39.778049 -86.540222 36,000 333 406 0
2019-03-22 03:04:15 GMT 39.778049 -86.540222 36,000 333 406 0
2019-03-22 03:04:12 GMT 39.770554 -86.535187 36,000 333 405 0
2019-03-22 03:04:09 GMT 39.767532 -86.533157 36,000 333 405 0
2019-03-22 03:04:06 GMT 39.761353 -86.529037 36,000 333 405 0
2019-03-22 03:04:02 GMT 39.754395 -86.524323 36,000 333 406 0
2019-03-22 03:03:59 GMT 39.749046 -86.520691 36,000 333 406 0
2019-03-22 03:03:55 GMT 39.742401 -86.516197 36,000 333 406 0
2019-03-22 03:03:51 GMT 39.737408 -86.512817 36,000 333 406 0
2019-03-22 03:03:47 GMT 39.731735 -86.509033 36,000 333 406 0
2019-03-22 03:03:43 GMT 39.719952 -86.501038 36,000 333 405 0
2019-03-22 03:03:37 GMT 39.714134 -86.497131 36,000 333 405 0
2019-03-22 03:03:34 GMT 39.707150 -86.492432 36,000 333 405 0
2019-03-22 03:03:30 GMT 39.702164 -86.489029 36,000 333 405 0
2019-03-22 03:03:25 GMT 39.693512 -86.483238 36,000 333 405 0
2019-03-22 03:03:22 GMT 39.687836 -86.479416 36,000 333 405 0
2019-03-22 03:03:19 GMT 39.682339 -86.475769 36,000 333 405 0
2019-03-22 03:03:14 GMT 39.676193 -86.471619 36,000 333 405 0
2019-03-22 03:03:11 GMT 39.665680 -86.464615 36,000 333 405 0
2019-03-22 03:03:05 GMT 39.661201 -86.461609 36,000 333 405 0
2019-03-22 03:03:02 GMT 39.653847 -86.456726 36,000 333 405 0
2019-03-22 03:02:59 GMT 39.648834 -86.453384 36,000 333 405 0
2019-03-22 03:02:54 GMT 39.641514 -86.448486 36,000 333 405 0
2019-03-22 03:02:51 GMT 39.635040 -86.444153 36,000 333 405 0
2019-03-22 03:02:48 GMT 39.631828 -86.442078 36,000 333 405 0
2019-03-22 03:02:44 GMT 39.626198 -86.438293 36,000 333 404 0
2019-03-22 03:02:41 GMT 39.619675 -86.433983 36,000 333 404 0
2019-03-22 03:02:38 GMT 39.613861 -86.430099 36,000 333 404 0
2019-03-22 03:02:34 GMT 39.607204 -86.425720 36,000 333 404 0
2019-03-22 03:02:31 GMT 39.604038 -86.423584 36,000 333 404 0
2019-03-22 03:02:27 GMT 39.597195 -86.419067 36,000 333 404 0
2019-03-22 03:02:24 GMT 39.590515 -86.414696 36,000 333 404 0
2019-03-22 03:02:21 GMT 39.579365 -86.407288 36,000 333 403 0
2019-03-22 03:02:17 GMT 39.579365 -86.407288 36,000 333 403 0
2019-03-22 03:02:11 GMT 39.569729 -86.400879 36,000 333 403 0
2019-03-22 03:02:08 GMT 39.564789 -86.397560 36,000 333 403 0
2019-03-22 03:02:00 GMT 39.551834 -86.388901 36,000 333 403 0
2019-03-22 03:01:56 GMT 39.543869 -86.383591 36,000 333 403 0
2019-03-22 03:01:52 GMT 39.537888 -86.379639 36,000 333 403 0
2019-03-22 03:01:48 GMT 39.531742 -86.375549 36,000 333 403 0
2019-03-22 03:01:44 GMT 39.527115 -86.372482 36,000 333 402 0
2019-03-22 03:01:41 GMT 39.519974 -86.367706 36,000 333 403 0
2019-03-22 03:01:38 GMT 39.514332 -86.363953 36,000 333 403 0
2019-03-22 03:01:35 GMT 39.504742 -86.357605 36,000 333 402 0
2019-03-22 03:01:29 GMT 39.502087 -86.355835 36,000 333 402 0
2019-03-22 03:01:26 GMT 39.494778 -86.350952 36,000 333 402 0
2019-03-22 03:01:22 GMT 39.488159 -86.346565 36,000 333 402 0
2019-03-22 03:01:19 GMT 39.484211 -86.343933 36,000 333 402 0
2019-03-22 03:01:16 GMT 39.479416 -86.340698 36,000 333 402 0
2019-03-22 03:01:13 GMT 39.469501 -86.334045 36,000 333 402 0
2019-03-22 03:01:10 GMT 39.469501 -86.334045 36,000 333 402 0
2019-03-22 03:01:07 GMT 39.463852 -86.330330 36,000 333 402 0
2019-03-22 03:01:04 GMT 39.455303 -86.324585 36,000 333 402 0
2019-03-22 03:00:58 GMT 39.449486 -86.320679 36,000 333 402 0
2019-03-22 03:00:55 GMT 39.445221 -86.317848 36,000 333 402 0
2019-03-22 03:00:51 GMT 39.436962 -86.312317 36,000 333 402 0
2019-03-22 03:00:48 GMT 39.432358 -86.309250 36,000 333 401 0
2019-03-22 03:00:45 GMT 39.427372 -86.305969 36,000 333 401 0
2019-03-22 03:00:42 GMT 39.423275 -86.303162 36,000 333 401 0
2019-03-22 03:00:39 GMT 39.418480 -86.299988 36,000 333 401 0
2019-03-22 03:00:36 GMT 39.414337 -86.297302 36,000 333 401 0
2019-03-22 03:00:33 GMT 39.402283 -86.289307 36,000 333 401 0
2019-03-22 03:00:30 GMT 39.402283 -86.289307 36,000 333 401 0
2019-03-22 03:00:25 GMT 39.396194 -86.285248 36,000 333 401 0
2019-03-22 03:00:22 GMT 39.390060 -86.281250 36,000 333 401 0
2019-03-22 03:00:18 GMT 39.375885 -86.271851 36,000 333 401 0
2019-03-22 03:00:14 GMT 39.375885 -86.271851 36,000 333 400 0
2019-03-22 03:00:09 GMT 39.367493 -86.266258 36,000 333 400 0
2019-03-22 03:00:06 GMT 39.358753 -86.260437 36,000 333 401 0
2019-03-22 03:00:03 GMT 39.358753 -86.260437 36,000 333 401 0
2019-03-22 02:59:59 GMT 39.350510 -86.254974 36,000 333 401 0
2019-03-22 02:59:56 GMT 39.346882 -86.252625 36,000 333 401 0
2019-03-22 02:59:53 GMT 39.341110 -86.248779 36,000 333 400 -64
2019-03-22 02:59:50 GMT 39.336823 -86.245956 36,000 333 400 0
2019-03-22 02:59:45 GMT 39.329891 -86.241394 36,000 333 399 0
2019-03-22 02:59:42 GMT 39.324120 -86.237610 36,000 333 399 0
2019-03-22 02:59:39 GMT 39.319519 -86.234558 36,000 333 399 64
2019-03-22 02:59:35 GMT 39.312103 -86.229660 36,000 333 399 0
2019-03-22 02:59:32 GMT 39.307175 -86.226440 36,000 333 399 0
2019-03-22 02:59:25 GMT 39.295303 -86.218628 36,000 333 399 0
2019-03-22 02:59:21 GMT 39.289902 -86.215027 36,000 333 399 0
2019-03-22 02:59:17 GMT 39.283173 -86.210556 36,000 333 399 0
2019-03-22 02:59:14 GMT 39.277405 -86.206734 36,000 333 399 0
2019-03-22 02:59:11 GMT 39.272324 -86.203384 36,000 333 399 0
2019-03-22 02:59:06 GMT 39.264763 -86.198364 36,000 333 399 0
2019-03-22 02:59:03 GMT 39.259506 -86.194847 36,000 333 399 0
2019-03-22 02:59:00 GMT 39.255920 -86.192505 36,000 333 398 0
2019-03-22 02:58:57 GMT 39.250168 -86.188698 36,000 333 398 0
2019-03-22 02:58:53 GMT 39.243908 -86.184570 36,000 333 399 0
2019-03-22 02:58:50 GMT 39.238182 -86.180725 36,000 333 398 0
2019-03-22 02:58:45 GMT 39.229477 -86.174988 36,000 333 398 0
2019-03-22 02:58:42 GMT 39.224358 -86.171631 36,000 333 398 -64
2019-03-22 02:58:38 GMT 39.219284 -86.168274 36,000 333 398 0
2019-03-22 02:58:31 GMT 39.206955 -86.160156 36,000 333 398 0
2019-03-22 02:58:28 GMT 39.201035 -86.156250 36,000 333 398 0
2019-03-22 02:58:23 GMT 39.194321 -86.151855 36,000 333 398 0
2019-03-22 02:58:18 GMT 39.186790 -86.146851 36,000 333 398 0
2019-03-22 02:58:15 GMT 39.180222 -86.142548 36,000 333 398 0
2019-03-22 02:58:12 GMT 39.176102 -86.139801 36,000 333 398 0
2019-03-22 02:58:08 GMT 39.169891 -86.135681 36,000 333 398 0
2019-03-22 02:58:02 GMT 39.160721 -86.129639 36,000 333 398 0
2019-03-22 02:57:58 GMT 39.153168 -86.124634 36,000 333 398 0
2019-03-22 02:57:54 GMT 39.146427 -86.120239 36,000 333 398 0
2019-03-22 02:57:51 GMT 39.141495 -86.116943 36,000 333 398 0
2019-03-22 02:57:47 GMT 39.127899 -86.108032 36,000 333 398 0
2019-03-22 02:57:42 GMT 39.127899 -86.108032 36,000 333 398 0
2019-03-22 02:57:39 GMT 39.122955 -86.104813 36,000 333 398 0
2019-03-22 02:57:36 GMT 39.118515 -86.101883 36,000 333 398 0
2019-03-22 02:57:33 GMT 39.110779 -86.096809 36,000 333 398 0
2019-03-22 02:57:29 GMT 39.106339 -86.093941 36,000 333 398 0
2019-03-22 02:57:26 GMT 39.101578 -86.090836 36,000 333 398 0
2019-03-22 02:57:23 GMT 39.094383 -86.086060 36,000 333 398 0
2019-03-22 02:57:19 GMT 39.088806 -86.082420 36,000 333 398 0
2019-03-22 02:57:16 GMT 39.083862 -86.079224 36,000 333 397 0
2019-03-22 02:57:13 GMT 39.078644 -86.075729 36,000 333 397 0
2019-03-22 02:57:10 GMT 39.074692 -86.073181 36,000 333 397 0
2019-03-22 02:57:06 GMT 39.066498 -86.067810 36,000 333 397 0
2019-03-22 02:57:02 GMT 39.060120 -86.063599 36,000 333 397 0
2019-03-22 02:56:58 GMT 39.053558 -86.059311 36,000 334 397 0
2019-03-22 02:56:55 GMT 39.048298 -86.055847 36,000 333 397 0
2019-03-22 02:56:48 GMT 39.037495 -86.048828 36,000 334 397 0
2019-03-22 02:56:44 GMT 39.030746 -86.044434 36,000 334 397 0
2019-03-22 02:56:41 GMT 39.025673 -86.041138 36,000 334 397 0
2019-03-22 02:56:37 GMT 39.020782 -86.037933 36,000 334 397 0
2019-03-22 02:56:33 GMT 39.015198 -86.034302 36,000 333 397 0
2019-03-22 02:56:30 GMT 39.004398 -86.027222 36,000 334 397 0
2019-03-22 02:56:27 GMT 39.004398 -86.027222 36,000 334 397 0
2019-03-22 02:56:22 GMT 38.994576 -86.020813 36,000 334 397 0
2019-03-22 02:56:19 GMT 38.991440 -86.018768 36,000 334 397 0
2019-03-22 02:56:16 GMT 38.987366 -86.016083 36,000 333 395 0
2019-03-22 02:56:12 GMT 38.979813 -86.011185 36,000 334 397 0
2019-03-22 02:56:09 GMT 38.973625 -86.007141 36,000 333 396 0
2019-03-22 02:56:06 GMT 38.970043 -86.004761 36,000 333 396 0
2019-03-22 02:56:02 GMT 38.961849 -85.999451 36,000 333 396 0
2019-03-22 02:55:58 GMT 38.958115 -85.996979 36,000 333 396 0
2019-03-22 02:55:55 GMT 38.952538 -85.993347 36,000 333 396 0
2019-03-22 02:55:50 GMT 38.945206 -85.988556 36,000 333 396 0
2019-03-22 02:55:47 GMT 38.938156 -85.983963 36,000 333 396 0
2019-03-22 02:55:44 GMT 38.933266 -85.980774 36,000 333 395 0
2019-03-22 02:55:41 GMT 38.925934 -85.975960 36,000 333 395 0
2019-03-22 02:55:36 GMT 38.918789 -85.971252 36,000 333 395 0
2019-03-22 02:55:31 GMT 38.913895 -85.968079 36,000 333 395 0
2019-03-22 02:55:28 GMT 38.906570 -85.963303 36,000 333 395 0
2019-03-22 02:55:22 GMT 38.899052 -85.958374 36,000 333 395 0
2019-03-22 02:55:19 GMT 38.892857 -85.954346 36,000 333 395 0
2019-03-22 02:55:16 GMT 38.888294 -85.951355 36,000 334 394 0
2019-03-22 02:55:12 GMT 38.883087 -85.947952 36,000 334 394 0
2019-03-22 02:55:09 GMT 38.876587 -85.943718 36,000 334 394 0
2019-03-22 02:55:06 GMT 38.873165 -85.941528 36,000 334 394 0
2019-03-22 02:55:03 GMT 38.861252 -85.933807 36,000 334 394 0
2019-03-22 02:54:59 GMT 38.861252 -85.933807 36,000 334 394 0
2019-03-22 02:54:56 GMT 38.855896 -85.930283 36,000 334 394 -64
2019-03-22 02:54:53 GMT 38.848911 -85.925720 36,000 334 394 0
2019-03-22 02:54:50 GMT 38.844353 -85.922791 36,000 333 394 0
2019-03-22 02:54:47 GMT 38.839973 -85.919922 36,000 333 394 0
2019-03-22 02:54:44 GMT 38.835880 -85.917236 36,000 333 394 0
2019-03-22 02:54:39 GMT 38.828110 -85.912193 36,000 333 394 0
2019-03-22 02:54:36 GMT 38.821587 -85.907959 36,000 333 394 0
2019-03-22 02:54:33 GMT 38.818188 -85.905762 36,000 333 394 0
2019-03-22 02:54:30 GMT 38.814465 -85.903320 36,000 333 394 0
2019-03-22 02:54:25 GMT 38.805542 -85.897499 36,000 333 394 0
2019-03-22 02:54:21 GMT 38.798904 -85.893143 36,000 333 394 0
2019-03-22 02:54:17 GMT 38.790939 -85.887947 36,000 333 394 0
2019-03-22 02:54:14 GMT 38.786068 -85.884827 36,000 333 394 0
2019-03-22 02:54:11 GMT 38.779736 -85.880676 36,000 333 393 0
2019-03-22 02:54:07 GMT 38.776520 -85.878578 36,000 333 393 0
2019-03-22 02:54:04 GMT 38.771637 -85.875427 36,000 333 393 0
2019-03-22 02:54:01 GMT 38.765026 -85.871094 36,000 333 393 0
2019-03-22 02:53:56 GMT 38.756744 -85.865677 36,000 333 393 0
2019-03-22 02:53:53 GMT 38.753529 -85.863525 36,000 333 393 0
2019-03-22 02:53:50 GMT 38.747681 -85.859711 36,000 333 393 0
2019-03-22 02:53:46 GMT 38.742821 -85.856567 36,000 333 393 0
2019-03-22 02:53:42 GMT 38.735733 -85.851883 36,000 334 392 0
2019-03-22 02:53:39 GMT 38.729225 -85.847656 36,000 334 392 0
2019-03-22 02:53:32 GMT 38.718056 -85.840393 36,000 334 392 0
2019-03-22 02:53:26 GMT 38.710648 -85.835587 36,000 334 392 0
2019-03-22 02:53:21 GMT 38.700924 -85.829224 36,000 334 392 0
2019-03-22 02:53:16 GMT 38.694260 -85.824959 36,000 334 392 0
2019-03-22 02:53:12 GMT 38.688450 -85.821167 36,000 334 392 0
2019-03-22 02:53:09 GMT 38.683594 -85.818031 36,000 334 392 0
2019-03-22 02:53:04 GMT 38.675629 -85.812897 36,000 334 392 0
2019-03-22 02:53:00 GMT 38.666756 -85.807068 36,000 334 392 0
2019-03-22 02:52:57 GMT 38.661076 -85.803406 36,000 334 392 0
2019-03-22 02:52:54 GMT 38.658142 -85.801514 36,000 334 392 0
2019-03-22 02:52:51 GMT 38.654091 -85.798889 36,000 334 392 0
2019-03-22 02:52:48 GMT 38.642303 -85.791222 36,000 334 392 0
2019-03-22 02:52:45 GMT 38.642303 -85.791222 36,000 333 391 0
2019-03-22 02:52:42 GMT 38.638596 -85.788834 36,000 334 392 0
2019-03-22 02:52:36 GMT 38.627106 -85.781372 36,000 333 391 0
2019-03-22 02:52:33 GMT 38.623043 -85.778748 36,000 333 391 0
2019-03-22 02:52:28 GMT 38.614838 -85.773369 36,000 333 391 0
2019-03-22 02:52:23 GMT 38.607540 -85.768616 36,000 333 391 0
2019-03-22 02:52:19 GMT 38.600418 -85.764053 36,000 334 391 -64
2019-03-22 02:52:15 GMT 38.592499 -85.758919 36,000 334 391 0
2019-03-22 02:52:10 GMT 38.587509 -85.755692 36,000 334 391 0
2019-03-22 02:52:05 GMT 38.578583 -85.750000 36,000 334 390 0
2019-03-22 02:52:02 GMT 38.574417 -85.747276 36,000 334 390 0
2019-03-22 02:51:59 GMT 38.570206 -85.744568 36,000 334 390 0
2019-03-22 02:51:56 GMT 38.563595 -85.740295 36,000 334 390 0
2019-03-22 02:51:50 GMT 38.553585 -85.733887 36,000 334 390 0
2019-03-22 02:51:43 GMT 38.541779 -85.726318 36,000 334 390 0
2019-03-22 02:51:40 GMT 38.537247 -85.723450 36,000 334 390 0
2019-03-22 02:51:37 GMT 38.532440 -85.720345 36,000 334 389 0
2019-03-22 02:51:33 GMT 38.525654 -85.716003 36,000 334 389 0
2019-03-22 02:51:28 GMT 38.517601 -85.710876 36,000 334 389 0
2019-03-22 02:51:24 GMT 38.511841 -85.707153 36,000 334 388 0
2019-03-22 02:51:21 GMT 38.505077 -85.702820 36,000 334 386 64
2019-03-22 02:51:18 GMT 38.502193 -85.700989 36,000 334 387 0
2019-03-22 02:51:13 GMT 38.489365 -85.692703 36,000 334 387 0
2019-03-22 02:51:06 GMT 38.484741 -85.689720 36,000 334 387 0
2019-03-22 02:51:03 GMT 38.478031 -85.685364 36,000 334 386 64
2019-03-22 02:51:00 GMT 38.465092 -85.677063 36,000 334 386 0
2019-03-22 02:50:55 GMT 38.465092 -85.677063 36,000 334 386 0
2019-03-22 02:50:52 GMT 38.461258 -85.674553 36,000 334 386 0
2019-03-22 02:50:49 GMT 38.455673 -85.670967 36,000 334 386 0
2019-03-22 02:50:46 GMT 38.450752 -85.667786 36,000 334 385 0
2019-03-22 02:50:41 GMT 38.442627 -85.662552 36,000 334 385 0
2019-03-22 02:50:38 GMT 38.438004 -85.659622 36,000 334 385 0
2019-03-22 02:50:35 GMT 38.433060 -85.656464 36,000 334 385 0
2019-03-22 02:50:31 GMT 38.427055 -85.652588 36,000 334 385 0
2019-03-22 02:50:28 GMT 38.423378 -85.650208 36,000 334 384 0
2019-03-22 02:50:25 GMT 38.416397 -85.645775 36,000 334 384 0
2019-03-22 02:50:18 GMT 38.407654 -85.640182 36,000 334 384 0
2019-03-22 02:50:14 GMT 38.400520 -85.635559 36,000 334 383 0
2019-03-22 02:50:09 GMT 38.393555 -85.631126 36,000 334 383 0
2019-03-22 02:50:05 GMT 38.387054 -85.626976 36,000 334 383 0
2019-03-22 02:50:01 GMT 38.372040 -85.617332 36,000 334 381 64
2019-03-22 02:49:57 GMT 38.372040 -85.617332 36,000 334 383 0
2019-03-22 02:49:53 GMT 38.366352 -85.613647 36,000 334 383 0
2019-03-22 02:49:48 GMT 38.360489 -85.609886 36,000 334 381 0
2019-03-22 02:49:45 GMT 38.354668 -85.606186 36,000 334 382 -64
2019-03-22 02:49:42 GMT 38.349781 -85.603020 36,000 334 381 -64
2019-03-22 02:49:36 GMT 38.334000 -85.592903 36,000 334 381 64
2019-03-22 02:49:32 GMT 38.334000 -85.592903 36,000 334 381 64
2019-03-22 02:49:28 GMT 38.329147 -85.589752 36,000 334 381 64
2019-03-22 02:49:25 GMT 38.324081 -85.586540 36,000 334 381 0
2019-03-22 02:49:22 GMT 38.317795 -85.582504 36,000 334 381 0
2019-03-22 02:49:19 GMT 38.312759 -85.579292 36,000 334 379 64
2019-03-22 02:49:15 GMT 38.306484 -85.575256 36,000 334 380 -64
2019-03-22 02:49:11 GMT 38.300491 -85.571457 36,000 334 379 64
2019-03-22 02:49:06 GMT 38.294724 -85.567719 36,000 334 379 0
2019-03-22 02:49:03 GMT 38.289825 -85.564621 36,000 334 379 64
2019-03-22 02:49:00 GMT 38.283863 -85.560745 36,000 334 379 64
2019-03-22 02:48:55 GMT 38.275063 -85.555138 36,000 334 379 64
2019-03-22 02:48:52 GMT 38.271946 -85.553108 36,000 334 379 0
2019-03-22 02:48:49 GMT 38.266617 -85.549721 36,000 334 379 -64
2019-03-22 02:48:43 GMT 38.256134 -85.542999 36,000 334 379 0
2019-03-22 02:48:39 GMT 38.251556 -85.540085 36,000 334 379 0
2019-03-22 02:48:35 GMT 38.245605 -85.536278 36,000 334 379 0
2019-03-22 02:48:32 GMT 38.239685 -85.532448 36,000 334 379 0
2019-03-22 02:48:27 GMT 38.231213 -85.527069 36,000 334 379 0
2019-03-22 02:48:23 GMT 38.226650 -85.524147 36,000 334 378 0
2019-03-22 02:48:20 GMT 38.222900 -85.521790 36,000 334 378 0
2019-03-22 02:48:17 GMT 38.216812 -85.517868 36,000 334 378 0
2019-03-22 02:48:13 GMT 38.209442 -85.513138 36,000 334 378 0
2019-03-22 02:48:10 GMT 38.206493 -85.511246 36,000 334 378 0
2019-03-22 02:48:06 GMT 38.199604 -85.506828 36,000 334 378 0
2019-03-22 02:48:03 GMT 38.195831 -85.504379 36,000 334 378 0
2019-03-22 02:48:00 GMT 38.191177 -85.501389 36,000 334 378 0
2019-03-22 02:47:57 GMT 38.183495 -85.496498 36,000 334 378 0
2019-03-22 02:47:54 GMT 38.181152 -85.495018 36,000 334 378 0
2019-03-22 02:47:51 GMT 38.174931 -85.491005 36,000 334 378 0
2019-03-22 02:47:46 GMT 38.167763 -85.486412 36,000 334 378 0
2019-03-22 02:47:43 GMT 38.164597 -85.484444 36,000 334 378 0
2019-03-22 02:47:40 GMT 38.158821 -85.480736 36,000 334 377 0
2019-03-22 02:47:36 GMT 38.150120 -85.475128 36,000 334 377 0
2019-03-22 02:47:32 GMT 38.145721 -85.472343 36,000 334 377 0
2019-03-22 02:47:29 GMT 38.139782 -85.468559 36,000 334 377 0
2019-03-22 02:47:22 GMT 38.124931 -85.459061 36,000 334 378 0
2019-03-22 02:47:14 GMT 38.117432 -85.454292 36,000 334 378 0
2019-03-22 02:47:09 GMT 38.109650 -85.449326 36,000 334 378 0
2019-03-22 02:47:06 GMT 38.104477 -85.446053 36,000 334 380 0
2019-03-22 02:47:00 GMT 38.096489 -85.441032 36,000 334 378 0
2019-03-22 02:46:57 GMT 38.090389 -85.437149 36,000 334 378 0
2019-03-22 02:46:49 GMT 38.079590 -85.430283 36,000 334 378 0
2019-03-22 02:46:46 GMT 38.073029 -85.426125 36,000 334 378 0
2019-03-22 02:46:41 GMT 38.064697 -85.420807 36,000 334 378 0
2019-03-22 02:46:38 GMT 38.060970 -85.418404 36,000 334 378 0
2019-03-22 02:46:35 GMT 38.048775 -85.410583 36,000 334 378 0
2019-03-22 02:46:29 GMT 38.048775 -85.410583 36,000 334 379 0
2019-03-22 02:46:26 GMT 38.043594 -85.407303 36,000 334 379 0
2019-03-22 02:46:19 GMT 38.033249 -85.400703 36,000 334 380 0
2019-03-22 02:46:16 GMT 38.026840 -85.396553 36,000 334 380 0
2019-03-22 02:46:11 GMT 38.020561 -85.392548 36,000 334 380 0
2019-03-22 02:46:07 GMT 38.015068 -85.389023 36,000 334 380 0
2019-03-22 02:46:04 GMT 38.009575 -85.385506 36,000 334 380 0
2019-03-22 02:46:01 GMT 38.004734 -85.382339 36,000 334 381 0
2019-03-22 02:45:58 GMT 37.998451 -85.378342 36,000 334 381 0
2019-03-22 02:45:54 GMT 37.992462 -85.374519 36,000 334 381 0
2019-03-22 02:45:50 GMT 37.987885 -85.371651 36,000 334 381 0
2019-03-22 02:45:47 GMT 37.980946 -85.367233 36,000 334 381 0
2019-03-22 02:45:43 GMT 37.975571 -85.363831 36,000 334 381 0
2019-03-22 02:45:35 GMT 37.963444 -85.356064 36,000 334 382 0
2019-03-22 02:45:32 GMT 37.958359 -85.352844 36,000 334 382 0
2019-03-22 02:45:28 GMT 37.953461 -85.349686 36,000 334 383 0
2019-03-22 02:45:23 GMT 37.943985 -85.343666 36,000 334 383 0
2019-03-22 02:45:13 GMT 37.926270 -85.332390 36,000 334 383 0
2019-03-22 02:45:05 GMT 37.914185 -85.324730 36,000 334 384 0
2019-03-22 02:45:02 GMT 37.910374 -85.322334 36,000 334 385 0
2019-03-22 02:44:58 GMT 37.905113 -85.319046 36,000 334 385 0
2019-03-22 02:44:53 GMT 37.895847 -85.313316 36,000 334 384 0
2019-03-22 02:44:50 GMT 37.891846 -85.310822 36,000 334 385 0
2019-03-22 02:44:44 GMT 37.883194 -85.305450 36,000 334 385 0
2019-03-22 02:44:41 GMT 37.876160 -85.301079 36,000 334 385 0
2019-03-22 02:44:34 GMT 37.865753 -85.294640 36,000 334 386 0
2019-03-22 02:44:31 GMT 37.855022 -85.287941 36,000 334 386 0
2019-03-22 02:44:28 GMT 37.855022 -85.287941 36,000 334 386 0
2019-03-22 02:44:22 GMT 37.845932 -85.282188 36,000 334 386 0
2019-03-22 02:44:18 GMT 37.839054 -85.277847 36,000 334 386 -64
2019-03-22 02:44:13 GMT 37.832657 -85.273834 36,000 334 386 -64
2019-03-22 02:44:09 GMT 37.824783 -85.268867 36,000 334 386 0
2019-03-22 02:44:02 GMT 37.813568 -85.261795 36,000 334 387 0
2019-03-22 02:43:58 GMT 37.807617 -85.258057 36,000 334 387 0
2019-03-22 02:43:50 GMT 37.795761 -85.250626 36,000 334 387 0
2019-03-22 02:43:45 GMT 37.786266 -85.244652 36,000 334 388 0
2019-03-22 02:43:40 GMT 37.779694 -85.240463 36,000 334 388 0
2019-03-22 02:43:36 GMT 37.771973 -85.235634 36,000 334 389 0
2019-03-22 02:43:29 GMT 37.761967 -85.229362 36,000 334 390 0
2019-03-22 02:43:25 GMT 37.754105 -85.224335 36,000 334 389 64
2019-03-22 02:43:19 GMT 37.744263 -85.218140 36,000 334 390 0
2019-03-22 02:43:14 GMT 37.736362 -85.213188 36,000 334 390 0
2019-03-22 02:43:09 GMT 37.728310 -85.208054 36,000 334 390 -64
2019-03-22 02:43:06 GMT 37.725220 -85.206161 36,000 334 390 -64
2019-03-22 02:43:02 GMT 37.717300 -85.201134 36,000 334 390 -64
2019-03-22 02:42:58 GMT 37.711315 -85.197418 36,000 334 390 0
2019-03-22 02:42:55 GMT 37.707642 -85.195061 36,000 334 390 0
2019-03-22 02:42:48 GMT 37.694550 -85.186821 36,000 334 390 0
2019-03-22 02:42:42 GMT 37.686459 -85.181717 36,000 334 390 64
2019-03-22 02:42:38 GMT 37.680313 -85.177879 36,000 334 390 0
2019-03-22 02:42:35 GMT 37.674168 -85.174019 36,000 334 390 0
2019-03-22 02:42:31 GMT 37.669006 -85.170746 36,000 334 390 0
2019-03-22 02:42:28 GMT 37.664486 -85.167923 36,000 334 391 0
2019-03-22 02:42:24 GMT 37.656059 -85.162613 36,000 334 390 0
2019-03-22 02:42:17 GMT 37.646530 -85.156670 36,000 334 390 0
2019-03-22 02:42:14 GMT 37.641674 -85.153595 36,000 334 389 0
2019-03-22 02:42:06 GMT 37.629383 -85.145897 36,000 334 389 0
2019-03-22 02:42:03 GMT 37.616955 -85.138069 36,000 334 389 0
2019-03-22 02:41:57 GMT 37.613556 -85.135979 36,000 334 389 0
2019-03-22 02:41:54 GMT 37.607437 -85.132118 36,000 334 389 0
2019-03-22 02:41:49 GMT 37.599358 -85.127029 36,000 334 389 0
2019-03-22 02:41:46 GMT 37.594658 -85.124100 36,000 334 390 0
2019-03-22 02:41:42 GMT 37.589676 -85.120934 36,000 334 390 0
2019-03-22 02:41:37 GMT 37.580750 -85.115410 36,000 334 390 0
2019-03-22 02:41:32 GMT 37.571365 -85.109566 36,000 334 390 0
2019-03-22 02:41:27 GMT 37.565235 -85.105713 36,000 334 390 0
2019-03-22 02:41:21 GMT 37.556488 -85.100273 36,000 334 389 -64
2019-03-22 02:41:17 GMT 37.547791 -85.094841 36,000 334 389 0
2019-03-22 02:41:11 GMT 37.539211 -85.089470 36,000 334 389 0
2019-03-22 02:41:04 GMT 37.528427 -85.082680 36,000 334 389 0
2019-03-22 02:40:59 GMT 37.519043 -85.076782 36,000 334 389 0
2019-03-22 02:40:54 GMT 37.511608 -85.072151 36,000 334 389 0
2019-03-22 02:40:51 GMT 37.506775 -85.069122 36,000 334 389 0
2019-03-22 02:40:45 GMT 37.496246 -85.062538 36,000 334 390 0
2019-03-22 02:40:40 GMT 37.481049 -85.053116 36,000 334 390 0
2019-03-22 02:40:36 GMT 37.481049 -85.053116 36,000 334 390 0
2019-03-22 02:40:29 GMT 37.469894 -85.046120 36,000 334 390 0
2019-03-22 02:40:22 GMT 37.461143 -85.040688 36,000 334 389 0
2019-03-22 02:40:17 GMT 37.452759 -85.035461 36,000 334 390 0
2019-03-22 02:40:12 GMT 37.443375 -85.029625 36,000 334 390 0
2019-03-22 02:40:07 GMT 37.435448 -85.024689 36,000 334 390 0
2019-03-22 02:40:01 GMT 37.426712 -85.019218 36,000 334 390 0
2019-03-22 02:39:57 GMT 37.418781 -85.014297 36,000 334 390 0
2019-03-22 02:39:52 GMT 37.410496 -85.009224 36,000 334 390 0
2019-03-22 02:39:46 GMT 37.402222 -85.004082 36,000 334 390 0
2019-03-22 02:39:43 GMT 37.395264 -84.999763 36,000 334 390 0
2019-03-22 02:39:38 GMT 37.389267 -84.996078 36,000 334 390 64
2019-03-22 02:39:34 GMT 37.382950 -84.992165 36,000 334 390 64
2019-03-22 02:39:25 GMT 37.366608 -84.981995 36,000 334 390 0
2019-03-22 02:39:21 GMT 37.358356 -84.976921 36,000 334 390 0
2019-03-22 02:39:14 GMT 37.348766 -84.971008 36,000 334 390 0
2019-03-22 02:39:07 GMT 37.336166 -84.963120 36,000 334 390 0
2019-03-22 02:39:02 GMT 37.331635 -84.960320 36,000 334 390 0
2019-03-22 02:38:51 GMT 37.313507 -84.949097 36,000 334 389 0
2019-03-22 02:38:42 GMT 37.289154 -84.933846 36,000 334 390 0
2019-03-22 02:38:32 GMT 37.280777 -84.928581 36,000 334 390 0
2019-03-22 02:38:25 GMT 37.271713 -84.922913 36,000 334 389 0
2019-03-22 02:38:20 GMT 37.263016 -84.917419 36,000 334 389 0
2019-03-22 02:38:10 GMT 37.246586 -84.907059 36,000 334 386 0
2019-03-22 02:38:00 GMT 37.228867 -84.895973 36,000 334 388 0
2019-03-22 02:37:49 GMT 37.211765 -84.885384 36,000 334 388 0
2019-03-22 02:37:42 GMT 37.196495 -84.875954 36,000 334 386 0
2019-03-22 02:37:38 GMT 37.194912 -84.874939 36,000 334 386 0
2019-03-22 02:37:27 GMT 37.176617 -84.863655 36,000 334 386 0
2019-03-22 02:37:16 GMT 37.160881 -84.853981 36,000 334 386 0
2019-03-22 02:37:06 GMT 37.143402 -84.843208 36,000 334 385 0
2019-03-22 02:36:57 GMT 37.128204 -84.833794 36,000 334 386 0
2019-03-22 02:36:54 GMT 37.125504 -84.832100 36,000 334 386 0
2019-03-22 02:36:45 GMT 37.109161 -84.822037 36,000 334 385 0
2019-03-22 02:36:35 GMT 37.092682 -84.811829 36,000 334 385 0
2019-03-22 02:36:31 GMT 37.087234 -84.808495 36,000 334 385 0
2019-03-22 02:36:21 GMT 37.069153 -84.797333 36,000 334 385 0
2019-03-22 02:36:10 GMT 37.051067 -84.786209 36,000 334 385 0
2019-03-22 02:35:59 GMT 37.034538 -84.776062 36,000 334 385 0
2019-03-22 02:35:55 GMT 37.031342 -84.774132 36,000 334 385 0
2019-03-22 02:35:52 GMT 37.026398 -84.771034 36,000 334 385 0
2019-03-22 02:35:45 GMT 37.014381 -84.763641 36,000 334 385 0
2019-03-22 02:35:41 GMT 37.006374 -84.758743 36,000 334 385 0
2019-03-22 02:35:35 GMT 36.997421 -84.753212 36,000 334 386 0
2019-03-22 02:35:32 GMT 36.991653 -84.749641 36,000 334 386 0
2019-03-22 02:35:21 GMT 36.975952 -84.739944 36,000 334 386 0
2019-03-22 02:35:18 GMT 36.970825 -84.736732 36,000 334 386 0
2019-03-22 02:35:10 GMT 36.957687 -84.728607 36,000 334 386 64
2019-03-22 02:35:06 GMT 36.951599 -84.724808 36,000 334 387 64
2019-03-22 02:34:58 GMT 36.937664 -84.716232 36,000 334 387 0
2019-03-22 02:34:50 GMT 36.923977 -84.707870 36,000 334 387 64
2019-03-22 02:34:47 GMT 36.920929 -84.706055 36,000 334 388 -448
2019-03-22 02:34:37 GMT 36.903820 -84.695633 36,025 334 388 -448
2019-03-22 02:34:28 GMT 36.890900 -84.687759 36,100 334 389 -448
2019-03-22 02:34:25 GMT 36.886040 -84.684830 36,350 334 390 -448
2019-03-22 02:34:17 GMT 36.864166 -84.671394 36,225 334 390 -448
2019-03-22 02:34:07 GMT 36.855286 -84.665848 36,275 334 390 -448
2019-03-22 02:34:04 GMT 36.834457 -84.652817 36,350 334 390 -448
2019-03-22 02:33:54 GMT 36.834457 -84.652817 36,375 334 390 -512
2019-03-22 02:33:46 GMT 36.821331 -84.644630 36,425 334 391 -512
2019-03-22 02:33:43 GMT 36.816628 -84.641655 36,450 334 392 -512
2019-03-22 02:33:35 GMT 36.804943 -84.634407 36,525 334 393 -512
2019-03-22 02:33:32 GMT 36.799713 -84.631180 36,550 334 393 -448
2019-03-22 02:33:26 GMT 36.788910 -84.624535 36,600 334 394 -448
2019-03-22 02:33:21 GMT 36.781403 -84.619904 36,625 334 395 -448
2019-03-22 02:33:13 GMT 36.768265 -84.611893 36,700 334 395 -512
2019-03-22 02:33:09 GMT 36.763138 -84.608749 36,725 334 395 -512
2019-03-22 02:33:03 GMT 36.750641 -84.601189 36,775 335 395 -448
2019-03-22 02:32:59 GMT 36.745358 -84.598000 36,800 335 395 -512
2019-03-22 02:32:55 GMT 36.737953 -84.593498 36,850 335 396 -512
2019-03-22 02:32:49 GMT 36.728039 -84.587540 36,900 335 398 -512
2019-03-22 02:32:40 GMT 36.714432 -84.579330 36,950 335 399 -512
2019-03-22 02:32:37 GMT 36.710312 -84.576820 36,975 335 400 -512
2019-03-22 02:32:31 GMT 36.697781 -84.569244 37,050 335 402 -512
2019-03-22 02:32:26 GMT 36.691914 -84.565742 37,075 335 403 -512
2019-03-22 02:32:22 GMT 36.683163 -84.560478 37,100 335 405 -448
2019-03-22 02:32:17 GMT 36.662155 -84.547859 37,350 335 408 -384
2019-03-22 02:32:10 GMT 36.662155 -84.547859 37,200 335 408 -384
2019-03-22 02:32:06 GMT 36.656525 -84.544487 37,225 335 409 -448
2019-03-22 02:31:59 GMT 36.644577 -84.537331 37,275 335 410 -576
2019-03-22 02:31:55 GMT 36.638428 -84.533661 37,350 334 415 -512
2019-03-22 02:31:45 GMT 36.619354 -84.522285 37,400 335 414 -448
2019-03-22 02:31:38 GMT 36.607098 -84.514839 37,450 334 416 -448
2019-03-22 02:31:34 GMT 36.601547 -84.511475 37,525 334 415 -512
2019-03-22 02:31:26 GMT 36.588730 -84.503632 37,525 334 417 -448
2019-03-22 02:31:23 GMT 36.583168 -84.500175 37,750 334 415 -512
2019-03-22 02:31:16 GMT 36.570183 -84.492226 37,625 334 418 -448
2019-03-22 02:31:13 GMT 36.564270 -84.488602 37,650 334 418 -448
2019-03-22 02:31:06 GMT 36.551468 -84.480682 37,700 334 418 -448
2019-03-22 02:31:01 GMT 36.545746 -84.477196 37,725 334 417 -384
2019-03-22 02:30:55 GMT 36.533730 -84.469902 37,775 334 416 -448
2019-03-22 02:30:51 GMT 36.509216 -84.454941 37,800 334 416 -448
2019-03-22 02:30:41 GMT 36.509216 -84.454941 37,900 334 414 -512
2019-03-22 02:30:32 GMT 36.496304 -84.447113 37,950 334 413 -448
2019-03-22 02:30:29 GMT 36.490623 -84.443665 38,000 334 411 -128
2019-03-22 02:30:22 GMT 36.478333 -84.436188 38,000 334 411 -64
2019-03-22 02:30:19 GMT 36.472321 -84.432564 38,000 334 411 0
2019-03-22 02:30:09 GMT 36.454266 -84.421577 38,000 334 409 0
2019-03-22 02:30:01 GMT 36.441326 -84.413742 38,000 334 410 0
2019-03-22 02:29:57 GMT 36.433502 -84.408951 38,000 334 410 64
2019-03-22 02:29:50 GMT 36.422745 -84.402466 38,000 334 409 0
2019-03-22 02:29:46 GMT 36.416977 -84.398956 38,000 334 409 0
2019-03-22 02:29:40 GMT 36.404572 -84.391418 38,000 334 409 -64
2019-03-22 02:29:36 GMT 36.398777 -84.387917 38,000 334 409 0
2019-03-22 02:29:26 GMT 36.371887 -84.371681 38,000 334 408 0
2019-03-22 02:29:17 GMT 36.365936 -84.368073 38,000 334 408 0
2019-03-22 02:29:07 GMT 36.349136 -84.357887 38,000 334 408 0
2019-03-22 02:29:04 GMT 36.342682 -84.353966 38,000 334 408 0
2019-03-22 02:28:58 GMT 36.334351 -84.348969 38,000 334 408 0
2019-03-22 02:28:55 GMT 36.329273 -84.345840 38,000 334 408 0
2019-03-22 02:28:48 GMT 36.316544 -84.338150 38,000 334 408 0
2019-03-22 02:28:45 GMT 36.311600 -84.335175 38,000 334 408 64
2019-03-22 02:28:40 GMT 36.305008 -84.331169 38,000 334 408 64
2019-03-22 02:28:36 GMT 36.296677 -84.326195 38,000 334 408 0
2019-03-22 02:28:30 GMT 36.288029 -84.321007 38,000 334 408 0
2019-03-22 02:28:27 GMT 36.280563 -84.316460 38,000 334 408 0
2019-03-22 02:28:24 GMT 36.278484 -84.315277 38,000 334 408 0
2019-03-22 02:28:20 GMT 36.269348 -84.309708 38,000 334 408 0
2019-03-22 02:28:15 GMT 36.260513 -84.304390 38,000 334 408 0
2019-03-22 02:28:08 GMT 36.250832 -84.298561 38,000 334 408 0
2019-03-22 02:28:03 GMT 36.239456 -84.291740 38,000 334 408 0
2019-03-22 02:27:59 GMT 36.234192 -84.288544 38,000 334 408 -64
2019-03-22 02:27:55 GMT 36.225540 -84.283333 38,000 335 407 -64
2019-03-22 02:27:51 GMT 36.221329 -84.280815 38,000 335 407 -64
2019-03-22 02:27:48 GMT 36.214523 -84.276711 38,000 335 407 0
2019-03-22 02:27:42 GMT 36.205025 -84.271042 38,000 335 407 0
2019-03-22 02:27:38 GMT 36.197392 -84.266479 38,000 335 407 0
2019-03-22 02:27:33 GMT 36.190781 -84.262505 38,000 335 407 0
2019-03-22 02:27:30 GMT 36.185520 -84.259354 38,000 335 407 0
2019-03-22 02:27:26 GMT 36.179562 -84.255791 38,000 335 407 0
2019-03-22 02:27:21 GMT 36.170437 -84.250290 38,000 335 406 0
2019-03-22 02:27:18 GMT 36.164658 -84.246826 38,000 335 406 0
2019-03-22 02:27:15 GMT 36.158894 -84.243401 38,000 335 406 64
2019-03-22 02:27:12 GMT 36.154495 -84.240761 38,000 335 406 0
2019-03-22 02:27:09 GMT 36.150421 -84.238312 38,000 335 406 0
2019-03-22 02:27:05 GMT 36.142273 -84.233437 38,000 335 406 -64
2019-03-22 02:27:02 GMT 36.131939 -84.227211 38,000 335 406 0
2019-03-22 02:26:55 GMT 36.127190 -84.224403 38,000 335 406 0
2019-03-22 02:26:49 GMT 36.114529 -84.216812 38,000 335 405 0
2019-03-22 02:26:44 GMT 36.105423 -84.211349 38,000 335 405 64
2019-03-22 02:26:38 GMT 36.097118 -84.206345 38,000 335 404 0
2019-03-22 02:26:32 GMT 36.087387 -84.200500 38,000 335 404 0
2019-03-22 02:26:28 GMT 36.078636 -84.195244 38,000 335 403 64
2019-03-22 02:26:25 GMT 36.075439 -84.193321 38,000 335 403 0
2019-03-22 02:26:21 GMT 36.068207 -84.189034 38,000 335 403 -64
2019-03-22 02:26:17 GMT 36.061504 -84.185020 38,000 335 402 0
2019-03-22 02:26:12 GMT 36.052101 -84.179352 38,000 335 401 0
2019-03-22 02:26:07 GMT 36.043945 -84.174438 38,000 335 401 0
2019-03-22 02:26:04 GMT 36.038773 -84.171349 38,000 335 401 0
2019-03-22 02:25:58 GMT 36.029896 -84.166023 38,000 334 400 64
2019-03-22 02:25:55 GMT 36.025406 -84.163345 38,000 334 400 0
2019-03-22 02:25:52 GMT 36.021049 -84.160706 38,000 335 400 0
2019-03-22 02:25:48 GMT 36.006901 -84.152237 38,000 335 400 0
2019-03-22 02:25:42 GMT 36.003593 -84.150246 38,000 335 400 -64
2019-03-22 02:25:39 GMT 35.997776 -84.146744 38,000 335 400 -64
2019-03-22 02:25:35 GMT 35.991119 -84.142738 38,000 334 399 0
2019-03-22 02:25:32 GMT 35.985947 -84.139648 38,000 335 399 0
2019-03-22 02:25:27 GMT 35.976501 -84.134003 38,000 334 398 0
2019-03-22 02:25:24 GMT 35.972359 -84.131493 38,000 334 398 0
2019-03-22 02:25:20 GMT 35.967361 -84.128494 38,000 334 398 0
2019-03-22 02:25:16 GMT 35.959900 -84.123978 38,000 334 398 0
2019-03-22 02:25:13 GMT 35.955273 -84.121201 38,000 334 398 0
2019-03-22 02:25:10 GMT 35.949966 -84.118027 38,000 334 397 0
2019-03-22 02:25:06 GMT 35.941727 -84.113022 38,000 334 397 -64
2019-03-22 02:25:03 GMT 35.938232 -84.110916 38,000 334 397 -64
2019-03-22 02:25:00 GMT 35.931808 -84.107063 38,000 334 397 0
2019-03-22 02:24:55 GMT 35.925014 -84.102974 38,000 334 397 0
2019-03-22 02:24:52 GMT 35.920219 -84.100105 38,000 335 397 0
2019-03-22 02:24:47 GMT 35.909180 -84.093414 38,000 334 397 -64
2019-03-22 02:24:43 GMT 35.904903 -84.090874 38,000 334 397 0
2019-03-22 02:24:40 GMT 35.900761 -84.088364 38,000 334 397 0
2019-03-22 02:24:36 GMT 35.894337 -84.084503 38,000 335 397 0
2019-03-22 02:24:33 GMT 35.887398 -84.080353 38,000 335 397 0
2019-03-22 02:24:30 GMT 35.884094 -84.078369 38,000 335 397 0
2019-03-22 02:24:26 GMT 35.877777 -84.074654 38,000 335 397 0
2019-03-22 02:24:22 GMT 35.866516 -84.067955 38,000 335 398 0
2019-03-22 02:24:16 GMT 35.858070 -84.062943 38,000 335 398 -64
2019-03-22 02:24:11 GMT 35.852253 -84.059494 38,000 335 398 0
2019-03-22 02:24:08 GMT 35.848763 -84.057449 38,000 335 398 0
2019-03-22 02:24:04 GMT 35.840939 -84.052834 38,000 335 398 0
2019-03-22 02:24:01 GMT 35.833958 -84.048744 38,000 335 398 0
2019-03-22 02:23:58 GMT 35.831631 -84.047340 38,000 335 398 0
2019-03-22 02:23:52 GMT 35.819668 -84.040268 38,000 335 399 0
2019-03-22 02:23:48 GMT 35.814285 -84.037170 38,000 335 400 0
2019-03-22 02:23:40 GMT 35.798950 -84.028114 38,000 335 400 0
2019-03-22 02:23:37 GMT 35.796623 -84.026772 38,000 335 400 0
2019-03-22 02:23:31 GMT 35.785263 -84.019989 38,000 334 400 0
2019-03-22 02:23:27 GMT 35.779083 -84.016289 38,000 334 400 0
2019-03-22 02:23:24 GMT 35.771111 -84.011459 38,000 334 401 0
2019-03-22 02:23:20 GMT 35.767620 -84.009293 38,000 334 402 64
2019-03-22 02:23:16 GMT 35.759949 -84.004723 38,000 335 401 64
2019-03-22 02:23:13 GMT 35.755417 -84.001984 38,000 335 402 64
2019-03-22 02:23:10 GMT 35.750198 -83.998894 38,000 335 403 64
2019-03-22 02:23:07 GMT 35.746033 -83.996429 38,000 335 403 0
2019-03-22 02:23:03 GMT 35.734909 -83.989845 38,000 335 403 0
2019-03-22 02:22:58 GMT 35.730057 -83.986984 38,000 335 403 0
2019-03-22 02:22:55 GMT 35.725159 -83.984070 38,000 335 403 0
2019-03-22 02:22:50 GMT 35.719067 -83.980484 38,000 335 403 -64
2019-03-22 02:22:47 GMT 35.711525 -83.976044 38,000 335 403 -64
2019-03-22 02:22:44 GMT 35.705288 -83.972366 38,000 335 403 0
2019-03-22 02:22:38 GMT 35.697186 -83.967567 38,000 335 403 0
2019-03-22 02:22:35 GMT 35.691975 -83.964478 38,000 335 403 0
2019-03-22 02:22:32 GMT 35.685196 -83.960548 38,000 335 403 -64
2019-03-22 02:22:27 GMT 35.677448 -83.956001 38,000 335 403 0
2019-03-22 02:22:24 GMT 35.673912 -83.953896 38,000 335 403 0
2019-03-22 02:22:20 GMT 35.666336 -83.949448 38,000 335 403 0
2019-03-22 02:22:15 GMT 35.658417 -83.944817 38,000 335 403 0
2019-03-22 02:22:12 GMT 35.652355 -83.941277 38,000 335 403 0
2019-03-22 02:22:06 GMT 35.644089 -83.936401 38,000 335 403 0
2019-03-22 02:22:03 GMT 35.633129 -83.929993 38,000 335 403 0
2019-03-22 02:22:00 GMT 35.626240 -83.925903 38,000 335 403 0
2019-03-22 02:21:56 GMT 35.626240 -83.925903 38,000 335 404 0
2019-03-22 02:21:52 GMT 35.620701 -83.922630 38,000 335 404 0
2019-03-22 02:21:49 GMT 35.612274 -83.917664 38,000 335 404 0
2019-03-22 02:21:45 GMT 35.608227 -83.915268 38,000 335 404 0
2019-03-22 02:21:42 GMT 35.603851 -83.912659 38,000 335 404 0
2019-03-22 02:21:39 GMT 35.597763 -83.909111 38,000 335 404 0
2019-03-22 02:21:35 GMT 35.590897 -83.904991 38,000 335 404 0
2019-03-22 02:21:32 GMT 35.585835 -83.902000 38,000 335 404 -64
2019-03-22 02:21:29 GMT 35.573547 -83.894753 38,000 335 402 -64
2019-03-22 02:21:24 GMT 35.573547 -83.894753 38,000 335 403 -64
2019-03-22 02:21:21 GMT 35.568192 -83.891602 38,025 335 402 0
2019-03-22 02:21:18 GMT 35.560139 -83.886810 38,025 335 402 -64
2019-03-22 02:21:15 GMT 35.555786 -83.884216 38,025 335 402 0
2019-03-22 02:21:10 GMT 35.548553 -83.879929 38,025 335 402 -128
2019-03-22 02:21:07 GMT 35.543892 -83.877167 38,025 335 401 -64
2019-03-22 02:21:04 GMT 35.537003 -83.873138 38,025 335 401 -64
2019-03-22 02:20:59 GMT 35.530975 -83.869576 38,000 335 402 0
2019-03-22 02:20:53 GMT 35.520428 -83.863319 38,000 335 402 64
2019-03-22 02:20:49 GMT 35.512711 -83.858757 38,000 335 401 0
2019-03-22 02:20:46 GMT 35.507538 -83.855667 38,000 334 402 64
2019-03-22 02:20:42 GMT 35.501358 -83.851952 37,975 334 402 128
2019-03-22 02:20:38 GMT 35.496506 -83.849030 37,975 334 402 64
2019-03-22 02:20:35 GMT 35.489822 -83.844971 37,975 334 403 128
2019-03-22 02:20:31 GMT 35.484604 -83.841820 37,975 334 404 64
2019-03-22 02:20:27 GMT 35.477554 -83.837608 37,975 335 405 64
2019-03-22 02:20:22 GMT 35.467453 -83.831642 37,975 335 405 0
2019-03-22 02:20:19 GMT 35.463364 -83.829231 37,975 335 405 0
2019-03-22 02:20:16 GMT 35.458981 -83.826622 37,975 335 405 0
2019-03-22 02:20:11 GMT 35.449669 -83.821182 38,000 335 405 -64
2019-03-22 02:20:08 GMT 35.445969 -83.818993 38,000 335 405 -64
2019-03-22 02:20:05 GMT 35.440220 -83.815636 38,000 335 405 -64
2019-03-22 02:20:00 GMT 35.431419 -83.810493 38,000 335 405 -64
2019-03-22 02:19:56 GMT 35.422764 -83.805466 38,000 335 405 -64
2019-03-22 02:19:49 GMT 35.413265 -83.799973 38,025 335 406 0
2019-03-22 02:19:45 GMT 35.405640 -83.795525 38,000 335 406 64
2019-03-22 02:19:40 GMT 35.392876 -83.788162 38,000 335 407 64
2019-03-22 02:19:34 GMT 35.386589 -83.784546 38,000 335 407 64
2019-03-22 02:19:27 GMT 35.375698 -83.778175 38,000 335 408 0
2019-03-22 02:19:23 GMT 35.368378 -83.773895 38,000 335 408 64
2019-03-22 02:19:19 GMT 35.360195 -83.769058 38,000 335 409 0
2019-03-22 02:19:16 GMT 35.357822 -83.767654 38,000 335 409 -64
2019-03-22 02:19:12 GMT 35.351120 -83.763718 38,000 335 410 0
2019-03-22 02:19:09 GMT 35.344116 -83.759598 38,000 335 410 0
2019-03-22 02:19:06 GMT 35.340038 -83.757133 38,000 335 410 0
2019-03-22 02:19:03 GMT 35.333008 -83.753044 38,000 335 411 -64
2019-03-22 02:18:58 GMT 35.324070 -83.747841 38,000 335 411 -64
2019-03-22 02:18:55 GMT 35.321651 -83.746445 38,000 335 411 -64
2019-03-22 02:18:51 GMT 35.314133 -83.742027 38,000 335 411 -64
2019-03-22 02:18:47 GMT 35.308090 -83.738541 38,000 335 411 0
2019-03-22 02:18:44 GMT 35.302094 -83.734985 38,000 335 411 0
2019-03-22 02:18:40 GMT 35.295769 -83.731308 38,000 335 411 0
2019-03-22 02:18:37 GMT 35.288364 -83.726982 38,000 335 411 0
2019-03-22 02:18:34 GMT 35.284782 -83.724876 38,000 335 410 0
2019-03-22 02:18:30 GMT 35.277237 -83.720451 38,000 335 411 0
2019-03-22 02:18:26 GMT 35.271049 -83.716812 38,000 335 411 0
2019-03-22 02:18:23 GMT 35.266113 -83.713890 38,000 335 411 0
2019-03-22 02:18:19 GMT 35.258377 -83.709351 38,000 335 411 0
2019-03-22 02:18:16 GMT 35.252060 -83.705635 38,000 335 411 0
2019-03-22 02:18:13 GMT 35.246750 -83.702492 38,000 335 411 0
2019-03-22 02:18:09 GMT 35.240555 -83.698875 38,000 335 411 -64
2019-03-22 02:18:06 GMT 35.236954 -83.696709 38,000 335 411 0
2019-03-22 02:18:03 GMT 35.231506 -83.693504 38,000 335 411 0
2019-03-22 02:18:00 GMT 35.226700 -83.690651 38,000 335 411 0
2019-03-22 02:17:56 GMT 35.218304 -83.685722 38,000 335 411 0
2019-03-22 02:17:53 GMT 35.214706 -83.683594 38,000 335 411 0
2019-03-22 02:17:48 GMT 35.198181 -83.674004 38,000 335 411 0
2019-03-22 02:17:44 GMT 35.198181 -83.674004 38,000 335 411 0
2019-03-22 02:17:40 GMT 35.191631 -83.670219 38,000 335 411 64
2019-03-22 02:17:37 GMT 35.186321 -83.667130 38,000 335 411 64
2019-03-22 02:17:34 GMT 35.180466 -83.663750 38,000 335 411 0
2019-03-22 02:17:29 GMT 35.172218 -83.658943 38,000 335 411 0
2019-03-22 02:17:25 GMT 35.166164 -83.655510 38,000 335 411 0
2019-03-22 02:17:22 GMT 35.161232 -83.652596 38,000 335 410 0
2019-03-22 02:17:17 GMT 35.153000 -83.647774 38,000 335 410 0
2019-03-22 02:17:14 GMT 35.143433 -83.642113 38,000 334 410 64
2019-03-22 02:17:11 GMT 35.143433 -83.642113 38,000 334 410 64
2019-03-22 02:17:08 GMT 35.136093 -83.637772 38,000 334 410 128
2019-03-22 02:17:03 GMT 35.128601 -83.633308 38,000 335 411 64
2019-03-22 02:17:00 GMT 35.124298 -83.630791 38,000 335 411 64
2019-03-22 02:16:57 GMT 35.118622 -83.627480 38,000 335 411 0
2019-03-22 02:16:54 GMT 35.112946 -83.624176 38,000 335 411 0
2019-03-22 02:16:50 GMT 35.107590 -83.621094 38,000 335 412 0
2019-03-22 02:16:47 GMT 35.098938 -83.616104 38,000 335 413 0
2019-03-22 02:16:40 GMT 35.088936 -83.610306 38,000 335 414 -64
2019-03-22 02:16:35 GMT 35.076275 -83.602982 38,000 335 414 -128
2019-03-22 02:16:29 GMT 35.070602 -83.599678 38,000 335 414 -128
2019-03-22 02:16:26 GMT 35.063843 -83.595772 38,000 335 413 0
2019-03-22 02:16:22 GMT 35.057602 -83.592224 38,000 335 413 -64
2019-03-22 02:16:19 GMT 35.052391 -83.589188 38,000 335 412 -64
2019-03-22 02:16:14 GMT 35.043453 -83.584045 38,000 335 412 0
2019-03-22 02:16:09 GMT 35.035172 -83.579277 38,000 335 410 64
2019-03-22 02:16:04 GMT 35.026566 -83.574341 38,000 335 410 64
2019-03-22 02:16:00 GMT 35.019836 -83.570473 38,000 335 410 128
2019-03-22 02:15:57 GMT 35.015755 -83.568077 38,000 335 410 64
2019-03-22 02:15:51 GMT 35.004444 -83.561501 38,000 335 409 0
2019-03-22 02:15:48 GMT 34.998962 -83.558311 38,000 335 409 0
2019-03-22 02:15:43 GMT 34.988754 -83.552315 38,000 335 407 0
2019-03-22 02:15:40 GMT 34.984177 -83.549622 38,025 335 406 0
2019-03-22 02:15:36 GMT 34.979782 -83.547043 38,000 335 406 64
2019-03-22 02:15:29 GMT 34.966370 -83.539253 38,000 335 404 64
2019-03-22 02:15:26 GMT 34.963013 -83.537292 38,000 335 403 64
2019-03-22 02:15:22 GMT 34.954399 -83.532257 38,000 335 403 0
2019-03-22 02:15:19 GMT 34.948532 -83.528824 38,000 335 403 -64
2019-03-22 02:15:16 GMT 34.944996 -83.526764 38,000 335 403 -64
2019-03-22 02:15:11 GMT 34.936382 -83.521729 38,000 335 402 -64
2019-03-22 02:15:06 GMT 34.928005 -83.516808 38,000 335 402 0
2019-03-22 02:15:01 GMT 34.918076 -83.511002 38,000 335 402 0
2019-03-22 02:14:58 GMT 34.914047 -83.508652 38,000 335 402 64
2019-03-22 02:14:55 GMT 34.909710 -83.506104 38,000 335 402 64
2019-03-22 02:14:50 GMT 34.901962 -83.501587 38,000 335 402 0
2019-03-22 02:14:45 GMT 34.893089 -83.496384 38,000 335 402 0
2019-03-22 02:14:37 GMT 34.878342 -83.487801 38,000 335 402 0
2019-03-22 02:14:34 GMT 34.875122 -83.485909 38,000 335 402 0
2019-03-22 02:14:29 GMT 34.865719 -83.480476 38,000 335 402 0
2019-03-22 02:14:24 GMT 34.857651 -83.475800 38,000 335 402 0
2019-03-22 02:14:21 GMT 34.853615 -83.473434 38,000 335 402 0
2019-03-22 02:14:16 GMT 34.843559 -83.467598 38,000 335 402 0
2019-03-22 02:14:11 GMT 34.835785 -83.463135 38,000 335 402 0
2019-03-22 02:14:08 GMT 34.829407 -83.459381 38,000 335 402 0
2019-03-22 02:14:05 GMT 34.825241 -83.456970 38,000 335 402 0
2019-03-22 02:13:59 GMT 34.816681 -83.451981 38,000 335 401 0
2019-03-22 02:13:55 GMT 34.807804 -83.446831 38,000 335 401 0
2019-03-22 02:13:51 GMT 34.802444 -83.443741 38,000 335 401 -64
2019-03-22 02:13:46 GMT 34.792374 -83.437912 38,000 335 400 0
2019-03-22 02:13:41 GMT 34.784344 -83.433266 38,000 335 400 64
2019-03-22 02:13:34 GMT 34.772324 -83.426308 38,000 335 399 0
2019-03-22 02:13:30 GMT 34.766655 -83.423019 38,000 335 399 0
2019-03-22 02:13:26 GMT 34.759483 -83.418900 38,000 335 399 64
2019-03-22 02:13:23 GMT 34.755478 -83.416557 38,000 335 399 64
2019-03-22 02:13:18 GMT 34.747753 -83.412148 38,000 335 399 0
2019-03-22 02:13:13 GMT 34.737900 -83.406464 38,000 335 399 0
2019-03-22 02:13:08 GMT 34.730530 -83.402252 38,000 335 400 0
2019-03-22 02:13:05 GMT 34.723663 -83.398285 38,000 335 400 0
2019-03-22 02:13:02 GMT 34.712791 -83.392014 38,000 335 400 0
2019-03-22 02:12:58 GMT 34.712791 -83.392014 38,000 335 400 0
2019-03-22 02:12:52 GMT 34.702553 -83.386169 38,000 335 403 0
2019-03-22 02:12:49 GMT 34.696499 -83.382683 38,000 335 403 0
2019-03-22 02:12:46 GMT 34.692776 -83.380508 38,000 335 403 0
2019-03-22 02:12:41 GMT 34.685001 -83.376045 38,000 335 404 0
2019-03-22 02:12:37 GMT 34.678894 -83.372551 38,000 335 404 0
2019-03-22 02:12:34 GMT 34.673309 -83.369362 38,000 335 405 0
2019-03-22 02:12:31 GMT 34.666519 -83.365456 38,000 335 406 -64
2019-03-22 02:12:27 GMT 34.660606 -83.362083 38,000 335 406 -128
2019-03-22 02:12:22 GMT 34.651390 -83.356819 38,000 335 406 -64
2019-03-22 02:12:18 GMT 34.645107 -83.353157 38,000 335 406 -64
2019-03-22 02:12:15 GMT 34.639847 -83.350182 38,000 335 406 0
2019-03-22 02:12:10 GMT 34.631378 -83.345253 38,000 335 405 0
2019-03-22 02:12:05 GMT 34.624763 -83.341484 38,000 335 404 0
2019-03-22 02:12:02 GMT 34.617500 -83.337311 38,000 335 404 0
2019-03-22 02:11:56 GMT 34.609913 -83.332901 38,000 335 403 0
2019-03-22 02:11:53 GMT 34.603317 -83.329056 38,000 335 403 0
2019-03-22 02:11:49 GMT 34.595901 -83.324776 38,000 335 403 0
2019-03-22 02:11:44 GMT 34.589539 -83.321098 38,000 335 403 0
2019-03-22 02:11:41 GMT 34.584450 -83.318192 38,000 335 403 0
2019-03-22 02:11:38 GMT 34.578232 -83.314598 38,000 335 402 0
2019-03-22 02:11:34 GMT 34.572205 -83.311096 38,000 335 402 0
2019-03-22 02:11:31 GMT 34.566788 -83.307983 38,000 335 402 0
2019-03-22 02:11:28 GMT 34.560242 -83.304222 38,000 335 402 64
2019-03-22 02:11:21 GMT 34.550171 -83.298393 38,000 335 402 64
2019-03-22 02:11:17 GMT 34.543064 -83.294334 38,000 335 403 128
2019-03-22 02:11:14 GMT 34.538177 -83.291588 38,000 335 403 128
2019-03-22 02:11:11 GMT 34.532455 -83.288307 38,000 335 403 64
2019-03-22 02:11:07 GMT 34.525700 -83.284492 38,000 335 403 0
2019-03-22 02:11:02 GMT 34.514694 -83.278214 38,000 335 403 0
2019-03-22 02:10:58 GMT 34.511490 -83.276367 38,000 335 403 0
2019-03-22 02:10:55 GMT 34.507263 -83.273964 38,000 335 403 0
2019-03-22 02:10:52 GMT 34.500839 -83.270302 38,000 335 403 0
2019-03-22 02:10:47 GMT 34.491898 -83.265213 38,000 335 403 0
2019-03-22 02:10:44 GMT 34.478218 -83.257370 38,000 335 403 0
2019-03-22 02:10:39 GMT 34.478218 -83.257370 38,000 335 403 0
2019-03-22 02:10:35 GMT 34.472305 -83.253998 38,000 335 403 0
2019-03-22 02:10:31 GMT 34.465508 -83.250160 38,000 335 403 0
2019-03-22 02:10:28 GMT 34.458942 -83.246445 38,000 335 402 -64
2019-03-22 02:10:25 GMT 34.450703 -83.241753 38,000 335 402 -64
2019-03-22 02:10:18 GMT 34.444279 -83.238091 38,000 335 401 -64
2019-03-22 02:10:14 GMT 34.436691 -83.233795 38,000 335 401 0
2019-03-22 02:10:10 GMT 34.425659 -83.227501 38,000 335 400 0
2019-03-22 02:10:07 GMT 34.418930 -83.223679 38,000 335 400 0
2019-03-22 02:10:04 GMT 34.418930 -83.223679 38,000 335 399 0
2019-03-22 02:10:01 GMT 34.415417 -83.221725 38,000 335 399 0
2019-03-22 02:09:58 GMT 34.408062 -83.217484 38,000 335 399 0
2019-03-22 02:09:54 GMT 34.404526 -83.215546 38,000 335 399 0
2019-03-22 02:09:51 GMT 34.398335 -83.211990 38,000 335 399 0
2019-03-22 02:09:45 GMT 34.387482 -83.205856 38,000 335 398 0
2019-03-22 02:09:41 GMT 34.381302 -83.202377 38,000 335 398 -64
2019-03-22 02:09:35 GMT 34.366379 -83.193970 38,025 336 398 -128
2019-03-22 02:09:32 GMT 34.366379 -83.193970 38,025 336 398 0
2019-03-22 02:09:28 GMT 34.360394 -83.190651 38,000 336 398 512
2019-03-22 02:09:24 GMT 34.351547 -83.185677 37,975 336 398 512
2019-03-22 02:09:21 GMT 34.349213 -83.184387 37,950 336 398 448
2019-03-22 02:09:18 GMT 34.343494 -83.181152 37,925 336 398 448
2019-03-22 02:09:14 GMT 34.336514 -83.177261 37,900 336 398 448
2019-03-22 02:09:11 GMT 34.331131 -83.174240 37,875 336 398 448
2019-03-22 02:09:07 GMT 34.325317 -83.170990 37,850 335 398 448
2019-03-22 02:09:03 GMT 34.316757 -83.166168 37,800 335 398 448
2019-03-22 02:08:57 GMT 34.308113 -83.161301 37,775 335 398 448
2019-03-22 02:08:54 GMT 34.303085 -83.158440 37,750 335 398 448
2019-03-22 02:08:50 GMT 34.295406 -83.154083 37,725 335 398 448
2019-03-22 02:08:46 GMT 34.289749 -83.150864 37,700 335 398 384
2019-03-22 02:08:42 GMT 34.282288 -83.146545 37,675 335 397 384
2019-03-22 02:08:39 GMT 34.279301 -83.144875 37,650 335 397 384
2019-03-22 02:08:36 GMT 34.273106 -83.141327 37,625 335 397 384
2019-03-22 02:08:32 GMT 34.266815 -83.137749 37,600 335 396 384
2019-03-22 02:08:29 GMT 34.260166 -83.133888 37,575 335 396 448
2019-03-22 02:08:25 GMT 34.255875 -83.131416 37,550 335 396 448
2019-03-22 02:08:21 GMT 34.246262 -83.125870 37,500 335 396 448
2019-03-22 02:08:18 GMT 34.243103 -83.124069 37,500 335 396 448
2019-03-22 02:08:15 GMT 34.238800 -83.121605 37,475 335 397 448
2019-03-22 02:08:09 GMT 34.226509 -83.114548 37,425 335 399 512
2019-03-22 02:08:04 GMT 34.221294 -83.111572 37,375 334 399 512
2019-03-22 02:07:59 GMT 34.209961 -83.104622 37,325 332 398 576
2019-03-22 02:07:56 GMT 34.205292 -83.101486 37,300 330 396 576
2019-03-22 02:07:53 GMT 34.203510 -83.100304 37,300 330 396 576
2019-03-22 02:07:47 GMT 34.190895 -83.090919 37,225 327 395 512
2019-03-22 02:07:43 GMT 34.187824 -83.088509 37,200 326 393 512
2019-03-22 02:07:39 GMT 34.178932 -83.080902 37,000 322 392 576
2019-03-22 02:07:36 GMT 34.175629 -83.077866 37,125 322 391 576
2019-03-22 02:07:32 GMT 34.171764 -83.074203 37,100 322 392 512
2019-03-22 02:07:28 GMT 34.164642 -83.067459 37,075 322 391 640
2019-03-22 02:07:25 GMT 34.160522 -83.063591 37,025 322 392 512
2019-03-22 02:07:22 GMT 34.156216 -83.059502 37,025 322 392 512
2019-03-22 02:07:17 GMT 34.149651 -83.053322 37,000 322 393 0
2019-03-22 02:07:12 GMT 34.142487 -83.046555 37,000 323 393 0
2019-03-22 02:07:04 GMT 34.129715 -83.034554 37,000 323 393 0
2019-03-22 02:07:01 GMT 34.126236 -83.031349 37,000 323 393 0
2019-03-22 02:06:57 GMT 34.119324 -83.024918 37,000 323 393 0
2019-03-22 02:06:51 GMT 34.106461 -83.013031 37,000 323 393 0
2019-03-22 02:06:47 GMT 34.106461 -83.013031 37,000 323 393 0
2019-03-22 02:06:44 GMT 34.102570 -83.009445 37,000 323 393 0
2019-03-22 02:06:40 GMT 34.096069 -83.003502 37,000 323 393 0
2019-03-22 02:06:35 GMT 34.087551 -82.995644 37,000 323 392 0
2019-03-22 02:06:29 GMT 34.080055 -82.988663 37,000 323 392 0
2019-03-22 02:06:25 GMT 34.072723 -82.981865 37,000 323 392 0
2019-03-22 02:06:20 GMT 34.066975 -82.976532 37,000 323 393 -64
2019-03-22 02:06:14 GMT 34.057152 -82.967491 37,000 323 393 -64
2019-03-22 02:06:08 GMT 34.050751 -82.961578 37,000 323 394 -64
2019-03-22 02:06:03 GMT 34.042099 -82.953613 37,000 323 394 0
2019-03-22 02:05:57 GMT 34.034546 -82.946663 37,000 323 394 0
2019-03-22 02:05:52 GMT 34.024521 -82.937508 37,000 324 394 -64
2019-03-22 02:05:47 GMT 34.019352 -82.932930 37,000 325 395 -64
2019-03-22 02:05:41 GMT 34.008636 -82.924751 37,000 332 404 128
2019-03-22 02:05:38 GMT 34.004688 -82.922173 37,000 333 405 0
2019-03-22 02:05:33 GMT 33.995499 -82.916512 37,000 334 406 0
2019-03-22 02:05:27 GMT 33.986626 -82.911072 37,000 334 406 0
2019-03-22 02:05:23 GMT 33.979736 -82.906898 37,000 334 406 0
2019-03-22 02:05:20 GMT 33.974350 -82.903618 37,000 334 406 0
2019-03-22 02:05:15 GMT 33.967632 -82.899513 37,000 333 407 0
2019-03-22 02:05:12 GMT 33.959106 -82.894257 37,000 333 407 0
2019-03-22 02:05:09 GMT 33.955902 -82.892303 37,000 333 407 0
2019-03-22 02:05:06 GMT 33.949524 -82.888412 37,000 334 408 0
2019-03-22 02:04:59 GMT 33.937866 -82.881363 37,000 334 408 0
2019-03-22 02:04:51 GMT 33.926056 -82.874130 37,000 334 409 0
2019-03-22 02:04:48 GMT 33.919144 -82.869926 37,000 334 409 0
2019-03-22 02:04:43 GMT 33.912560 -82.865929 37,000 334 410 0
2019-03-22 02:04:39 GMT 33.905777 -82.861855 37,000 334 410 0
2019-03-22 02:04:36 GMT 33.900513 -82.858665 37,000 334 410 0
2019-03-22 02:04:30 GMT 33.890541 -82.852531 37,000 334 410 0
2019-03-22 02:04:27 GMT 33.883606 -82.848358 37,000 334 410 0
2019-03-22 02:04:19 GMT 33.864983 -82.836967 37,000 333 409 0
2019-03-22 02:04:16 GMT 33.864983 -82.836967 37,000 333 409 0
2019-03-22 02:04:12 GMT 33.858047 -82.832794 37,000 334 410 0
2019-03-22 02:04:08 GMT 33.853809 -82.830215 37,000 334 410 0
2019-03-22 02:04:05 GMT 33.848053 -82.826714 37,000 334 410 0
2019-03-22 02:03:57 GMT 33.834866 -82.818718 37,000 334 410 0
2019-03-22 02:03:54 GMT 33.828094 -82.814606 37,000 334 410 0
2019-03-22 02:03:49 GMT 33.819641 -82.809502 37,000 334 408 0
2019-03-22 02:03:46 GMT 33.816238 -82.807426 37,000 334 408 0
2019-03-22 02:03:42 GMT 33.810333 -82.803841 37,000 334 408 0
2019-03-22 02:03:34 GMT 33.793625 -82.793755 37,000 334 408 0
2019-03-22 02:03:31 GMT 33.791931 -82.792686 37,000 334 408 0
2019-03-22 02:03:25 GMT 33.780441 -82.785736 37,000 333 407 64
2019-03-22 02:03:22 GMT 33.775417 -82.782669 37,000 334 407 0
2019-03-22 02:03:10 GMT 33.755356 -82.770546 37,000 333 407 0
2019-03-22 02:03:01 GMT 33.740223 -82.761330 37,000 334 398 0
2019-03-22 02:02:49 GMT 33.721390 -82.749863 37,000 334 398 0
2019-03-22 02:02:45 GMT 33.704269 -82.739441 37,000 334 406 -64
2019-03-22 02:02:39 GMT 33.704269 -82.739441 37,000 334 406 0
2019-03-22 02:02:34 GMT 33.695389 -82.734055 37,000 334 405 0
2019-03-22 02:02:29 GMT 33.687153 -82.729050 37,000 334 405 0
2019-03-22 02:02:20 GMT 33.672134 -82.719933 37,000 334 403 0
2019-03-22 02:02:16 GMT 33.665955 -82.716179 37,000 334 403 0
2019-03-22 02:02:12 GMT 33.658806 -82.711830 37,000 334 402 0
2019-03-22 02:02:07 GMT 33.650612 -82.706909 37,000 334 402 0
2019-03-22 02:02:00 GMT 33.638855 -82.699753 37,000 334 401 64
2019-03-22 02:01:52 GMT 33.624310 -82.690948 37,000 334 398 0
2019-03-22 02:01:36 GMT 33.598892 -82.675552 37,000 334 398 0
2019-03-22 02:01:26 GMT 33.583374 -82.666237 37,000 334 398 -64
2019-03-22 02:01:18 GMT 33.570053 -82.658165 37,000 334 398 -64
2019-03-22 02:01:15 GMT 33.564117 -82.654549 37,000 334 398 -64
2019-03-22 02:01:06 GMT 33.549316 -82.645607 37,025 334 398 -64
2019-03-22 02:00:54 GMT 33.529541 -82.633667 36,950 334 399 448
2019-03-22 02:00:45 GMT 33.514305 -82.624527 36,900 334 402 512
2019-03-22 02:00:33 GMT 33.495346 -82.613068 36,800 334 403 448
2019-03-22 02:00:23 GMT 33.477482 -82.602280 36,700 334 404 448
2019-03-22 02:00:17 GMT 33.467789 -82.596420 36,675 334 404 448
2019-03-22 02:00:13 GMT 33.460922 -82.592300 36,625 334 405 448
2019-03-22 02:00:07 GMT 33.450714 -82.586151 36,600 334 405 448
2019-03-22 02:00:01 GMT 33.442154 -82.580986 36,550 334 406 448
2019-03-22 01:59:56 GMT 33.433582 -82.575821 36,525 334 406 448
2019-03-22 01:59:51 GMT 33.425346 -82.570831 36,475 334 407 448
2019-03-22 01:59:45 GMT 33.414734 -82.564453 36,425 334 409 448
2019-03-22 01:59:41 GMT 33.407822 -82.560226 36,400 334 410 512
2019-03-22 01:59:34 GMT 33.396286 -82.553299 36,350 334 410 512
2019-03-22 01:59:25 GMT 33.380005 -82.543419 36,250 334 410 512
2019-03-22 01:59:14 GMT 33.362545 -82.532883 36,175 334 410 512
2019-03-22 01:59:00 GMT 33.337593 -82.517921 36,050 334 410 512
We lost coverage of the aircraft here for a total of 12 minutes
2019-03-22 01:46:36 GMT 31.968613 -82.021561 35,000 359 446 0
2019-03-22 01:46:24 GMT 31.944239 -82.020729 35,000 359 446 0
2019-03-22 01:46:09 GMT 31.913422 -82.019554 35,000 359 447 0
2019-03-22 01:45:59 GMT 31.891262 -82.018822 35,000 358 446 0
2019-03-22 01:45:50 GMT 31.874588 -82.017776 35,000 355 441 0
2019-03-22 01:45:40 GMT 31.854126 -82.015244 35,000 352 436 0
2019-03-22 01:45:30 GMT 31.834396 -82.011459 35,000 351 434 0
2019-03-22 01:45:00 GMT 31.773697 -81.998825 35,000 350 437 0
2019-03-22 01:44:51 GMT 31.754883 -81.994896 35,000 350 439 0
2019-03-22 01:44:41 GMT 31.735245 -81.990860 35,000 351 440 -64
2019-03-22 01:43:09 GMT 31.550825 -81.953339 35,000 351 441 0
2019-03-22 01:43:05 GMT 31.543167 -81.951759 35,000 351 441 0
2019-03-22 01:42:52 GMT 31.517395 -81.946533 35,000 351 441 0
2019-03-22 01:42:43 GMT 31.497663 -81.942520 35,000 351 441 0
2019-03-22 01:42:31 GMT 31.474686 -81.937866 35,000 351 441 0
2019-03-22 01:42:24 GMT 31.460403 -81.935013 35,000 351 441 0
2019-03-22 01:42:18 GMT 31.448318 -81.932587 35,000 351 441 0
2019-03-22 01:42:13 GMT 31.438215 -81.930542 35,000 351 441 0
2019-03-22 01:42:10 GMT 31.432398 -81.929390 35,000 351 441 0
2019-03-22 01:42:03 GMT 31.418060 -81.926506 35,000 351 441 0
2019-03-22 01:41:59 GMT 31.409819 -81.924828 35,000 351 441 0
2019-03-22 01:41:52 GMT 31.396086 -81.922028 35,000 351 441 0
2019-03-22 01:41:49 GMT 31.389849 -81.920761 35,000 351 441 0
2019-03-22 01:41:42 GMT 31.375324 -81.917854 35,000 351 441 0
2019-03-22 01:41:39 GMT 31.368439 -81.916435 35,000 351 441 0
2019-03-22 01:41:32 GMT 31.354752 -81.913635 35,000 351 441 0
2019-03-22 01:41:28 GMT 31.347904 -81.912247 35,000 351 441 0
2019-03-22 01:41:21 GMT 31.332779 -81.909218 35,000 351 441 0
2019-03-22 01:41:16 GMT 31.323120 -81.907227 35,000 351 441 0
2019-03-22 01:41:10 GMT 31.310011 -81.904556 35,000 350 441 0
2019-03-22 01:41:07 GMT 31.303774 -81.903244 35,000 350 441 0
2019-03-22 01:41:00 GMT 31.290878 -81.900604 35,000 350 441 0
2019-03-22 01:40:55 GMT 31.281427 -81.898682 35,000 350 441 -64
2019-03-22 01:40:49 GMT 31.268951 -81.896103 35,000 351 441 0
2019-03-22 01:40:46 GMT 31.262878 -81.894890 35,000 351 441 0
2019-03-22 01:40:39 GMT 31.248779 -81.892036 35,000 351 441 64
2019-03-22 01:40:35 GMT 31.240540 -81.890366 35,000 351 441 0
2019-03-22 01:40:28 GMT 31.227219 -81.887672 35,000 351 441 0
2019-03-22 01:40:24 GMT 31.218954 -81.885994 35,000 351 441 0
2019-03-22 01:40:15 GMT 31.200426 -81.882256 35,000 351 442 0
2019-03-22 01:40:12 GMT 31.194141 -81.880997 35,000 351 442 0
2019-03-22 01:40:07 GMT 31.184040 -81.878960 35,000 351 442 0
2019-03-22 01:40:02 GMT 31.174591 -81.877037 35,000 351 442 0
2019-03-22 01:39:57 GMT 31.163864 -81.874908 35,000 351 442 0
2019-03-22 01:39:52 GMT 31.153748 -81.872864 35,000 351 443 0
2019-03-22 01:39:46 GMT 31.141817 -81.870499 35,000 351 443 0
2019-03-22 01:39:43 GMT 31.134521 -81.869041 35,000 351 443 0
2019-03-22 01:39:32 GMT 31.112490 -81.864677 35,000 351 443 0
2019-03-22 01:39:21 GMT 31.091446 -81.860420 35,000 351 443 0
2019-03-22 01:39:11 GMT 31.070572 -81.856277 35,000 351 443 0
2019-03-22 01:39:00 GMT 31.048714 -81.851883 35,000 351 443 0
2019-03-22 01:38:54 GMT 31.035168 -81.849136 35,000 351 443 0
2019-03-22 01:38:49 GMT 31.026215 -81.847336 35,000 351 444 0
2019-03-22 01:38:44 GMT 31.015686 -81.845238 35,000 351 444 0
2019-03-22 01:38:38 GMT 31.004349 -81.842926 35,000 351 444 0
2019-03-22 01:38:33 GMT 30.993782 -81.840836 35,000 351 444 0
2019-03-22 01:38:27 GMT 30.981445 -81.838287 35,000 351 444 0
2019-03-22 01:38:23 GMT 30.972925 -81.836555 35,000 351 444 0
2019-03-22 01:38:17 GMT 30.961149 -81.834190 35,000 351 444 0
2019-03-22 01:38:10 GMT 30.947369 -81.831337 35,000 351 444 0
2019-03-22 01:38:07 GMT 30.940063 -81.829834 35,000 351 444 0
2019-03-22 01:38:02 GMT 30.930313 -81.827843 35,000 351 444 0
2019-03-22 01:37:56 GMT 30.918137 -81.825363 35,000 351 445 0
2019-03-22 01:37:51 GMT 30.908615 -81.823425 35,000 351 445 0
2019-03-22 01:37:45 GMT 30.896393 -81.820946 35,000 351 445 0
2019-03-22 01:37:40 GMT 30.886642 -81.818954 35,000 351 445 0
2019-03-22 01:37:35 GMT 30.875290 -81.816643 35,000 351 445 0
2019-03-22 01:37:30 GMT 30.866135 -81.814812 35,000 351 445 0
2019-03-22 01:37:24 GMT 30.853287 -81.812218 35,000 351 445 0
2019-03-22 01:37:20 GMT 30.845169 -81.810555 35,000 351 445 -64
2019-03-22 01:37:13 GMT 30.832123 -81.807915 35,000 351 445 -64
2019-03-22 01:37:07 GMT 30.819304 -81.805298 35,000 351 446 0
2019-03-22 01:37:03 GMT 30.809946 -81.803429 35,000 351 446 0
2019-03-22 01:36:59 GMT 30.803009 -81.802048 35,000 351 447 0
2019-03-22 01:36:52 GMT 30.788952 -81.799202 35,000 351 447 0
2019-03-22 01:36:49 GMT 30.781631 -81.797737 35,000 351 447 0
2019-03-22 01:36:41 GMT 30.766708 -81.794777 35,000 351 447 0
2019-03-22 01:36:38 GMT 30.759567 -81.793373 35,000 351 448 0
2019-03-22 01:36:35 GMT 30.752176 -81.791946 35,000 351 448 0
2019-03-22 01:36:31 GMT 30.745007 -81.790520 35,000 351 448 0
2019-03-22 01:36:26 GMT 30.734573 -81.788475 35,000 351 448 0
2019-03-22 01:36:20 GMT 30.723545 -81.786293 35,000 351 448 0
2019-03-22 01:36:14 GMT 30.708755 -81.783409 35,000 351 449 0
2019-03-22 01:36:09 GMT 30.700790 -81.781853 35,000 351 449 0
2019-03-22 01:36:06 GMT 30.694839 -81.780663 35,000 351 449 0
2019-03-22 01:36:02 GMT 30.684540 -81.778671 35,000 351 449 0
2019-03-22 01:35:59 GMT 30.679642 -81.777702 35,000 351 449 0
2019-03-22 01:35:56 GMT 30.673876 -81.776566 35,000 351 449 0
2019-03-22 01:35:53 GMT 30.664425 -81.774704 35,000 351 449 0
2019-03-22 01:35:49 GMT 30.658466 -81.773544 35,000 351 449 0
2019-03-22 01:35:43 GMT 30.636703 -81.769196 35,000 351 449 0
2019-03-22 01:35:38 GMT 30.636703 -81.769196 35,000 352 452 0
2019-03-22 01:35:34 GMT 30.629059 -81.767792 35,000 352 453 0
2019-03-22 01:35:28 GMT 30.615452 -81.765800 35,000 355 459 0
2019-03-22 01:35:25 GMT 30.608871 -81.765045 35,000 356 460 0
2019-03-22 01:35:21 GMT 30.601639 -81.764343 35,000 356 461 0
2019-03-22 01:35:17 GMT 30.591843 -81.763428 35,000 356 461 0
2019-03-22 01:35:14 GMT 30.586304 -81.762894 35,000 356 461 0
2019-03-22 01:35:06 GMT 30.569916 -81.761383 35,000 356 461 0
2019-03-22 01:35:03 GMT 30.563324 -81.760796 35,000 356 461 0
2019-03-22 01:35:00 GMT 30.554581 -81.759987 35,000 356 461 0
2019-03-22 01:34:53 GMT 30.541573 -81.758774 35,000 356 461 0
2019-03-22 01:34:50 GMT 30.532635 -81.758003 35,000 356 461 0
2019-03-22 01:34:45 GMT 30.524302 -81.757233 35,000 356 461 0
2019-03-22 01:34:41 GMT 30.514938 -81.756378 35,000 356 461 0
2019-03-22 01:34:38 GMT 30.510244 -81.755966 35,000 356 461 0
2019-03-22 01:34:33 GMT 30.499191 -81.754974 35,000 356 461 0
2019-03-22 01:34:30 GMT 30.489349 -81.754059 35,000 356 461 64
2019-03-22 01:34:24 GMT 30.479567 -81.753166 35,000 356 461 0
2019-03-22 01:34:21 GMT 30.474014 -81.752609 35,000 356 461 0
2019-03-22 01:34:16 GMT 30.461014 -81.751419 35,000 356 461 -64
2019-03-22 01:34:13 GMT 30.456755 -81.751022 35,000 356 461 -64
2019-03-22 01:34:10 GMT 30.450146 -81.750366 35,000 356 461 -64
2019-03-22 01:34:06 GMT 30.441605 -81.749588 35,000 356 461 0
2019-03-22 01:34:02 GMT 30.417526 -81.747276 35,000 356 461 0
2019-03-22 01:33:56 GMT 30.417526 -81.747276 35,000 356 460 64
2019-03-22 01:33:52 GMT 30.411575 -81.746681 35,000 356 460 0
2019-03-22 01:33:45 GMT 30.394592 -81.745064 35,000 356 459 0
2019-03-22 01:33:41 GMT 30.388229 -81.744431 35,000 356 459 0
2019-03-22 01:33:36 GMT 30.376732 -81.743332 35,000 356 459 0
2019-03-22 01:33:31 GMT 30.364883 -81.742210 35,000 356 457 64
2019-03-22 01:33:23 GMT 30.347916 -81.740585 35,000 356 458 0
2019-03-22 01:33:20 GMT 30.343918 -81.740219 35,000 356 458 0
2019-03-22 01:33:10 GMT 30.320265 -81.737953 35,000 356 456 0
2019-03-22 01:33:03 GMT 30.305693 -81.736633 35,000 356 456 0
2019-03-22 01:32:59 GMT 30.299547 -81.736031 35,000 356 456 0
2019-03-22 01:32:53 GMT 30.284180 -81.734619 35,000 356 456 64
2019-03-22 01:32:49 GMT 30.277855 -81.734055 35,000 356 456 0
2019-03-22 01:32:40 GMT 30.257418 -81.732132 35,000 356 456 0
2019-03-22 01:32:37 GMT 30.251320 -81.731583 35,000 356 456 0
2019-03-22 01:32:25 GMT 30.228323 -81.729439 35,000 356 456 0
2019-03-22 01:32:21 GMT 30.217575 -81.728424 35,000 356 456 0
2019-03-22 01:32:18 GMT 30.213135 -81.727997 35,000 356 456 0
2019-03-22 01:32:15 GMT 30.207048 -81.727463 35,000 356 456 0
2019-03-22 01:32:09 GMT 30.191437 -81.726006 35,000 356 456 0
2019-03-22 01:32:05 GMT 30.183819 -81.725266 35,000 356 456 0
2019-03-22 01:31:59 GMT 30.173298 -81.724274 35,000 356 456 0
2019-03-22 01:31:56 GMT 30.165298 -81.723526 35,000 356 456 0
2019-03-22 01:31:47 GMT 30.145477 -81.721695 35,000 356 456 0
2019-03-22 01:31:43 GMT 30.138931 -81.721100 35,000 356 456 0
2019-03-22 01:31:37 GMT 30.127121 -81.719971 35,000 356 456 0
2019-03-22 01:31:34 GMT 30.119751 -81.719269 35,000 356 456 0
2019-03-22 01:31:28 GMT 30.106449 -81.717957 35,000 356 457 0
2019-03-22 01:31:25 GMT 30.094625 -81.716858 35,000 356 457 0
2019-03-22 01:31:18 GMT 30.084291 -81.715927 35,000 356 457 0
2019-03-22 01:31:14 GMT 30.076656 -81.715210 35,000 356 458 0
2019-03-22 01:31:06 GMT 30.061203 -81.713776 35,000 356 458 0
2019-03-22 01:31:02 GMT 30.050402 -81.712791 35,000 356 458 0
2019-03-22 01:30:56 GMT 30.039413 -81.711784 35,000 356 458 0
2019-03-22 01:30:52 GMT 30.030943 -81.711037 35,000 356 458 0
2019-03-22 01:30:46 GMT 30.016558 -81.709717 35,000 356 458 0
2019-03-22 01:30:40 GMT 30.005310 -81.708664 35,000 356 458 0
2019-03-22 01:30:35 GMT 29.994120 -81.707626 35,000 356 458 0
2019-03-22 01:30:29 GMT 29.982239 -81.706558 35,000 356 458 0
2019-03-22 01:30:24 GMT 29.971029 -81.705544 35,000 356 458 0
2019-03-22 01:30:19 GMT 29.959158 -81.704445 35,000 356 459 0
2019-03-22 01:30:14 GMT 29.948547 -81.703491 35,000 356 459 0
2019-03-22 01:30:08 GMT 29.937515 -81.702469 35,000 356 459 0
2019-03-22 01:30:02 GMT 29.925453 -81.701370 35,000 356 459 0
2019-03-22 01:29:58 GMT 29.915073 -81.700378 35,000 356 459 0
2019-03-22 01:29:54 GMT 29.905518 -81.699509 35,000 356 458 0
2019-03-22 01:29:49 GMT 29.897232 -81.698776 35,000 356 458 0
2019-03-22 01:29:46 GMT 29.891518 -81.698212 35,000 356 458 0
2019-03-22 01:29:41 GMT 29.877136 -81.696922 35,000 356 458 0
2019-03-22 01:29:38 GMT 29.874388 -81.696655 35,000 356 458 0
2019-03-22 01:29:35 GMT 29.868896 -81.696129 35,000 356 458 0
2019-03-22 01:29:30 GMT 29.855160 -81.694878 35,000 356 457 0
2019-03-22 01:29:27 GMT 29.848179 -81.694229 35,000 356 456 0
2019-03-22 01:29:24 GMT 29.845001 -81.693970 35,000 356 457 0
2019-03-22 01:29:21 GMT 29.837402 -81.693230 35,000 356 456 0
2019-03-22 01:29:18 GMT 29.832117 -81.692719 35,000 356 456 0
2019-03-22 01:29:15 GMT 29.823273 -81.691910 35,000 356 456 0
2019-03-22 01:29:11 GMT 29.816940 -81.691322 35,000 356 456 0
2019-03-22 01:29:05 GMT 29.803894 -81.690109 35,000 356 456 0
2019-03-22 01:29:00 GMT 29.794830 -81.689262 35,000 356 456 0
2019-03-22 01:28:56 GMT 29.784912 -81.688354 35,000 356 456 0
2019-03-22 01:28:53 GMT 29.778582 -81.687714 35,000 356 456 0
2019-03-22 01:28:47 GMT 29.765127 -81.686417 35,000 356 456 0
2019-03-22 01:28:43 GMT 29.755234 -81.685463 35,000 356 456 0
2019-03-22 01:28:39 GMT 29.749969 -81.684990 35,000 356 456 0
2019-03-22 01:28:36 GMT 29.737747 -81.683823 35,000 356 456 0
2019-03-22 01:28:30 GMT 29.731424 -81.683189 35,000 355 455 0
2019-03-22 01:28:24 GMT 29.718475 -81.681503 35,000 353 451 0
2019-03-22 01:28:20 GMT 29.710648 -81.680229 35,000 351 447 0
2019-03-22 01:28:17 GMT 29.702888 -81.678825 35,000 351 446 0
2019-03-22 01:28:14 GMT 29.696777 -81.677544 35,000 349 442 0
2019-03-22 01:28:11 GMT 29.691156 -81.676292 35,000 348 439 0
2019-03-22 01:28:08 GMT 29.685196 -81.674789 35,000 347 438 0
2019-03-22 01:28:02 GMT 29.674942 -81.671997 35,000 345 433 0
2019-03-22 01:27:59 GMT 29.669083 -81.670250 35,000 344 432 0
2019-03-22 01:27:56 GMT 29.663132 -81.668350 35,000 344 430 0
2019-03-22 01:27:52 GMT 29.652420 -81.664650 35,000 344 430 0
2019-03-22 01:27:49 GMT 29.648392 -81.663277 35,000 344 430 0
2019-03-22 01:27:46 GMT 29.643448 -81.661591 35,000 344 430 0
2019-03-22 01:27:39 GMT 29.628172 -81.656319 35,000 344 431 0
2019-03-22 01:27:35 GMT 29.622437 -81.654350 35,000 344 431 0
2019-03-22 01:27:31 GMT 29.612091 -81.650810 35,000 344 430 0
2019-03-22 01:27:27 GMT 29.607468 -81.649284 35,000 344 435 0
2019-03-22 01:27:19 GMT 29.591394 -81.643768 35,000 344 431 0
2019-03-22 01:27:16 GMT 29.573147 -81.637573 35,000 344 435 0
2019-03-22 01:27:10 GMT 29.573147 -81.637573 35,000 344 432 0
2019-03-22 01:27:07 GMT 29.566635 -81.635338 35,000 344 432 0
2019-03-22 01:26:59 GMT 29.551300 -81.630058 35,000 344 433 0
2019-03-22 01:26:56 GMT 29.545303 -81.627998 35,000 344 433 0
2019-03-22 01:26:47 GMT 29.531111 -81.623138 35,000 344 433 0
2019-03-22 01:26:43 GMT 29.522644 -81.620232 35,000 344 434 0
2019-03-22 01:26:37 GMT 29.510489 -81.616081 35,000 344 435 0
2019-03-22 01:26:33 GMT 29.502777 -81.613472 35,000 344 434 0
2019-03-22 01:26:27 GMT 29.489685 -81.608978 35,000 344 435 0
2019-03-22 01:26:23 GMT 29.483906 -81.606987 35,000 344 435 0
2019-03-22 01:26:19 GMT 29.476730 -81.604546 35,000 344 435 0
2019-03-22 01:26:16 GMT 29.469223 -81.601959 35,000 344 435 0
2019-03-22 01:26:13 GMT 29.456085 -81.597519 35,000 344 435 0
2019-03-22 01:26:07 GMT 29.447754 -81.594666 35,000 344 435 0
2019-03-22 01:26:01 GMT 29.440201 -81.592079 35,000 344 435 0
2019-03-22 01:25:54 GMT 29.427246 -81.587639 35,000 344 435 0
2019-03-22 01:25:50 GMT 29.420502 -81.585335 35,000 344 436 0
2019-03-22 01:25:44 GMT 29.406769 -81.580650 35,000 344 436 0
2019-03-22 01:25:40 GMT 29.399414 -81.578133 35,000 344 436 0
2019-03-22 01:25:33 GMT 29.386053 -81.573540 35,000 344 436 0
2019-03-22 01:25:28 GMT 29.378139 -81.570847 35,000 344 436 0
2019-03-22 01:25:22 GMT 29.364361 -81.566109 35,000 344 436 0
2019-03-22 01:25:19 GMT 29.358353 -81.564087 35,000 344 436 0
2019-03-22 01:25:14 GMT 29.350250 -81.561287 35,000 344 436 0
2019-03-22 01:25:08 GMT 29.338430 -81.557274 35,000 344 437 0
2019-03-22 01:25:04 GMT 29.329679 -81.554314 35,000 344 437 0
2019-03-22 01:24:56 GMT 29.315140 -81.549347 35,000 344 437 0
2019-03-22 01:24:52 GMT 29.307753 -81.546829 35,000 344 438 0
2019-03-22 01:24:49 GMT 29.300770 -81.544456 35,000 344 437 0
2019-03-22 01:24:46 GMT 29.296116 -81.542900 35,000 344 437 0
2019-03-22 01:24:42 GMT 29.287548 -81.539986 35,000 344 438 0
2019-03-22 01:24:39 GMT 29.281357 -81.537888 35,000 344 438 0
2019-03-22 01:24:36 GMT 29.274124 -81.535454 35,000 344 438 0
2019-03-22 01:24:31 GMT 29.264227 -81.532074 35,000 344 438 0
2019-03-22 01:24:28 GMT 29.260735 -81.530884 35,000 344 438 0
2019-03-22 01:24:24 GMT 29.251190 -81.527641 35,000 344 438 0
2019-03-22 01:24:21 GMT 29.246750 -81.526161 35,000 344 438 0
2019-03-22 01:24:18 GMT 29.239151 -81.523575 35,000 344 438 0
2019-03-22 01:24:14 GMT 29.231733 -81.521034 35,000 344 438 0
2019-03-22 01:24:09 GMT 29.223953 -81.518394 35,000 344 438 0
2019-03-22 01:24:05 GMT 29.215805 -81.515648 35,000 344 438 0
2019-03-22 01:24:02 GMT 29.211502 -81.514168 35,000 344 438 0
2019-03-22 01:23:59 GMT 29.202358 -81.511070 35,000 344 438 0
2019-03-22 01:23:54 GMT 29.194771 -81.508484 35,000 344 438 0
2019-03-22 01:23:51 GMT 29.189138 -81.506546 35,000 344 438 0
2019-03-22 01:23:47 GMT 29.181549 -81.503960 35,000 344 438 0
2019-03-22 01:23:43 GMT 29.170853 -81.500336 35,000 344 438 0
2019-03-22 01:23:38 GMT 29.163069 -81.497711 35,000 344 438 0
2019-03-22 01:23:34 GMT 29.155434 -81.495125 35,000 344 438 0
2019-03-22 01:23:30 GMT 29.147100 -81.492271 35,000 344 438 0
2019-03-22 01:23:27 GMT 29.142426 -81.490723 35,000 344 438 0
2019-03-22 01:23:24 GMT 29.134020 -81.487862 35,000 344 438 0
2019-03-22 01:23:20 GMT 29.126221 -81.485229 35,000 344 438 0
2019-03-22 01:23:16 GMT 29.119635 -81.483009 35,000 344 438 0
2019-03-22 01:23:10 GMT 29.109879 -81.479683 35,000 344 438 0
2019-03-22 01:23:06 GMT 29.091797 -81.473557 35,000 344 438 0
2019-03-22 01:23:02 GMT 29.091797 -81.473557 35,000 344 438 0
2019-03-22 01:22:55 GMT 29.077366 -81.468681 35,000 344 438 0
2019-03-22 01:22:52 GMT 29.072525 -81.467056 35,000 344 438 0
2019-03-22 01:22:49 GMT 29.065704 -81.464729 35,000 344 438 0
2019-03-22 01:22:43 GMT 29.055588 -81.461296 35,000 344 438 0
2019-03-22 01:22:40 GMT 29.050735 -81.459610 35,000 344 438 0
2019-03-22 01:22:37 GMT 29.043755 -81.457268 35,000 344 438 64
2019-03-22 01:22:34 GMT 29.037331 -81.455063 35,000 344 438 64
2019-03-22 01:22:30 GMT 29.029324 -81.452370 35,000 344 438 0
2019-03-22 01:22:26 GMT 29.022528 -81.450050 35,000 344 438 0
2019-03-22 01:22:20 GMT 29.009674 -81.445663 35,000 344 438 0
2019-03-22 01:22:17 GMT 29.000153 -81.442390 35,000 344 438 0
2019-03-22 01:22:14 GMT 29.000153 -81.442390 35,000 344 438 0
2019-03-22 01:22:10 GMT 28.991385 -81.439445 35,000 344 438 0
2019-03-22 01:22:07 GMT 28.985378 -81.437340 35,000 344 438 0
2019-03-22 01:22:03 GMT 28.971909 -81.432831 35,000 344 439 0
2019-03-22 01:22:00 GMT 28.971909 -81.432831 35,000 344 439 0
2019-03-22 01:21:56 GMT 28.965315 -81.430557 35,000 344 439 0
2019-03-22 01:21:53 GMT 28.958679 -81.428337 35,000 344 439 0
2019-03-22 01:21:49 GMT 28.950092 -81.425438 35,000 344 439 0
2019-03-22 01:21:46 GMT 28.945995 -81.424042 35,000 344 439 0
2019-03-22 01:21:41 GMT 28.934097 -81.419998 35,000 344 439 0
2019-03-22 01:21:38 GMT 28.922424 -81.416031 35,000 344 439 0
2019-03-22 01:21:30 GMT 28.912664 -81.412781 35,000 344 439 0
2019-03-22 01:21:27 GMT 28.906448 -81.410645 35,000 344 439 0
2019-03-22 01:21:21 GMT 28.895346 -81.406914 35,000 344 439 -64
2019-03-22 01:21:18 GMT 28.891434 -81.405579 35,000 344 439 0
2019-03-22 01:21:15 GMT 28.882645 -81.402618 35,000 344 439 0
2019-03-22 01:21:06 GMT 28.868179 -81.397758 35,000 344 440 0
2019-03-22 01:21:03 GMT 28.862137 -81.395752 35,000 344 440 0
2019-03-22 01:20:58 GMT 28.850418 -81.391792 35,000 344 441 0
2019-03-22 01:20:52 GMT 28.838461 -81.387794 35,000 344 441 0
2019-03-22 01:20:47 GMT 28.827847 -81.384239 35,000 344 441 0
2019-03-22 01:20:42 GMT 28.821213 -81.382019 35,000 344 442 0
2019-03-22 01:20:35 GMT 28.805874 -81.376862 35,000 344 442 0
2019-03-22 01:20:32 GMT 28.798416 -81.374359 35,000 344 443 0
2019-03-22 01:20:27 GMT 28.788742 -81.371155 35,000 344 443 0
2019-03-22 01:20:24 GMT 28.783447 -81.369339 35,000 344 443 0
2019-03-22 01:20:16 GMT 28.768661 -81.364372 35,000 344 443 0
2019-03-22 01:20:12 GMT 28.759228 -81.361191 35,000 344 443 0
2019-03-22 01:20:06 GMT 28.747192 -81.357140 35,000 344 443 0
2019-03-22 01:20:02 GMT 28.740141 -81.354782 35,000 344 443 0
2019-03-22 01:19:59 GMT 28.736206 -81.353439 35,000 344 443 0
2019-03-22 01:19:53 GMT 28.722427 -81.348846 35,000 344 443 0
2019-03-22 01:19:49 GMT 28.716293 -81.346786 35,000 344 443 0
2019-03-22 01:19:43 GMT 28.705505 -81.343147 35,000 344 442 0
2019-03-22 01:19:40 GMT 28.697617 -81.340500 35,000 344 442 0
2019-03-22 01:19:33 GMT 28.684837 -81.336151 35,000 344 442 0
2019-03-22 01:19:29 GMT 28.677017 -81.333527 35,000 344 442 0
2019-03-22 01:19:25 GMT 28.667587 -81.330360 35,000 344 442 0
2019-03-22 01:19:21 GMT 28.659943 -81.327774 35,000 344 442 64
2019-03-22 01:19:18 GMT 28.654221 -81.325874 35,000 344 442 0
2019-03-22 01:19:10 GMT 28.638145 -81.320427 35,000 344 442 0
2019-03-22 01:19:02 GMT 28.621628 -81.314888 35,000 344 442 0
2019-03-22 01:18:57 GMT 28.614395 -81.312454 35,000 344 442 0
2019-03-22 01:18:49 GMT 28.596313 -81.306328 35,000 344 442 0
2019-03-22 01:18:46 GMT 28.591780 -81.304810 35,000 344 442 0
2019-03-22 01:18:43 GMT 28.585510 -81.302681 35,000 344 442 0
2019-03-22 01:18:40 GMT 28.581390 -81.301308 35,000 344 442 -64
2019-03-22 01:18:36 GMT 28.571548 -81.298035 35,000 344 442 -64
2019-03-22 01:18:29 GMT 28.550537 -81.290955 35,000 344 442 0
2019-03-22 01:18:25 GMT 28.550537 -81.290955 35,000 344 442 0
2019-03-22 01:18:22 GMT 28.544449 -81.288895 35,000 344 442 0
2019-03-22 01:18:18 GMT 28.536758 -81.286308 35,000 344 442 0
2019-03-22 01:18:15 GMT 28.529491 -81.283859 35,000 344 442 0
2019-03-22 01:18:07 GMT 28.516159 -81.279388 35,000 344 442 0
2019-03-22 01:18:03 GMT 28.499233 -81.273735 35,000 344 442 0
2019-03-22 01:17:59 GMT 28.499233 -81.273735 35,000 344 442 0
2019-03-22 01:17:55 GMT 28.492390 -81.271416 35,000 344 442 0
2019-03-22 01:17:52 GMT 28.487274 -81.269722 35,000 344 442 0
2019-03-22 01:17:47 GMT 28.477661 -81.266502 35,000 344 442 0
2019-03-22 01:17:43 GMT 28.467625 -81.263123 35,000 344 442 0
2019-03-22 01:17:40 GMT 28.461731 -81.261169 35,000 344 442 0
2019-03-22 01:17:37 GMT 28.456009 -81.259270 35,000 344 442 0
2019-03-22 01:17:34 GMT 28.450333 -81.257362 35,000 344 442 0
2019-03-22 01:17:29 GMT 28.431656 -81.251137 35,000 344 442 0
2019-03-22 01:17:25 GMT 28.431656 -81.251137 35,000 344 442 0
2019-03-22 01:17:21 GMT 28.425522 -81.249123 35,000 344 442 0
2019-03-22 01:17:18 GMT 28.418655 -81.246857 35,000 344 442 0
2019-03-22 01:17:15 GMT 28.414536 -81.245483 35,000 344 442 0
2019-03-22 01:17:11 GMT 28.403708 -81.241852 35,000 344 442 0
2019-03-22 01:17:02 GMT 28.386612 -81.236183 35,000 344 442 0
2019-03-22 01:16:59 GMT 28.380569 -81.234177 35,000 344 442 0
2019-03-22 01:16:56 GMT 28.374287 -81.232101 35,000 344 440 0
2019-03-22 01:16:50 GMT 28.363083 -81.228371 35,000 344 441 0
2019-03-22 01:16:46 GMT 28.356411 -81.226128 35,000 344 441 0
2019-03-22 01:16:43 GMT 28.352316 -81.224777 35,000 344 441 0
2019-03-22 01:16:40 GMT 28.346216 -81.222786 35,000 344 441 0
2019-03-22 01:16:37 GMT 28.338209 -81.220093 35,000 344 441 0
2019-03-22 01:16:33 GMT 28.330576 -81.217560 35,000 344 441 0
2019-03-22 01:16:30 GMT 28.324896 -81.215675 35,000 344 441 0
2019-03-22 01:16:26 GMT 28.319000 -81.213684 35,000 344 441 0
2019-03-22 01:16:22 GMT 28.310604 -81.210884 35,000 344 440 0
2019-03-22 01:16:19 GMT 28.304123 -81.208717 35,000 344 440 0
2019-03-22 01:16:15 GMT 28.295151 -81.205711 35,000 344 440 0
2019-03-22 01:16:12 GMT 28.290447 -81.204155 35,000 344 440 0
2019-03-22 01:16:09 GMT 28.277344 -81.199791 35,000 344 440 0
2019-03-22 01:16:02 GMT 28.269917 -81.197311 35,000 344 440 0
2019-03-22 01:15:56 GMT 28.257395 -81.193115 35,000 344 440 0
2019-03-22 01:15:50 GMT 28.244499 -81.188805 35,000 344 439 0
2019-03-22 01:15:47 GMT 28.241592 -81.187859 35,000 344 439 0
2019-03-22 01:15:44 GMT 28.234350 -81.185410 35,000 344 438 -64
2019-03-22 01:15:41 GMT 28.228134 -81.183311 35,000 344 438 0
2019-03-22 01:15:37 GMT 28.220535 -81.180779 35,000 344 437 0
2019-03-22 01:15:32 GMT 28.211014 -81.177612 35,000 344 436 0
2019-03-22 01:15:27 GMT 28.200741 -81.174156 35,000 344 436 64
2019-03-22 01:15:24 GMT 28.195108 -81.172272 35,000 344 436 64
2019-03-22 01:15:20 GMT 28.187519 -81.169739 35,000 344 436 0
2019-03-22 01:15:16 GMT 28.180939 -81.167519 35,000 344 436 0
2019-03-22 01:15:13 GMT 28.174393 -81.165321 35,000 344 435 0
2019-03-22 01:15:05 GMT 28.158142 -81.159912 35,000 344 434 64
2019-03-22 01:15:00 GMT 28.150417 -81.157349 35,000 344 434 0
2019-03-22 01:14:57 GMT 28.144226 -81.155251 35,000 344 434 0
2019-03-22 01:14:54 GMT 28.138826 -81.153473 35,000 344 434 0
2019-03-22 01:14:51 GMT 28.133423 -81.151672 35,000 344 434 0
2019-03-22 01:14:45 GMT 28.120285 -81.147293 35,000 344 434 0
2019-03-22 01:14:41 GMT 28.112385 -81.144699 35,000 344 434 0
2019-03-22 01:14:36 GMT 28.104843 -81.142166 35,000 344 434 0
2019-03-22 01:14:33 GMT 28.095579 -81.139099 35,000 344 434 0
2019-03-22 01:14:29 GMT 28.091537 -81.137779 35,000 344 434 0
2019-03-22 01:14:25 GMT 28.083614 -81.135109 35,000 344 434 0
2019-03-22 01:14:22 GMT 28.075329 -81.132362 35,000 344 434 0
2019-03-22 01:14:19 GMT 28.070860 -81.130913 35,000 344 434 0
2019-03-22 01:14:16 GMT 28.064110 -81.128647 35,000 344 434 0
2019-03-22 01:14:09 GMT 28.044022 -81.121986 35,000 344 434 0
2019-03-22 01:14:06 GMT 28.044022 -81.121986 35,000 344 434 0
2019-03-22 01:14:01 GMT 28.034550 -81.118843 35,000 344 434 0
2019-03-22 01:13:58 GMT 28.029510 -81.117188 35,000 344 434 0
2019-03-22 01:13:53 GMT 28.019466 -81.113838 35,000 344 434 0
2019-03-22 01:13:49 GMT 28.007721 -81.109947 35,000 344 434 0
2019-03-22 01:13:43 GMT 28.000751 -81.107643 35,000 344 434 0
2019-03-22 01:13:39 GMT 27.994747 -81.105705 35,000 344 434 0
2019-03-22 01:13:36 GMT 27.987579 -81.103348 35,000 344 434 0
2019-03-22 01:13:32 GMT 27.981400 -81.101288 35,000 344 434 0
2019-03-22 01:13:25 GMT 27.964188 -81.095581 35,000 344 434 64
2019-03-22 01:13:21 GMT 27.959972 -81.094177 35,000 344 435 0
2019-03-22 01:13:17 GMT 27.949493 -81.090721 35,000 344 435 0
2019-03-22 01:13:14 GMT 27.939835 -81.087555 35,000 344 435 0
2019-03-22 01:13:11 GMT 27.939835 -81.087555 35,000 344 435 0
2019-03-22 01:13:05 GMT 27.926285 -81.083038 35,000 344 435 0
2019-03-22 01:13:00 GMT 27.917770 -81.080238 35,000 344 435 0
2019-03-22 01:12:54 GMT 27.905182 -81.076096 35,000 344 435 0
2019-03-22 01:12:48 GMT 27.896055 -81.073082 35,000 344 435 0
2019-03-22 01:12:44 GMT 27.886597 -81.069931 35,000 344 435 0
2019-03-22 01:12:41 GMT 27.879808 -81.067696 35,000 344 435 0
2019-03-22 01:12:37 GMT 27.872040 -81.065163 35,000 344 435 0
2019-03-22 01:12:32 GMT 27.852112 -81.058556 35,000 344 435 64
2019-03-22 01:12:26 GMT 27.852112 -81.058556 35,000 344 435 0
2019-03-22 01:12:22 GMT 27.842606 -81.055420 35,000 344 435 0
2019-03-22 01:12:19 GMT 27.831985 -81.051895 35,000 344 434 0
2019-03-22 01:12:16 GMT 27.831985 -81.051895 35,000 344 434 0
2019-03-22 01:12:12 GMT 27.824066 -81.049255 35,000 344 434 0
2019-03-22 01:12:09 GMT 27.819431 -81.047729 35,000 344 434 0
2019-03-22 01:12:04 GMT 27.808777 -81.044228 35,000 344 434 0
2019-03-22 01:12:01 GMT 27.804161 -81.042656 35,000 344 434 0
2019-03-22 01:11:58 GMT 27.797413 -81.040436 35,000 344 434 0
2019-03-22 01:11:53 GMT 27.786758 -81.036972 35,000 344 434 0
2019-03-22 01:11:50 GMT 27.781174 -81.035103 35,000 344 434 0
2019-03-22 01:11:44 GMT 27.770365 -81.031563 35,000 344 434 0
2019-03-22 01:11:40 GMT 27.761475 -81.028610 35,000 344 433 0
2019-03-22 01:11:37 GMT 27.755310 -81.026604 35,000 344 433 0
2019-03-22 01:11:31 GMT 27.746437 -81.023697 35,000 344 433 0
2019-03-22 01:11:28 GMT 27.728668 -81.017845 35,000 344 433 0
2019-03-22 01:11:22 GMT 27.728668 -81.017845 35,000 344 433 0
2019-03-22 01:11:17 GMT 27.719009 -81.014687 35,000 344 433 0
2019-03-22 01:11:10 GMT 27.703217 -81.009506 35,000 344 432 -64
2019-03-22 01:11:07 GMT 27.698582 -81.008003 35,000 344 433 0
2019-03-22 01:10:59 GMT 27.683533 -81.003075 35,025 344 432 -64
2019-03-22 01:10:56 GMT 27.677401 -81.001038 35,025 344 432 0
2019-03-22 01:10:47 GMT 27.660130 -80.995331 35,025 344 428 0
2019-03-22 01:10:44 GMT 27.656872 -80.994270 35,025 344 429 0
2019-03-22 01:10:38 GMT 27.643021 -80.989655 35,025 344 426 0
2019-03-22 01:10:34 GMT 27.636154 -80.987427 35,025 344 425 128
2019-03-22 01:10:29 GMT 27.627077 -80.984451 34,975 344 425 640
2019-03-22 01:10:24 GMT 27.616137 -80.980858 34,900 344 425 960
2019-03-22 01:10:19 GMT 27.607452 -80.978050 34,825 344 425 960
2019-03-22 01:10:13 GMT 27.595734 -80.974213 34,725 344 425 960
2019-03-22 01:10:08 GMT 27.587036 -80.971359 34,650 344 425 1088
2019-03-22 01:10:04 GMT 27.578888 -80.968719 34,575 344 425 1024
2019-03-22 01:10:01 GMT 27.575089 -80.967476 34,525 344 425 1024
2019-03-22 01:09:55 GMT 27.561811 -80.963165 34,400 344 425 960
2019-03-22 01:09:52 GMT 27.557465 -80.961777 34,350 344 425 960
2019-03-22 01:09:47 GMT 27.545704 -80.957932 34,275 344 425 960
2019-03-22 01:09:41 GMT 27.535276 -80.954498 34,175 344 425 1152
2019-03-22 01:09:34 GMT 27.521439 -80.950012 34,050 344 427 1216
2019-03-22 01:09:29 GMT 27.514235 -80.947632 33,975 344 427 1152
2019-03-22 01:09:25 GMT 27.505484 -80.944786 33,875 344 427 1152
2019-03-22 01:09:21 GMT 27.497709 -80.942192 33,800 344 427 1216
2019-03-22 01:09:13 GMT 27.483046 -80.937386 33,625 344 428 1280
2019-03-22 01:09:08 GMT 27.473314 -80.934166 33,550 344 428 1152
2019-03-22 01:09:04 GMT 27.464951 -80.931358 33,450 344 428 1216
2019-03-22 01:09:00 GMT 27.457952 -80.928940 33,350 342 426 1152
2019-03-22 01:08:57 GMT 27.451172 -80.926483 33,300 342 425 1152
2019-03-22 01:08:51 GMT 27.441101 -80.922653 33,200 342 425 960
2019-03-22 01:08:48 GMT 27.433823 -80.919853 33,175 342 424 896
2019-03-22 01:08:43 GMT 27.426956 -80.917206 33,100 342 424 960
2019-03-22 01:08:39 GMT 27.418945 -80.914154 32,425 342 427 1472
2019-03-22 01:08:33 GMT 27.407211 -80.909660 32,900 342 424 1152
2019-03-22 01:08:29 GMT 27.401440 -80.907440 32,800 342 424 1280
2019-03-22 01:08:26 GMT 27.394363 -80.904747 32,750 342 424 1344
2019-03-22 01:08:23 GMT 27.389521 -80.902901 32,700 342 425 1344
2019-03-22 01:08:19 GMT 27.382259 -80.900154 32,600 342 425 1344
2019-03-22 01:08:15 GMT 27.374020 -80.896980 32,500 342 425 1344
2019-03-22 01:08:11 GMT 27.367502 -80.894501 32,450 342 426 1408
2019-03-22 01:08:05 GMT 27.354748 -80.889694 32,250 342 427 1472
2019-03-22 01:08:00 GMT 27.347260 -80.886841 32,150 342 427 1600
2019-03-22 01:07:50 GMT 27.317877 -80.875694 31,850 342 429 1600
2019-03-22 01:07:43 GMT 27.312431 -80.873581 31,675 342 430 1536
2019-03-22 01:07:35 GMT 27.291779 -80.865746 31,425 342 431 1408
2019-03-22 01:07:32 GMT 27.291779 -80.865746 31,400 342 431 1344
2019-03-22 01:07:24 GMT 27.276581 -80.860001 31,250 342 431 896
2019-03-22 01:07:21 GMT 27.270906 -80.857841 31,175 342 432 1280
2019-03-22 01:07:12 GMT 27.249260 -80.849602 31,000 342 431 896
2019-03-22 01:06:59 GMT 27.220350 -80.838615 30,850 342 429 832
2019-03-22 01:06:50 GMT 27.213959 -80.836212 30,725 342 427 704
2019-03-22 01:06:47 GMT 27.209085 -80.834335 30,700 342 427 704
2019-03-22 01:06:42 GMT 27.200089 -80.830925 30,650 342 425 576
2019-03-22 01:06:39 GMT 27.188141 -80.826363 30,600 342 423 768
2019-03-22 01:06:36 GMT 27.188141 -80.826363 30,575 342 423 832
2019-03-22 01:06:31 GMT 27.179260 -80.822998 30,525 342 422 896
2019-03-22 01:06:28 GMT 27.171249 -80.819939 30,475 342 421 576
2019-03-22 01:06:25 GMT 27.165697 -80.817810 30,450 342 420 512
2019-03-22 01:06:21 GMT 27.159805 -80.815582 30,425 342 418 256
2019-03-22 01:06:18 GMT 27.152664 -80.812836 30,400 342 415 64
2019-03-22 01:06:15 GMT 27.140259 -80.808121 30,350 342 413 1088
2019-03-22 01:06:10 GMT 27.140259 -80.808121 30,375 342 413 768
2019-03-22 01:06:07 GMT 27.132660 -80.805222 30,275 342 413 1088
2019-03-22 01:06:03 GMT 27.127579 -80.803307 30,250 342 412 1152
2019-03-22 01:05:59 GMT 27.118561 -80.799881 30,150 342 412 1216
2019-03-22 01:05:56 GMT 27.107136 -80.795517 30,075 342 411 1088
2019-03-22 01:05:52 GMT 27.107136 -80.795517 30,025 342 410 1088
2019-03-22 01:05:48 GMT 27.099779 -80.792717 30,000 342 411 1088
2019-03-22 01:05:45 GMT 27.093292 -80.790245 29,875 342 410 1280
2019-03-22 01:05:42 GMT 27.089493 -80.788795 29,550 342 412 1664
2019-03-22 01:05:39 GMT 27.083221 -80.786407 29,775 342 409 1408
2019-03-22 01:05:34 GMT 27.074038 -80.782890 29,650 342 409 1408
2019-03-22 01:05:30 GMT 27.068497 -80.780777 29,575 342 409 1408
2019-03-22 01:05:26 GMT 27.058594 -80.776978 29,275 342 409 1536
2019-03-22 01:05:23 GMT 27.053926 -80.775238 29,375 342 409 1728
2019-03-22 01:05:20 GMT 27.048712 -80.773224 29,275 342 410 1792
2019-03-22 01:05:17 GMT 27.043854 -80.771378 29,200 342 411 1728
2019-03-22 01:05:13 GMT 27.037214 -80.768845 29,100 342 411 1728
2019-03-22 01:05:10 GMT 27.029251 -80.765785 28,875 342 412 1664
2019-03-22 01:05:06 GMT 27.025808 -80.764511 28,700 342 414 1856
2019-03-22 01:05:01 GMT 27.015518 -80.760551 28,750 342 413 1728
2019-03-22 01:04:58 GMT 27.009377 -80.758224 28,650 342 413 1792
2019-03-22 01:04:52 GMT 26.999599 -80.754532 28,500 342 413 1792
2019-03-22 01:04:49 GMT 26.994827 -80.752724 28,400 342 414 1728
2019-03-22 01:04:45 GMT 26.986843 -80.749725 28,250 342 414 1856
2019-03-22 01:04:41 GMT 26.977720 -80.746292 28,100 342 416 2048
2019-03-22 01:04:38 GMT 26.973312 -80.744637 28,000 342 417 2048
2019-03-22 01:04:35 GMT 26.969467 -80.743187 27,925 342 418 2048
2019-03-22 01:04:32 GMT 26.961380 -80.740166 27,775 342 420 2624
2019-03-22 01:04:29 GMT 26.955093 -80.737854 27,600 342 421 2880
2019-03-22 01:04:25 GMT 26.950254 -80.736046 27,475 342 423 3008
2019-03-22 01:04:21 GMT 26.941689 -80.732872 27,225 342 426 3008
2019-03-22 01:04:18 GMT 26.935125 -80.730446 27,075 342 428 3072
2019-03-22 01:04:14 GMT 26.926804 -80.727386 26,300 342 439 2368
2019-03-22 01:04:10 GMT 26.921310 -80.725311 26,700 342 433 3200
2019-03-22 01:04:07 GMT 26.915199 -80.723045 26,350 342 436 3008
2019-03-22 01:04:03 GMT 26.907532 -80.720177 26,300 342 439 2368
2019-03-22 01:04:00 GMT 26.900803 -80.717644 26,200 342 439 1984
2019-03-22 01:03:56 GMT 26.893274 -80.714813 26,075 342 439 1728
2019-03-22 01:03:52 GMT 26.885733 -80.711906 25,750 341 439 1792
2019-03-22 01:03:49 GMT 26.879402 -80.709473 25,875 341 439 1792
2019-03-22 01:03:45 GMT 26.871689 -80.706444 25,750 341 439 1856
2019-03-22 01:03:41 GMT 26.866322 -80.704407 25,675 342 439 1728
2019-03-22 01:03:37 GMT 26.859375 -80.701729 25,575 342 439 1728
2019-03-22 01:03:34 GMT 26.851868 -80.698830 25,475 342 439 1600
2019-03-22 01:03:31 GMT 26.844908 -80.696167 25,375 342 439 1536
2019-03-22 01:03:27 GMT 26.838902 -80.693893 25,300 342 439 1408
2019-03-22 01:03:20 GMT 26.825401 -80.688766 25,075 342 438 1536
2019-03-22 01:03:16 GMT 26.817348 -80.685707 25,025 342 438 1600
2019-03-22 01:03:12 GMT 26.808884 -80.682503 24,900 342 438 1472
2019-03-22 01:03:09 GMT 26.805405 -80.681213 24,875 342 437 1408
2019-03-22 01:03:05 GMT 26.797144 -80.678101 24,775 342 437 1408
2019-03-22 01:03:00 GMT 26.776476 -80.670235 24,525 342 435 1792
2019-03-22 01:02:54 GMT 26.776476 -80.670235 24,475 342 435 1664
2019-03-22 01:02:50 GMT 26.766699 -80.666534 24,375 342 434 1344
2019-03-22 01:02:47 GMT 26.762100 -80.664780 24,325 342 434 1024
2019-03-22 01:02:44 GMT 26.756561 -80.662758 24,275 342 433 832
2019-03-22 01:02:40 GMT 26.748171 -80.659668 24,175 342 432 1024
2019-03-22 01:02:37 GMT 26.740910 -80.657028 24,125 343 431 1344
2019-03-22 01:02:33 GMT 26.735601 -80.655121 24,050 343 431 1664
2019-03-22 01:02:29 GMT 26.725891 -80.651619 23,900 343 431 1984
2019-03-22 01:02:23 GMT 26.714886 -80.647621 23,700 342 431 1920
2019-03-22 01:02:18 GMT 26.706926 -80.644722 23,575 342 430 1792
2019-03-22 01:02:15 GMT 26.699152 -80.641869 23,450 342 429 1600
2019-03-22 01:02:12 GMT 26.694214 -80.640060 23,400 342 429 1536
2019-03-22 01:02:08 GMT 26.686661 -80.637314 23,300 342 427 1536
2019-03-22 01:02:05 GMT 26.681030 -80.635246 23,200 342 427 1600
2019-03-22 01:02:01 GMT 26.665260 -80.629349 23,000 342 426 1600
2019-03-22 01:01:56 GMT 26.665260 -80.629349 23,000 342 425 1536
2019-03-22 01:01:53 GMT 26.659286 -80.627106 22,925 342 423 1344
2019-03-22 01:01:49 GMT 26.653717 -80.625015 22,875 341 422 1216
2019-03-22 01:01:46 GMT 26.646698 -80.622292 22,775 341 420 1152
2019-03-22 01:01:39 GMT 26.633743 -80.617104 22,625 339 415 1344
2019-03-22 01:01:35 GMT 26.626740 -80.614098 22,550 339 413 1344
2019-03-22 01:01:31 GMT 26.620012 -80.611076 22,425 338 410 1600
2019-03-22 01:01:28 GMT 26.614891 -80.608749 22,350 338 409 1664
2019-03-22 01:01:24 GMT 26.607056 -80.605034 19,175 337 391 2048
2019-03-22 01:01:21 GMT 26.600460 -80.601830 22,100 337 407 1920
2019-03-22 01:01:18 GMT 26.595945 -80.599663 22,025 337 407 1856
2019-03-22 01:01:14 GMT 26.581373 -80.592690 21,775 337 406 1856
2019-03-22 01:01:10 GMT 26.581373 -80.592690 21,775 338 405 1664
2019-03-22 01:01:07 GMT 26.576706 -80.590469 21,675 338 406 1920
2019-03-22 01:01:02 GMT 26.569061 -80.586891 21,550 338 406 1728
2019-03-22 01:00:59 GMT 26.562799 -80.584030 21,450 338 405 1664
2019-03-22 01:00:55 GMT 26.558258 -80.581917 21,375 337 404 1600
2019-03-22 01:00:52 GMT 26.552948 -80.579430 21,300 337 401 1408
2019-03-22 01:00:46 GMT 26.541059 -80.573570 21,100 336 397 1344
2019-03-22 01:00:43 GMT 26.536684 -80.571358 21,025 336 395 1344
2019-03-22 01:00:35 GMT 26.523010 -80.564301 20,925 336 393 1600
2019-03-22 01:00:32 GMT 26.518890 -80.562225 20,800 336 393 1856
2019-03-22 01:00:26 GMT 26.508224 -80.556885 20,575 336 393 2112
2019-03-22 01:00:21 GMT 26.488724 -80.547249 19,175 337 391 2048
2019-03-22 01:00:15 GMT 26.484079 -80.544945 20,100 336 392 2112
2019-03-22 01:00:12 GMT 26.484079 -80.544945 20,050 337 391 2112
2019-03-22 01:00:03 GMT 26.468445 -80.537300 19,750 337 391 2048
2019-03-22 01:00:00 GMT 26.466110 -80.536156 19,700 337 391 2048
2019-03-22 00:59:52 GMT 26.449860 -80.528229 19,375 336 388 1856
2019-03-22 00:59:43 GMT 26.438370 -80.522530 19,175 337 385 1856
2019-03-22 00:59:39 GMT 26.431522 -80.519119 19,025 337 385 1856
2019-03-22 00:59:29 GMT 26.414717 -80.511032 18,750 337 382 1664
2019-03-22 00:59:21 GMT 26.399231 -80.503456 18,450 336 376 1856
2019-03-22 00:59:18 GMT 26.397491 -80.502579 18,425 336 375 1856
2019-03-22 00:59:12 GMT 26.387009 -80.497345 18,200 337 374 2048
2019-03-22 00:59:08 GMT 26.381247 -80.494659 18,075 338 374 2176
2019-03-22 00:59:01 GMT 26.369797 -80.489517 17,825 339 375 2368
2019-03-22 00:58:57 GMT 26.362656 -80.486465 17,650 339 374 2432
2019-03-22 00:58:51 GMT 26.352997 -80.482208 17,400 338 373 2560
2019-03-22 00:58:46 GMT 26.346100 -80.479134 17,200 338 373 2560
2019-03-22 00:58:40 GMT 26.335531 -80.474274 16,925 338 371 2560
2019-03-22 00:58:37 GMT 26.328968 -80.471313 16,750 338 372 2560
2019-03-22 00:58:33 GMT 26.323381 -80.468781 16,600 338 372 2496
2019-03-22 00:58:29 GMT 26.317610 -80.466194 16,450 339 371 2496
2019-03-22 00:58:26 GMT 26.311569 -80.463455 16,300 338 371 2432
2019-03-22 00:58:18 GMT 26.300852 -80.458740 16,100 339 369 2368
2019-03-22 00:58:15 GMT 26.295227 -80.456299 15,900 340 369 2304
2019-03-22 00:58:11 GMT 26.288361 -80.453400 15,725 340 368 2240
2019-03-22 00:58:07 GMT 26.283533 -80.451454 15,625 340 368 2176
2019-03-22 00:58:04 GMT 26.277901 -80.449127 15,500 341 366 2048
2019-03-22 00:58:00 GMT 26.269613 -80.445801 15,325 340 365 1856
2019-03-22 00:57:56 GMT 26.266251 -80.444489 15,250 340 364 1856
2019-03-22 00:57:53 GMT 26.260071 -80.441948 15,150 340 361 1856
2019-03-22 00:57:48 GMT 26.253754 -80.439407 15,025 341 359 1920
2019-03-22 00:57:45 GMT 26.246658 -80.436661 14,850 343 358 2048
2019-03-22 00:57:42 GMT 26.242722 -80.435211 14,775 344 358 2176
2019-03-22 00:57:39 GMT 26.237411 -80.433502 14,650 347 358 2304
2019-03-22 00:57:35 GMT 26.232559 -80.432098 14,450 349 358 2368
2019-03-22 00:57:32 GMT 26.225389 -80.430382 14,450 349 358 2368
2019-03-22 00:57:26 GMT 26.217590 -80.429047 14,175 354 361 2432
2019-03-22 00:57:23 GMT 26.212738 -80.428421 14,050 356 362 2560
2019-03-22 00:57:20 GMT 26.206512 -80.427849 13,875 358 363 2816
2019-03-22 00:57:16 GMT 26.198044 -80.427490 13,625 359 364 3008
2019-03-22 00:57:13 GMT 26.196030 -80.427437 13,500 0 367 3264
2019-03-22 00:57:10 GMT 26.189871 -80.427368 13,375 0 368 3136
2019-03-22 00:57:07 GMT 26.184610 -80.427315 13,225 0 368 2816
2019-03-22 00:57:03 GMT 26.179302 -80.427261 13,000 0 368 2560
2019-03-22 00:57:00 GMT 26.171265 -80.427124 12,875 0 368 2496
2019-03-22 00:56:53 GMT 26.161057 -80.426971 12,650 0 367 2304
2019-03-22 00:56:49 GMT 26.152222 -80.426918 12,450 0 365 2048
2019-03-22 00:56:45 GMT 26.148624 -80.426842 12,375 0 365 1920
2019-03-22 00:56:41 GMT 26.140898 -80.426788 12,225 0 363 1728
2019-03-22 00:56:36 GMT 26.131485 -80.426712 12,075 0 359 1664
2019-03-22 00:56:31 GMT 26.124186 -80.426575 11,950 0 357 1792
2019-03-22 00:56:27 GMT 26.115738 -80.426506 11,800 0 354 2048
2019-03-22 00:56:20 GMT 26.106903 -80.426292 11,500 359 349 1792
2019-03-22 00:56:15 GMT 26.096952 -80.426102 11,425 359 348 1728
2019-03-22 00:56:10 GMT 26.090195 -80.425987 11,175 359 344 1088
2019-03-22 00:56:04 GMT 26.079620 -80.425728 11,200 359 340 832
2019-03-22 00:55:59 GMT 26.073349 -80.425621 11,125 359 322 1152
2019-03-22 00:55:53 GMT 26.064039 -80.425415 11,100 359 330 896
2019-03-22 00:55:46 GMT 26.052841 -80.425102 10,950 359 309 1024
2019-03-22 00:55:42 GMT 26.047348 -80.424950 10,875 359 318 1152
2019-03-22 00:55:36 GMT 26.037226 -80.424622 10,725 359 309 1024
2019-03-22 00:55:32 GMT 26.031733 -80.424461 10,675 359 307 896
2019-03-22 00:55:27 GMT 26.024796 -80.424255 10,600 359 302 768
2019-03-22 00:55:23 GMT 26.019348 -80.424149 10,550 0 296 960
2019-03-22 00:55:13 GMT 26.004452 -80.423882 10,300 0 287 1856
2019-03-22 00:55:10 GMT 26.001799 -80.423828 10,225 359 286 2112
2019-03-22 00:55:00 GMT 25.987413 -80.423569 9,750 0 284 3072
2019-03-22 00:54:51 GMT 25.971819 -80.423302 9,200 359 284 2240
2019-03-22 00:54:40 GMT 25.961857 -80.423035 8,975 359 278 1536
2019-03-22 00:54:37 GMT 25.957342 -80.422882 8,875 359 277 1536
2019-03-22 00:54:29 GMT 25.944960 -80.422455 7,975 0 269 2880
2019-03-22 00:54:18 GMT 25.933832 -80.422195 8,150 0 269 3136
2019-03-22 00:54:15 GMT 25.931318 -80.422142 8,025 0 269 3264
2019-03-22 00:54:05 GMT 25.917664 -80.421944 7,450 0 271 3008
2019-03-22 00:53:56 GMT 25.907364 -80.421783 7,025 0 271 2816
2019-03-22 00:53:53 GMT 25.903574 -80.421768 6,925 0 271 2688
2019-03-22 00:53:46 GMT 25.894684 -80.421783 5,750 0 268 2752
2019-03-22 00:53:43 GMT 25.890198 -80.421837 6,450 0 268 2880
2019-03-22 00:53:35 GMT 25.880997 -80.421768 5,750 0 269 3712
2019-03-22 00:53:32 GMT 25.876480 -80.421768 5,825 0 270 3712
2019-03-22 00:53:24 GMT 25.867449 -80.421616 5,275 359 273 3264
2019-03-22 00:53:21 GMT 25.863144 -80.421478 5,225 359 273 3072
2019-03-22 00:53:13 GMT 25.853119 -80.421112 4,800 358 272 2816
2019-03-22 00:53:10 GMT 25.848597 -80.420921 4,675 358 271 2880
2019-03-22 00:53:03 GMT 25.840309 -80.420448 4,350 355 272 2688
2019-03-22 00:53:00 GMT 25.835220 -80.419815 4,175 349 271 2432
2019-03-22 00:52:52 GMT 25.827183 -80.417488 3,900 337 266 2624
2019-03-22 00:52:49 GMT 25.822573 -80.415359 3,700 330 266 3136
2019-03-22 00:52:42 GMT 25.816055 -80.411163 3,375 321 266 3456
2019-03-22 00:52:36 GMT 25.810135 -80.405327 3,025 302 262 1856
2019-03-22 00:52:31 GMT 25.806791 -80.400749 2,850 304 263 1984
2019-03-22 00:52:24 GMT 25.802994 -80.393166 2,725 295 256 1344
2019-03-22 00:52:20 GMT 25.801392 -80.388283 2,600 285 246 1408
2019-03-22 00:52:16 GMT 25.799698 -80.381523 2,475 285 237 1088
2019-03-22 00:52:09 GMT 25.798187 -80.374855 2,375 285 233 1152
2019-03-22 00:52:05 GMT 25.796768 -80.368858 2,275 285 225 1216
2019-03-22 00:51:59 GMT 25.795486 -80.363060 2,175 284 218 1472
2019-03-22 00:51:53 GMT 25.793976 -80.356346 2,000 284 211 1408
2019-03-22 00:51:48 GMT 25.792923 -80.351410 1,925 284 203 576
2019-03-22 00:51:41 GMT 25.791569 -80.344933 1,875 283 192 768
2019-03-22 00:51:37 GMT 25.790680 -80.340630 1,800 283 185 1152
2019-03-22 00:51:32 GMT 25.789660 -80.335815 1,675 283 179 1152
2019-03-22 00:51:27 GMT 25.788729 -80.331360 1,600 283 173 1088
2019-03-22 00:51:21 GMT 25.787565 -80.325348 1,375 282 166 1664
2019-03-22 00:51:18 GMT 25.787239 -80.323586 1,300 282 166 2432

Making use of Plane Finder data

You are free to use the raw flight data, aircraft information and images provided in this report for your own purposes provided the data is correctly attributed to Plane Finder. We ask that you please credit Plane Finder and link to planefinder.net in close proximity to the content.

Optionally one of the following logos (no smaller then 150x24px) can be used and must link to planefinder.net

Embedding the Plane Finder map

You are welcome to embed the Plane Finder playback map on your website to offer visitors a more interactive experience. We suggest using the following HTML code:

<iframe src="//planefinder.net/data/report/AA1454-N359PX-7700-squawk-2019-03-22/map" width="800" height="600" seamless="seamless"></iframe>

Where our data comes from

Plane Finder has a global network of data feeds and antenna radars that receive data broadcast directly from aircraft. The primary technologies used are ADS-B and MLAT. We also show feeds from the FAA and a FLARM glider feed.

Click here to find out more about the Plane Finder network.

How we collect our data